<?xml version="1.0" encoding="UTF-8" standalone="no" ?>
<gpx xmlns="http://www.topografix.com/GPX/1/1" xmlns:xsi="http://www.w3.org/2001/XMLSchema-instance" xsi:schemaLocation="http://www.topografix.com/GPX/1/1 http://www.topografix.com/GPX/1/1/gpx.xsd" version="1.1" creator="VisuGPX - https://www.visugpx.com">
  <metadata>
    <name>J2 Saint-Gély &gt; Clermont</name>
    <desc><![CDATA[



]]></desc>
  </metadata>
  <trk>
    <name><![CDATA[J2 Saint-Gély > Clermont]]></name>
    <desc><![CDATA[

]]></desc>
    <extensions>
      <line xmlns="http://www.topografix.com/GPX/gpx_style/0/2">
        <color>0000FF</color>
        <width>4</width>
          <extensions>
            <sens>1</sens>
          </extensions>
      </line>
    </extensions>
    <trkseg>
      <trkpt lat="43.69244" lon="3.80425">
        <ele>120.42</ele>
        <time>2024-08-27T09:37:14.000Z</time>
      </trkpt>
      <trkpt lat="43.69244" lon="3.80425">
        <ele>119.96</ele>
        <time>2024-08-27T09:37:14.000Z</time>
      </trkpt>
      <trkpt lat="43.69244" lon="3.80425">
        <ele>120.42</ele>
        <time>2024-08-27T09:37:14.000Z</time>
      </trkpt>
      <trkpt lat="43.69241" lon="3.80408">
        <ele>118.67</ele>
        <time>2024-08-27T09:37:14.002Z</time>
      </trkpt>
      <trkpt lat="43.69242" lon="3.80399">
        <ele>118</ele>
        <time>2024-08-27T09:37:14.005Z</time>
      </trkpt>
      <trkpt lat="43.69243" lon="3.80394">
        <ele>117.27</ele>
        <time>2024-08-27T09:37:14.009Z</time>
      </trkpt>
      <trkpt lat="43.69232" lon="3.80334">
        <ele>115.85</ele>
        <time>2024-08-27T09:37:14.020Z</time>
      </trkpt>
      <trkpt lat="43.6922" lon="3.80298">
        <ele>114.76</ele>
        <time>2024-08-27T09:37:14.036Z</time>
      </trkpt>
      <trkpt lat="43.69219" lon="3.80287">
        <ele>114.15</ele>
        <time>2024-08-27T09:37:14.053Z</time>
      </trkpt>
      <trkpt lat="43.69219" lon="3.80287">
        <ele>113.82</ele>
        <time>2024-08-27T09:37:14.070Z</time>
      </trkpt>
      <trkpt lat="43.69212" lon="3.80266">
        <ele>113.79</ele>
        <time>2024-08-27T09:37:14.089Z</time>
      </trkpt>
      <trkpt lat="43.69207" lon="3.80248">
        <ele>114.02</ele>
        <time>2024-08-27T09:37:14.111Z</time>
      </trkpt>
      <trkpt lat="43.69207" lon="3.80248">
        <ele>114.44</ele>
        <time>2024-08-27T09:37:14.133Z</time>
      </trkpt>
      <trkpt lat="43.69197" lon="3.80233">
        <ele>115.15</ele>
        <time>2024-08-27T09:37:14.157Z</time>
      </trkpt>
      <trkpt lat="43.6918" lon="3.80208">
        <ele>116.16</ele>
        <time>2024-08-27T09:37:14.185Z</time>
      </trkpt>
      <trkpt lat="43.69174" lon="3.80198">
        <ele>117.25</ele>
        <time>2024-08-27T09:37:14.215Z</time>
      </trkpt>
      <trkpt lat="43.69153" lon="3.80158">
        <ele>118.77</ele>
        <time>2024-08-27T09:37:14.250Z</time>
      </trkpt>
      <trkpt lat="43.69153" lon="3.80158">
        <ele>119.81</ele>
        <time>2024-08-27T09:37:14.285Z</time>
      </trkpt>
      <trkpt lat="43.69141" lon="3.80129">
        <ele>120.98</ele>
        <time>2024-08-27T09:37:14.324Z</time>
      </trkpt>
      <trkpt lat="43.69121" lon="3.80088">
        <ele>122.15</ele>
        <time>2024-08-27T09:37:14.369Z</time>
      </trkpt>
      <trkpt lat="43.69107" lon="3.80058">
        <ele>123.33</ele>
        <time>2024-08-27T09:37:14.418Z</time>
      </trkpt>
      <trkpt lat="43.69104" lon="3.80049">
        <ele>124.32</ele>
        <time>2024-08-27T09:37:14.468Z</time>
      </trkpt>
      <trkpt lat="43.69097" lon="3.80048">
        <ele>125.26</ele>
        <time>2024-08-27T09:37:14.519Z</time>
      </trkpt>
      <trkpt lat="43.69084" lon="3.80038">
        <ele>126.28</ele>
        <time>2024-08-27T09:37:14.573Z</time>
      </trkpt>
      <trkpt lat="43.69069" lon="3.80034">
        <ele>127.22</ele>
        <time>2024-08-27T09:37:14.629Z</time>
      </trkpt>
      <trkpt lat="43.69058" lon="3.80029">
        <ele>127.92</ele>
        <time>2024-08-27T09:37:14.687Z</time>
      </trkpt>
      <trkpt lat="43.69052" lon="3.80026">
        <ele>126.61</ele>
        <time>2024-08-27T09:37:14.746Z</time>
      </trkpt>
      <trkpt lat="43.69041" lon="3.80021">
        <ele>126.35</ele>
        <time>2024-08-27T09:37:14.807Z</time>
      </trkpt>
      <trkpt lat="43.69007" lon="3.80011">
        <ele>125.74</ele>
        <time>2024-08-27T09:37:14.873Z</time>
      </trkpt>
      <trkpt lat="43.68977" lon="3.79998">
        <ele>124.67</ele>
        <time>2024-08-27T09:37:14.944Z</time>
      </trkpt>
      <trkpt lat="43.68967" lon="3.79987">
        <ele>124.04</ele>
        <time>2024-08-27T09:37:15.018Z</time>
      </trkpt>
      <trkpt lat="43.68966" lon="3.79984">
        <ele>123.72</ele>
        <time>2024-08-27T09:37:15.092Z</time>
      </trkpt>
      <trkpt lat="43.68961" lon="3.7998">
        <ele>123.59</ele>
        <time>2024-08-27T09:37:15.167Z</time>
      </trkpt>
      <trkpt lat="43.68958" lon="3.7998">
        <ele>123.61</ele>
        <time>2024-08-27T09:37:15.242Z</time>
      </trkpt>
      <trkpt lat="43.68957" lon="3.79981">
        <ele>123.8</ele>
        <time>2024-08-27T09:37:15.318Z</time>
      </trkpt>
      <trkpt lat="43.68941" lon="3.79978">
        <ele>124.04</ele>
        <time>2024-08-27T09:37:15.396Z</time>
      </trkpt>
      <trkpt lat="43.68898" lon="3.79947">
        <ele>124.59</ele>
        <time>2024-08-27T09:37:15.482Z</time>
      </trkpt>
      <trkpt lat="43.68871" lon="3.79927">
        <ele>125.25</ele>
        <time>2024-08-27T09:37:15.573Z</time>
      </trkpt>
      <trkpt lat="43.68855" lon="3.7992">
        <ele>125.83</ele>
        <time>2024-08-27T09:37:15.666Z</time>
      </trkpt>
      <trkpt lat="43.68855" lon="3.7992">
        <ele>126.18</ele>
        <time>2024-08-27T09:37:15.759Z</time>
      </trkpt>
      <trkpt lat="43.68827" lon="3.79907">
        <ele>126.58</ele>
        <time>2024-08-27T09:37:15.857Z</time>
      </trkpt>
      <trkpt lat="43.68763" lon="3.79888">
        <ele>126.73</ele>
        <time>2024-08-27T09:37:15.966Z</time>
      </trkpt>
      <trkpt lat="43.6875" lon="3.79881">
        <ele>126.27</ele>
        <time>2024-08-27T09:37:16.077Z</time>
      </trkpt>
      <trkpt lat="43.68737" lon="3.79872">
        <ele>125.38</ele>
        <time>2024-08-27T09:37:16.190Z</time>
      </trkpt>
      <trkpt lat="43.68728" lon="3.79862">
        <ele>124.11</ele>
        <time>2024-08-27T09:37:16.305Z</time>
      </trkpt>
      <trkpt lat="43.68705" lon="3.79845">
        <ele>122.37</ele>
        <time>2024-08-27T09:37:16.424Z</time>
      </trkpt>
      <trkpt lat="43.68694" lon="3.79837">
        <ele>120.52</ele>
        <time>2024-08-27T09:37:16.545Z</time>
      </trkpt>
      <trkpt lat="43.68651" lon="3.79806">
        <ele>118.11</ele>
        <time>2024-08-27T09:37:16.674Z</time>
      </trkpt>
      <trkpt lat="43.68588" lon="3.79754">
        <ele>115.65</ele>
        <time>2024-08-27T09:37:16.815Z</time>
      </trkpt>
      <trkpt lat="43.68561" lon="3.79735">
        <ele>113.45</ele>
        <time>2024-08-27T09:37:16.961Z</time>
      </trkpt>
      <trkpt lat="43.68483" lon="3.79688">
        <ele>110.84</ele>
        <time>2024-08-27T09:37:17.120Z</time>
      </trkpt>
      <trkpt lat="43.68468" lon="3.79676">
        <ele>109.2</ele>
        <time>2024-08-27T09:37:17.282Z</time>
      </trkpt>
      <trkpt lat="43.68455" lon="3.79661">
        <ele>107.66</ele>
        <time>2024-08-27T09:37:17.447Z</time>
      </trkpt>
      <trkpt lat="43.68423" lon="3.79621">
        <ele>105.91</ele>
        <time>2024-08-27T09:37:17.619Z</time>
      </trkpt>
      <trkpt lat="43.68423" lon="3.79621">
        <ele>104.35</ele>
        <time>2024-08-27T09:37:17.791Z</time>
      </trkpt>
      <trkpt lat="43.684" lon="3.79597">
        <ele>102.57</ele>
        <time>2024-08-27T09:37:17.967Z</time>
      </trkpt>
      <trkpt lat="43.684" lon="3.79597">
        <ele>100.7</ele>
        <time>2024-08-27T09:37:18.143Z</time>
      </trkpt>
      <trkpt lat="43.68273" lon="3.79479">
        <ele>97.84</ele>
        <time>2024-08-27T09:37:18.344Z</time>
      </trkpt>
      <trkpt lat="43.68148" lon="3.79363">
        <ele>91.41</ele>
        <time>2024-08-27T09:37:18.569Z</time>
      </trkpt>
      <trkpt lat="43.68142" lon="3.79352">
        <ele>90.39</ele>
        <time>2024-08-27T09:37:18.795Z</time>
      </trkpt>
      <trkpt lat="43.68135" lon="3.79331">
        <ele>89.68</ele>
        <time>2024-08-27T09:37:19.024Z</time>
      </trkpt>
      <trkpt lat="43.68124" lon="3.79211">
        <ele>89.23</ele>
        <time>2024-08-27T09:37:19.267Z</time>
      </trkpt>
      <trkpt lat="43.68117" lon="3.79186">
        <ele>88.84</ele>
        <time>2024-08-27T09:37:19.513Z</time>
      </trkpt>
      <trkpt lat="43.68108" lon="3.79168">
        <ele>88.34</ele>
        <time>2024-08-27T09:37:19.762Z</time>
      </trkpt>
      <trkpt lat="43.68078" lon="3.79117">
        <ele>87.46</ele>
        <time>2024-08-27T09:37:20.018Z</time>
      </trkpt>
      <trkpt lat="43.68056" lon="3.79089">
        <ele>86.79</ele>
        <time>2024-08-27T09:37:20.279Z</time>
      </trkpt>
      <trkpt lat="43.68032" lon="3.79065">
        <ele>86.18</ele>
        <time>2024-08-27T09:37:20.545Z</time>
      </trkpt>
      <trkpt lat="43.68022" lon="3.79053">
        <ele>85.72</ele>
        <time>2024-08-27T09:37:20.813Z</time>
      </trkpt>
      <trkpt lat="43.68012" lon="3.7903">
        <ele>85.35</ele>
        <time>2024-08-27T09:37:21.084Z</time>
      </trkpt>
      <trkpt lat="43.67997" lon="3.78993">
        <ele>85.13</ele>
        <time>2024-08-27T09:37:21.360Z</time>
      </trkpt>
      <trkpt lat="43.67989" lon="3.78978">
        <ele>85.04</ele>
        <time>2024-08-27T09:37:21.638Z</time>
      </trkpt>
      <trkpt lat="43.67937" lon="3.78924">
        <ele>85.08</ele>
        <time>2024-08-27T09:37:21.927Z</time>
      </trkpt>
      <trkpt lat="43.67874" lon="3.78844">
        <ele>84.67</ele>
        <time>2024-08-27T09:37:22.229Z</time>
      </trkpt>
      <trkpt lat="43.67819" lon="3.7877">
        <ele>85.09</ele>
        <time>2024-08-27T09:37:22.544Z</time>
      </trkpt>
      <trkpt lat="43.67799" lon="3.78754">
        <ele>85.37</ele>
        <time>2024-08-27T09:37:22.862Z</time>
      </trkpt>
      <trkpt lat="43.67772" lon="3.78739">
        <ele>85.56</ele>
        <time>2024-08-27T09:37:23.185Z</time>
      </trkpt>
      <trkpt lat="43.67766" lon="3.7873">
        <ele>85.76</ele>
        <time>2024-08-27T09:37:23.510Z</time>
      </trkpt>
      <trkpt lat="43.67765" lon="3.78721">
        <ele>85.97</ele>
        <time>2024-08-27T09:37:23.836Z</time>
      </trkpt>
      <trkpt lat="43.67772" lon="3.78687">
        <ele>86.24</ele>
        <time>2024-08-27T09:37:24.166Z</time>
      </trkpt>
      <trkpt lat="43.67774" lon="3.78666">
        <ele>86.46</ele>
        <time>2024-08-27T09:37:24.498Z</time>
      </trkpt>
      <trkpt lat="43.67774" lon="3.78623">
        <ele>86.62</ele>
        <time>2024-08-27T09:37:24.835Z</time>
      </trkpt>
      <trkpt lat="43.67771" lon="3.78617">
        <ele>86.67</ele>
        <time>2024-08-27T09:37:25.173Z</time>
      </trkpt>
      <trkpt lat="43.67767" lon="3.78612">
        <ele>86.66</ele>
        <time>2024-08-27T09:37:25.512Z</time>
      </trkpt>
      <trkpt lat="43.67751" lon="3.78612">
        <ele>86.54</ele>
        <time>2024-08-27T09:37:25.853Z</time>
      </trkpt>
      <trkpt lat="43.67737" lon="3.78615">
        <ele>86.27</ele>
        <time>2024-08-27T09:37:26.197Z</time>
      </trkpt>
      <trkpt lat="43.67696" lon="3.78633">
        <ele>85.72</ele>
        <time>2024-08-27T09:37:26.547Z</time>
      </trkpt>
      <trkpt lat="43.6766" lon="3.78644">
        <ele>85.31</ele>
        <time>2024-08-27T09:37:26.903Z</time>
      </trkpt>
      <trkpt lat="43.6766" lon="3.78644">
        <ele>85.07</ele>
        <time>2024-08-27T09:37:27.259Z</time>
      </trkpt>
      <trkpt lat="43.67632" lon="3.7865">
        <ele>84.88</ele>
        <time>2024-08-27T09:37:27.620Z</time>
      </trkpt>
      <trkpt lat="43.67522" lon="3.78649">
        <ele>84.6</ele>
        <time>2024-08-27T09:37:27.998Z</time>
      </trkpt>
      <trkpt lat="43.67515" lon="3.78649">
        <ele>84.44</ele>
        <time>2024-08-27T09:37:28.378Z</time>
      </trkpt>
      <trkpt lat="43.67495" lon="3.78616">
        <ele>84.3</ele>
        <time>2024-08-27T09:37:28.763Z</time>
      </trkpt>
      <trkpt lat="43.67483" lon="3.78583">
        <ele>84.39</ele>
        <time>2024-08-27T09:37:29.152Z</time>
      </trkpt>
      <trkpt lat="43.67473" lon="3.7855">
        <ele>84.72</ele>
        <time>2024-08-27T09:37:29.545Z</time>
      </trkpt>
      <trkpt lat="43.67473" lon="3.7855">
        <ele>86.1</ele>
        <time>2024-08-27T09:37:29.938Z</time>
      </trkpt>
      <trkpt lat="43.67446" lon="3.78463">
        <ele>86.51</ele>
        <time>2024-08-27T09:37:30.342Z</time>
      </trkpt>
      <trkpt lat="43.67415" lon="3.78371">
        <ele>86.98</ele>
        <time>2024-08-27T09:37:30.758Z</time>
      </trkpt>
      <trkpt lat="43.67413" lon="3.78361">
        <ele>87.03</ele>
        <time>2024-08-27T09:37:31.175Z</time>
      </trkpt>
      <trkpt lat="43.67409" lon="3.78336">
        <ele>86.83</ele>
        <time>2024-08-27T09:37:31.595Z</time>
      </trkpt>
      <trkpt lat="43.6741" lon="3.78317">
        <ele>86.61</ele>
        <time>2024-08-27T09:37:32.017Z</time>
      </trkpt>
      <trkpt lat="43.67412" lon="3.78296">
        <ele>86.3</ele>
        <time>2024-08-27T09:37:32.442Z</time>
      </trkpt>
      <trkpt lat="43.67409" lon="3.78277">
        <ele>85.95</ele>
        <time>2024-08-27T09:37:32.869Z</time>
      </trkpt>
      <trkpt lat="43.67402" lon="3.78259">
        <ele>85.5</ele>
        <time>2024-08-27T09:37:33.298Z</time>
      </trkpt>
      <trkpt lat="43.67306" lon="3.78082">
        <ele>84.94</ele>
        <time>2024-08-27T09:37:33.753Z</time>
      </trkpt>
      <trkpt lat="43.673" lon="3.78071">
        <ele>84.55</ele>
        <time>2024-08-27T09:37:34.210Z</time>
      </trkpt>
      <trkpt lat="43.67224" lon="3.77926">
        <ele>84.36</ele>
        <time>2024-08-27T09:37:34.687Z</time>
      </trkpt>
      <trkpt lat="43.67211" lon="3.77907">
        <ele>84.28</ele>
        <time>2024-08-27T09:37:35.167Z</time>
      </trkpt>
      <trkpt lat="43.672" lon="3.77891">
        <ele>84.22</ele>
        <time>2024-08-27T09:37:35.650Z</time>
      </trkpt>
      <trkpt lat="43.67189" lon="3.7788">
        <ele>84.12</ele>
        <time>2024-08-27T09:37:36.135Z</time>
      </trkpt>
      <trkpt lat="43.67172" lon="3.77867">
        <ele>84</ele>
        <time>2024-08-27T09:37:36.623Z</time>
      </trkpt>
      <trkpt lat="43.67154" lon="3.77857">
        <ele>83.79</ele>
        <time>2024-08-27T09:37:37.114Z</time>
      </trkpt>
      <trkpt lat="43.67145" lon="3.77847">
        <ele>83.63</ele>
        <time>2024-08-27T09:37:37.607Z</time>
      </trkpt>
      <trkpt lat="43.67138" lon="3.77836">
        <ele>83.49</ele>
        <time>2024-08-27T09:37:38.102Z</time>
      </trkpt>
      <trkpt lat="43.67133" lon="3.77825">
        <ele>83.37</ele>
        <time>2024-08-27T09:37:38.598Z</time>
      </trkpt>
      <trkpt lat="43.67127" lon="3.77802">
        <ele>83.3</ele>
        <time>2024-08-27T09:37:39.097Z</time>
      </trkpt>
      <trkpt lat="43.67127" lon="3.77802">
        <ele>83.23</ele>
        <time>2024-08-27T09:37:39.596Z</time>
      </trkpt>
      <trkpt lat="43.67119" lon="3.77779">
        <ele>83.17</ele>
        <time>2024-08-27T09:37:40.098Z</time>
      </trkpt>
      <trkpt lat="43.67107" lon="3.77762">
        <ele>83.07</ele>
        <time>2024-08-27T09:37:40.603Z</time>
      </trkpt>
      <trkpt lat="43.671" lon="3.77754">
        <ele>83.06</ele>
        <time>2024-08-27T09:37:41.109Z</time>
      </trkpt>
      <trkpt lat="43.67093" lon="3.77748">
        <ele>83.11</ele>
        <time>2024-08-27T09:37:41.617Z</time>
      </trkpt>
      <trkpt lat="43.67082" lon="3.77737">
        <ele>83.24</ele>
        <time>2024-08-27T09:37:42.127Z</time>
      </trkpt>
      <trkpt lat="43.67041" lon="3.77703">
        <ele>83.66</ele>
        <time>2024-08-27T09:37:42.645Z</time>
      </trkpt>
      <trkpt lat="43.67018" lon="3.7767">
        <ele>83.9</ele>
        <time>2024-08-27T09:37:43.168Z</time>
      </trkpt>
      <trkpt lat="43.67009" lon="3.77646">
        <ele>83.92</ele>
        <time>2024-08-27T09:37:43.694Z</time>
      </trkpt>
      <trkpt lat="43.66998" lon="3.77631">
        <ele>83.84</ele>
        <time>2024-08-27T09:37:44.222Z</time>
      </trkpt>
      <trkpt lat="43.66984" lon="3.77661">
        <ele>83.64</ele>
        <time>2024-08-27T09:37:44.755Z</time>
      </trkpt>
      <trkpt lat="43.6697" lon="3.77684">
        <ele>83.34</ele>
        <time>2024-08-27T09:37:45.291Z</time>
      </trkpt>
      <trkpt lat="43.66961" lon="3.77699">
        <ele>83.01</ele>
        <time>2024-08-27T09:37:45.829Z</time>
      </trkpt>
      <trkpt lat="43.66947" lon="3.77724">
        <ele>82.57</ele>
        <time>2024-08-27T09:37:46.371Z</time>
      </trkpt>
      <trkpt lat="43.66915" lon="3.77785">
        <ele>81.94</ele>
        <time>2024-08-27T09:37:46.922Z</time>
      </trkpt>
      <trkpt lat="43.66903" lon="3.77808">
        <ele>81.31</ele>
        <time>2024-08-27T09:37:47.476Z</time>
      </trkpt>
      <trkpt lat="43.66893" lon="3.77828">
        <ele>80.72</ele>
        <time>2024-08-27T09:37:48.033Z</time>
      </trkpt>
      <trkpt lat="43.66881" lon="3.77855">
        <ele>80.21</ele>
        <time>2024-08-27T09:37:48.593Z</time>
      </trkpt>
      <trkpt lat="43.66868" lon="3.77888">
        <ele>79.88</ele>
        <time>2024-08-27T09:37:49.158Z</time>
      </trkpt>
      <trkpt lat="43.66862" lon="3.77914">
        <ele>79.57</ele>
        <time>2024-08-27T09:37:49.726Z</time>
      </trkpt>
      <trkpt lat="43.66865" lon="3.77917">
        <ele>79.01</ele>
        <time>2024-08-27T09:37:50.295Z</time>
      </trkpt>
      <trkpt lat="43.66844" lon="3.77987">
        <ele>77.84</ele>
        <time>2024-08-27T09:37:50.872Z</time>
      </trkpt>
      <trkpt lat="43.66844" lon="3.77987">
        <ele>73.21</ele>
        <time>2024-08-27T09:37:51.449Z</time>
      </trkpt>
      <trkpt lat="43.6682" lon="3.7807">
        <ele>70.86</ele>
        <time>2024-08-27T09:37:52.037Z</time>
      </trkpt>
      <trkpt lat="43.66817" lon="3.78082">
        <ele>69.76</ele>
        <time>2024-08-27T09:37:52.626Z</time>
      </trkpt>
      <trkpt lat="43.66813" lon="3.78083">
        <ele>69.06</ele>
        <time>2024-08-27T09:37:53.216Z</time>
      </trkpt>
      <trkpt lat="43.66808" lon="3.78101">
        <ele>68.69</ele>
        <time>2024-08-27T09:37:53.808Z</time>
      </trkpt>
      <trkpt lat="43.66798" lon="3.78115">
        <ele>68.53</ele>
        <time>2024-08-27T09:37:54.402Z</time>
      </trkpt>
      <trkpt lat="43.66785" lon="3.78125">
        <ele>68.44</ele>
        <time>2024-08-27T09:37:54.999Z</time>
      </trkpt>
      <trkpt lat="43.6677" lon="3.7812">
        <ele>68.39</ele>
        <time>2024-08-27T09:37:55.598Z</time>
      </trkpt>
      <trkpt lat="43.66765" lon="3.7811">
        <ele>68.41</ele>
        <time>2024-08-27T09:37:56.199Z</time>
      </trkpt>
      <trkpt lat="43.66762" lon="3.78106">
        <ele>68.55</ele>
        <time>2024-08-27T09:37:56.800Z</time>
      </trkpt>
      <trkpt lat="43.66705" lon="3.78029">
        <ele>68.7</ele>
        <time>2024-08-27T09:37:57.414Z</time>
      </trkpt>
      <trkpt lat="43.66605" lon="3.77898">
        <ele>68.62</ele>
        <time>2024-08-27T09:37:58.050Z</time>
      </trkpt>
      <trkpt lat="43.66591" lon="3.77884">
        <ele>68.91</ele>
        <time>2024-08-27T09:37:58.689Z</time>
      </trkpt>
      <trkpt lat="43.66573" lon="3.77871">
        <ele>69.49</ele>
        <time>2024-08-27T09:37:59.331Z</time>
      </trkpt>
      <trkpt lat="43.66546" lon="3.77861">
        <ele>70.36</ele>
        <time>2024-08-27T09:37:59.978Z</time>
      </trkpt>
      <trkpt lat="43.66514" lon="3.77857">
        <ele>71.54</ele>
        <time>2024-08-27T09:38:00.630Z</time>
      </trkpt>
      <trkpt lat="43.66489" lon="3.77854">
        <ele>72.9</ele>
        <time>2024-08-27T09:38:01.286Z</time>
      </trkpt>
      <trkpt lat="43.66465" lon="3.7784">
        <ele>74.36</ele>
        <time>2024-08-27T09:38:01.946Z</time>
      </trkpt>
      <trkpt lat="43.66445" lon="3.77823">
        <ele>75.68</ele>
        <time>2024-08-27T09:38:02.610Z</time>
      </trkpt>
      <trkpt lat="43.66428" lon="3.7779">
        <ele>76.64</ele>
        <time>2024-08-27T09:38:03.278Z</time>
      </trkpt>
      <trkpt lat="43.66414" lon="3.77744">
        <ele>77.1</ele>
        <time>2024-08-27T09:38:03.952Z</time>
      </trkpt>
      <trkpt lat="43.66334" lon="3.77409">
        <ele>78.06</ele>
        <time>2024-08-27T09:38:04.667Z</time>
      </trkpt>
      <trkpt lat="43.66255" lon="3.77091">
        <ele>78.85</ele>
        <time>2024-08-27T09:38:05.421Z</time>
      </trkpt>
      <trkpt lat="43.66251" lon="3.77063">
        <ele>79.09</ele>
        <time>2024-08-27T09:38:06.178Z</time>
      </trkpt>
      <trkpt lat="43.6625" lon="3.77038">
        <ele>79.16</ele>
        <time>2024-08-27T09:38:06.938Z</time>
      </trkpt>
      <trkpt lat="43.66252" lon="3.77023">
        <ele>79.09</ele>
        <time>2024-08-27T09:38:07.700Z</time>
      </trkpt>
      <trkpt lat="43.6626" lon="3.76984">
        <ele>78.74</ele>
        <time>2024-08-27T09:38:08.467Z</time>
      </trkpt>
      <trkpt lat="43.66276" lon="3.76924">
        <ele>78.42</ele>
        <time>2024-08-27T09:38:09.241Z</time>
      </trkpt>
      <trkpt lat="43.663" lon="3.76827">
        <ele>77.96</ele>
        <time>2024-08-27T09:38:10.027Z</time>
      </trkpt>
      <trkpt lat="43.66341" lon="3.76668">
        <ele>77.62</ele>
        <time>2024-08-27T09:38:10.833Z</time>
      </trkpt>
      <trkpt lat="43.66355" lon="3.76631">
        <ele>77.23</ele>
        <time>2024-08-27T09:38:11.644Z</time>
      </trkpt>
      <trkpt lat="43.66355" lon="3.76631">
        <ele>76.9</ele>
        <time>2024-08-27T09:38:12.455Z</time>
      </trkpt>
      <trkpt lat="43.66365" lon="3.76613">
        <ele>76.59</ele>
        <time>2024-08-27T09:38:13.268Z</time>
      </trkpt>
      <trkpt lat="43.66381" lon="3.76591">
        <ele>76.32</ele>
        <time>2024-08-27T09:38:14.085Z</time>
      </trkpt>
      <trkpt lat="43.66388" lon="3.76579">
        <ele>76.15</ele>
        <time>2024-08-27T09:38:14.904Z</time>
      </trkpt>
      <trkpt lat="43.66396" lon="3.76569">
        <ele>76.08</ele>
        <time>2024-08-27T09:38:15.724Z</time>
      </trkpt>
      <trkpt lat="43.6649" lon="3.76437">
        <ele>76.08</ele>
        <time>2024-08-27T09:38:16.566Z</time>
      </trkpt>
      <trkpt lat="43.66509" lon="3.76408">
        <ele>76.25</ele>
        <time>2024-08-27T09:38:17.412Z</time>
      </trkpt>
      <trkpt lat="43.66525" lon="3.76377">
        <ele>76.53</ele>
        <time>2024-08-27T09:38:18.263Z</time>
      </trkpt>
      <trkpt lat="43.66539" lon="3.76336">
        <ele>77.09</ele>
        <time>2024-08-27T09:38:19.119Z</time>
      </trkpt>
      <trkpt lat="43.66546" lon="3.76313">
        <ele>77.55</ele>
        <time>2024-08-27T09:38:19.978Z</time>
      </trkpt>
      <trkpt lat="43.66558" lon="3.76241">
        <ele>78.11</ele>
        <time>2024-08-27T09:38:20.846Z</time>
      </trkpt>
      <trkpt lat="43.66559" lon="3.76218">
        <ele>78.59</ele>
        <time>2024-08-27T09:38:21.716Z</time>
      </trkpt>
      <trkpt lat="43.6656" lon="3.76213">
        <ele>79.04</ele>
        <time>2024-08-27T09:38:22.587Z</time>
      </trkpt>
      <trkpt lat="43.66563" lon="3.7613">
        <ele>79.79</ele>
        <time>2024-08-27T09:38:23.467Z</time>
      </trkpt>
      <trkpt lat="43.66562" lon="3.7611">
        <ele>80.28</ele>
        <time>2024-08-27T09:38:24.350Z</time>
      </trkpt>
      <trkpt lat="43.66556" lon="3.7605">
        <ele>80.47</ele>
        <time>2024-08-27T09:38:25.240Z</time>
      </trkpt>
      <trkpt lat="43.66548" lon="3.76026">
        <ele>80.77</ele>
        <time>2024-08-27T09:38:26.133Z</time>
      </trkpt>
      <trkpt lat="43.66533" lon="3.75994">
        <ele>81.11</ele>
        <time>2024-08-27T09:38:27.030Z</time>
      </trkpt>
      <trkpt lat="43.66508" lon="3.75957">
        <ele>81.64</ele>
        <time>2024-08-27T09:38:27.933Z</time>
      </trkpt>
      <trkpt lat="43.66481" lon="3.75926">
        <ele>82.33</ele>
        <time>2024-08-27T09:38:28.842Z</time>
      </trkpt>
      <trkpt lat="43.66445" lon="3.75891">
        <ele>83.07</ele>
        <time>2024-08-27T09:38:29.758Z</time>
      </trkpt>
      <trkpt lat="43.66383" lon="3.75825">
        <ele>83.95</ele>
        <time>2024-08-27T09:38:30.686Z</time>
      </trkpt>
      <trkpt lat="43.66341" lon="3.75752">
        <ele>85.15</ele>
        <time>2024-08-27T09:38:31.625Z</time>
      </trkpt>
      <trkpt lat="43.66292" lon="3.75637">
        <ele>86.04</ele>
        <time>2024-08-27T09:38:32.580Z</time>
      </trkpt>
      <trkpt lat="43.66216" lon="3.75478">
        <ele>86.97</ele>
        <time>2024-08-27T09:38:33.557Z</time>
      </trkpt>
      <trkpt lat="43.66206" lon="3.7546">
        <ele>87.58</ele>
        <time>2024-08-27T09:38:34.536Z</time>
      </trkpt>
      <trkpt lat="43.66181" lon="3.75436">
        <ele>88.31</ele>
        <time>2024-08-27T09:38:35.520Z</time>
      </trkpt>
      <trkpt lat="43.66145" lon="3.75409">
        <ele>89.2</ele>
        <time>2024-08-27T09:38:36.511Z</time>
      </trkpt>
      <trkpt lat="43.66132" lon="3.75386">
        <ele>89.48</ele>
        <time>2024-08-27T09:38:37.505Z</time>
      </trkpt>
      <trkpt lat="43.66128" lon="3.75372">
        <ele>89.57</ele>
        <time>2024-08-27T09:38:38.501Z</time>
      </trkpt>
      <trkpt lat="43.66128" lon="3.75372">
        <ele>89.64</ele>
        <time>2024-08-27T09:38:39.497Z</time>
      </trkpt>
      <trkpt lat="43.66123" lon="3.7536">
        <ele>89.51</ele>
        <time>2024-08-27T09:38:40.495Z</time>
      </trkpt>
      <trkpt lat="43.66125" lon="3.75333">
        <ele>89.1</ele>
        <time>2024-08-27T09:38:41.496Z</time>
      </trkpt>
      <trkpt lat="43.66128" lon="3.75312">
        <ele>88.84</ele>
        <time>2024-08-27T09:38:42.499Z</time>
      </trkpt>
      <trkpt lat="43.66128" lon="3.75312">
        <ele>88.64</ele>
        <time>2024-08-27T09:38:43.502Z</time>
      </trkpt>
      <trkpt lat="43.6614" lon="3.75219">
        <ele>88.7</ele>
        <time>2024-08-27T09:38:44.516Z</time>
      </trkpt>
      <trkpt lat="43.6614" lon="3.75213">
        <ele>88.42</ele>
        <time>2024-08-27T09:38:45.531Z</time>
      </trkpt>
      <trkpt lat="43.66163" lon="3.75025">
        <ele>87.85</ele>
        <time>2024-08-27T09:38:46.568Z</time>
      </trkpt>
      <trkpt lat="43.66171" lon="3.74999">
        <ele>87.59</ele>
        <time>2024-08-27T09:38:47.608Z</time>
      </trkpt>
      <trkpt lat="43.66179" lon="3.74978">
        <ele>87.44</ele>
        <time>2024-08-27T09:38:48.651Z</time>
      </trkpt>
      <trkpt lat="43.66202" lon="3.74932">
        <ele>87.31</ele>
        <time>2024-08-27T09:38:49.701Z</time>
      </trkpt>
      <trkpt lat="43.6622" lon="3.74893">
        <ele>87.16</ele>
        <time>2024-08-27T09:38:50.756Z</time>
      </trkpt>
      <trkpt lat="43.66235" lon="3.74853">
        <ele>87.36</ele>
        <time>2024-08-27T09:38:51.816Z</time>
      </trkpt>
      <trkpt lat="43.66244" lon="3.74816">
        <ele>87.57</ele>
        <time>2024-08-27T09:38:52.881Z</time>
      </trkpt>
      <trkpt lat="43.6627" lon="3.74624">
        <ele>87.67</ele>
        <time>2024-08-27T09:38:53.968Z</time>
      </trkpt>
      <trkpt lat="43.6627" lon="3.74624">
        <ele>88.04</ele>
        <time>2024-08-27T09:38:55.055Z</time>
      </trkpt>
      <trkpt lat="43.66278" lon="3.74574">
        <ele>88.8</ele>
        <time>2024-08-27T09:38:56.148Z</time>
      </trkpt>
      <trkpt lat="43.66283" lon="3.74546">
        <ele>89.26</ele>
        <time>2024-08-27T09:38:57.245Z</time>
      </trkpt>
      <trkpt lat="43.66294" lon="3.74519">
        <ele>89.71</ele>
        <time>2024-08-27T09:38:58.345Z</time>
      </trkpt>
      <trkpt lat="43.66381" lon="3.74355">
        <ele>90.41</ele>
        <time>2024-08-27T09:38:59.469Z</time>
      </trkpt>
      <trkpt lat="43.66461" lon="3.74211">
        <ele>90.52</ele>
        <time>2024-08-27T09:39:00.614Z</time>
      </trkpt>
      <trkpt lat="43.6648" lon="3.74174">
        <ele>90.94</ele>
        <time>2024-08-27T09:39:01.764Z</time>
      </trkpt>
      <trkpt lat="43.66487" lon="3.74145">
        <ele>91.39</ele>
        <time>2024-08-27T09:39:02.918Z</time>
      </trkpt>
      <trkpt lat="43.66487" lon="3.74145">
        <ele>91.93</ele>
        <time>2024-08-27T09:39:04.072Z</time>
      </trkpt>
      <trkpt lat="43.66497" lon="3.74074">
        <ele>92.58</ele>
        <time>2024-08-27T09:39:05.234Z</time>
      </trkpt>
      <trkpt lat="43.66508" lon="3.73979">
        <ele>93.32</ele>
        <time>2024-08-27T09:39:06.407Z</time>
      </trkpt>
      <trkpt lat="43.66511" lon="3.73926">
        <ele>94.27</ele>
        <time>2024-08-27T09:39:07.586Z</time>
      </trkpt>
      <trkpt lat="43.66525" lon="3.73889">
        <ele>94.46</ele>
        <time>2024-08-27T09:39:08.770Z</time>
      </trkpt>
      <trkpt lat="43.66542" lon="3.73868">
        <ele>94.23</ele>
        <time>2024-08-27T09:39:09.958Z</time>
      </trkpt>
      <trkpt lat="43.66548" lon="3.73855">
        <ele>94.34</ele>
        <time>2024-08-27T09:39:11.148Z</time>
      </trkpt>
      <trkpt lat="43.66548" lon="3.73855">
        <ele>97.85</ele>
        <time>2024-08-27T09:39:12.338Z</time>
      </trkpt>
      <trkpt lat="43.6657" lon="3.73812">
        <ele>98.23</ele>
        <time>2024-08-27T09:39:13.534Z</time>
      </trkpt>
      <trkpt lat="43.66578" lon="3.73779">
        <ele>98.73</ele>
        <time>2024-08-27T09:39:14.734Z</time>
      </trkpt>
      <trkpt lat="43.66613" lon="3.73594">
        <ele>101.56</ele>
        <time>2024-08-27T09:39:15.956Z</time>
      </trkpt>
      <trkpt lat="43.66623" lon="3.73565">
        <ele>103.52</ele>
        <time>2024-08-27T09:39:17.182Z</time>
      </trkpt>
      <trkpt lat="43.6665" lon="3.73506">
        <ele>104.07</ele>
        <time>2024-08-27T09:39:18.416Z</time>
      </trkpt>
      <trkpt lat="43.66659" lon="3.7348">
        <ele>104.79</ele>
        <time>2024-08-27T09:39:19.653Z</time>
      </trkpt>
      <trkpt lat="43.66668" lon="3.7344">
        <ele>105.98</ele>
        <time>2024-08-27T09:39:20.895Z</time>
      </trkpt>
      <trkpt lat="43.66677" lon="3.7342">
        <ele>106.64</ele>
        <time>2024-08-27T09:39:22.140Z</time>
      </trkpt>
      <trkpt lat="43.66687" lon="3.73404">
        <ele>106.94</ele>
        <time>2024-08-27T09:39:23.387Z</time>
      </trkpt>
      <trkpt lat="43.66701" lon="3.73388">
        <ele>106.79</ele>
        <time>2024-08-27T09:39:24.637Z</time>
      </trkpt>
      <trkpt lat="43.66763" lon="3.73342">
        <ele>106.27</ele>
        <time>2024-08-27T09:39:25.898Z</time>
      </trkpt>
      <trkpt lat="43.66833" lon="3.73307">
        <ele>104.5</ele>
        <time>2024-08-27T09:39:27.171Z</time>
      </trkpt>
      <trkpt lat="43.6687" lon="3.73283">
        <ele>103.25</ele>
        <time>2024-08-27T09:39:28.451Z</time>
      </trkpt>
      <trkpt lat="43.6687" lon="3.73283">
        <ele>102.24</ele>
        <time>2024-08-27T09:39:29.731Z</time>
      </trkpt>
      <trkpt lat="43.66881" lon="3.73264">
        <ele>101.61</ele>
        <time>2024-08-27T09:39:31.014Z</time>
      </trkpt>
      <trkpt lat="43.66886" lon="3.73248">
        <ele>101.16</ele>
        <time>2024-08-27T09:39:32.299Z</time>
      </trkpt>
      <trkpt lat="43.66889" lon="3.73203">
        <ele>101.04</ele>
        <time>2024-08-27T09:39:33.589Z</time>
      </trkpt>
      <trkpt lat="43.66893" lon="3.73181">
        <ele>100.66</ele>
        <time>2024-08-27T09:39:34.882Z</time>
      </trkpt>
      <trkpt lat="43.669" lon="3.73151">
        <ele>100.31</ele>
        <time>2024-08-27T09:39:36.178Z</time>
      </trkpt>
      <trkpt lat="43.66941" lon="3.73021">
        <ele>99.8</ele>
        <time>2024-08-27T09:39:37.491Z</time>
      </trkpt>
      <trkpt lat="43.66951" lon="3.72997">
        <ele>99.22</ele>
        <time>2024-08-27T09:39:38.807Z</time>
      </trkpt>
      <trkpt lat="43.66956" lon="3.72979">
        <ele>98.85</ele>
        <time>2024-08-27T09:39:40.125Z</time>
      </trkpt>
      <trkpt lat="43.66959" lon="3.72961">
        <ele>98.37</ele>
        <time>2024-08-27T09:39:41.445Z</time>
      </trkpt>
      <trkpt lat="43.6696" lon="3.72925">
        <ele>98.08</ele>
        <time>2024-08-27T09:39:42.770Z</time>
      </trkpt>
      <trkpt lat="43.66954" lon="3.72891">
        <ele>97.7</ele>
        <time>2024-08-27T09:39:44.099Z</time>
      </trkpt>
      <trkpt lat="43.66943" lon="3.72867">
        <ele>97.25</ele>
        <time>2024-08-27T09:39:45.431Z</time>
      </trkpt>
      <trkpt lat="43.66936" lon="3.72855">
        <ele>96.88</ele>
        <time>2024-08-27T09:39:46.765Z</time>
      </trkpt>
      <trkpt lat="43.66912" lon="3.72827">
        <ele>96.57</ele>
        <time>2024-08-27T09:39:48.104Z</time>
      </trkpt>
      <trkpt lat="43.66885" lon="3.72807">
        <ele>96.27</ele>
        <time>2024-08-27T09:39:49.448Z</time>
      </trkpt>
      <trkpt lat="43.66792" lon="3.72751">
        <ele>96.37</ele>
        <time>2024-08-27T09:39:50.808Z</time>
      </trkpt>
      <trkpt lat="43.66718" lon="3.72711">
        <ele>96.09</ele>
        <time>2024-08-27T09:39:52.181Z</time>
      </trkpt>
      <trkpt lat="43.66682" lon="3.72681">
        <ele>95.45</ele>
        <time>2024-08-27T09:39:53.560Z</time>
      </trkpt>
      <trkpt lat="43.66656" lon="3.72668">
        <ele>95.22</ele>
        <time>2024-08-27T09:39:54.944Z</time>
      </trkpt>
      <trkpt lat="43.66647" lon="3.72663">
        <ele>94.98</ele>
        <time>2024-08-27T09:39:56.329Z</time>
      </trkpt>
      <trkpt lat="43.6663" lon="3.72645">
        <ele>94.63</ele>
        <time>2024-08-27T09:39:57.718Z</time>
      </trkpt>
      <trkpt lat="43.66605" lon="3.72604">
        <ele>94.23</ele>
        <time>2024-08-27T09:39:59.113Z</time>
      </trkpt>
      <trkpt lat="43.66597" lon="3.72595">
        <ele>94.01</ele>
        <time>2024-08-27T09:40:00.510Z</time>
      </trkpt>
      <trkpt lat="43.6649" lon="3.72521">
        <ele>94.13</ele>
        <time>2024-08-27T09:40:01.926Z</time>
      </trkpt>
      <trkpt lat="43.66479" lon="3.72512">
        <ele>94.15</ele>
        <time>2024-08-27T09:40:03.344Z</time>
      </trkpt>
      <trkpt lat="43.66468" lon="3.72498">
        <ele>94.13</ele>
        <time>2024-08-27T09:40:04.764Z</time>
      </trkpt>
      <trkpt lat="43.6646" lon="3.72481">
        <ele>94.09</ele>
        <time>2024-08-27T09:40:06.187Z</time>
      </trkpt>
      <trkpt lat="43.66437" lon="3.72408">
        <ele>93.98</ele>
        <time>2024-08-27T09:40:07.619Z</time>
      </trkpt>
      <trkpt lat="43.66447" lon="3.72402">
        <ele>94.03</ele>
        <time>2024-08-27T09:40:09.053Z</time>
      </trkpt>
      <trkpt lat="43.66471" lon="3.72385">
        <ele>94.15</ele>
        <time>2024-08-27T09:40:10.491Z</time>
      </trkpt>
      <trkpt lat="43.66483" lon="3.72373">
        <ele>94.53</ele>
        <time>2024-08-27T09:40:11.931Z</time>
      </trkpt>
      <trkpt lat="43.66511" lon="3.72342">
        <ele>95.16</ele>
        <time>2024-08-27T09:40:13.377Z</time>
      </trkpt>
      <trkpt lat="43.66534" lon="3.72312">
        <ele>95.98</ele>
        <time>2024-08-27T09:40:14.828Z</time>
      </trkpt>
      <trkpt lat="43.66544" lon="3.723">
        <ele>96.83</ele>
        <time>2024-08-27T09:40:16.281Z</time>
      </trkpt>
      <trkpt lat="43.6655" lon="3.72291">
        <ele>97.68</ele>
        <time>2024-08-27T09:40:17.736Z</time>
      </trkpt>
      <trkpt lat="43.6656" lon="3.72271">
        <ele>98.68</ele>
        <time>2024-08-27T09:40:19.194Z</time>
      </trkpt>
      <trkpt lat="43.66567" lon="3.72249">
        <ele>99.78</ele>
        <time>2024-08-27T09:40:20.654Z</time>
      </trkpt>
      <trkpt lat="43.66569" lon="3.72233">
        <ele>100.84</ele>
        <time>2024-08-27T09:40:22.116Z</time>
      </trkpt>
      <trkpt lat="43.66576" lon="3.72205">
        <ele>101.85</ele>
        <time>2024-08-27T09:40:23.582Z</time>
      </trkpt>
      <trkpt lat="43.66586" lon="3.72192">
        <ele>102.79</ele>
        <time>2024-08-27T09:40:25.050Z</time>
      </trkpt>
      <trkpt lat="43.66596" lon="3.72181">
        <ele>103.86</ele>
        <time>2024-08-27T09:40:26.520Z</time>
      </trkpt>
      <trkpt lat="43.66615" lon="3.72177">
        <ele>104.92</ele>
        <time>2024-08-27T09:40:27.993Z</time>
      </trkpt>
      <trkpt lat="43.66655" lon="3.72176">
        <ele>105.91</ele>
        <time>2024-08-27T09:40:29.472Z</time>
      </trkpt>
      <trkpt lat="43.66749" lon="3.72175">
        <ele>107.5</ele>
        <time>2024-08-27T09:40:30.966Z</time>
      </trkpt>
      <trkpt lat="43.66775" lon="3.72175">
        <ele>108.66</ele>
        <time>2024-08-27T09:40:32.465Z</time>
      </trkpt>
      <trkpt lat="43.66785" lon="3.72175">
        <ele>109.71</ele>
        <time>2024-08-27T09:40:33.965Z</time>
      </trkpt>
      <trkpt lat="43.66825" lon="3.72175">
        <ele>110.8</ele>
        <time>2024-08-27T09:40:35.472Z</time>
      </trkpt>
      <trkpt lat="43.66857" lon="3.72169">
        <ele>111.88</ele>
        <time>2024-08-27T09:40:36.984Z</time>
      </trkpt>
      <trkpt lat="43.66856" lon="3.7216">
        <ele>112.68</ele>
        <time>2024-08-27T09:40:38.497Z</time>
      </trkpt>
      <trkpt lat="43.66879" lon="3.72148">
        <ele>113.54</ele>
        <time>2024-08-27T09:40:40.014Z</time>
      </trkpt>
      <trkpt lat="43.66896" lon="3.72133">
        <ele>114.27</ele>
        <time>2024-08-27T09:40:41.534Z</time>
      </trkpt>
      <trkpt lat="43.669" lon="3.72129">
        <ele>114.83</ele>
        <time>2024-08-27T09:40:43.055Z</time>
      </trkpt>
      <trkpt lat="43.66905" lon="3.72123">
        <ele>115.28</ele>
        <time>2024-08-27T09:40:44.577Z</time>
      </trkpt>
      <trkpt lat="43.66912" lon="3.72113">
        <ele>115.59</ele>
        <time>2024-08-27T09:40:46.101Z</time>
      </trkpt>
      <trkpt lat="43.66915" lon="3.72105">
        <ele>115.84</ele>
        <time>2024-08-27T09:40:47.626Z</time>
      </trkpt>
      <trkpt lat="43.6692" lon="3.72099">
        <ele>116.01</ele>
        <time>2024-08-27T09:40:49.152Z</time>
      </trkpt>
      <trkpt lat="43.66928" lon="3.72075">
        <ele>116.13</ele>
        <time>2024-08-27T09:40:50.681Z</time>
      </trkpt>
      <trkpt lat="43.66927" lon="3.72061">
        <ele>116.12</ele>
        <time>2024-08-27T09:40:52.211Z</time>
      </trkpt>
      <trkpt lat="43.66931" lon="3.72047">
        <ele>116.1</ele>
        <time>2024-08-27T09:40:53.743Z</time>
      </trkpt>
      <trkpt lat="43.66931" lon="3.72044">
        <ele>115.94</ele>
        <time>2024-08-27T09:40:55.275Z</time>
      </trkpt>
      <trkpt lat="43.66918" lon="3.72013">
        <ele>115.66</ele>
        <time>2024-08-27T09:40:56.812Z</time>
      </trkpt>
      <trkpt lat="43.6691" lon="3.71997">
        <ele>115.36</ele>
        <time>2024-08-27T09:40:58.351Z</time>
      </trkpt>
      <trkpt lat="43.66898" lon="3.71959">
        <ele>115.07</ele>
        <time>2024-08-27T09:40:59.895Z</time>
      </trkpt>
      <trkpt lat="43.6688" lon="3.71916">
        <ele>114.74</ele>
        <time>2024-08-27T09:41:01.444Z</time>
      </trkpt>
      <trkpt lat="43.6688" lon="3.71916">
        <ele>114.43</ele>
        <time>2024-08-27T09:41:02.993Z</time>
      </trkpt>
      <trkpt lat="43.66838" lon="3.71842">
        <ele>114</ele>
        <time>2024-08-27T09:41:04.553Z</time>
      </trkpt>
      <trkpt lat="43.66838" lon="3.71842">
        <ele>113.77</ele>
        <time>2024-08-27T09:41:06.113Z</time>
      </trkpt>
      <trkpt lat="43.66815" lon="3.71807">
        <ele>113.43</ele>
        <time>2024-08-27T09:41:07.679Z</time>
      </trkpt>
      <trkpt lat="43.66794" lon="3.71781">
        <ele>113.29</ele>
        <time>2024-08-27T09:41:09.249Z</time>
      </trkpt>
      <trkpt lat="43.66769" lon="3.71754">
        <ele>113.36</ele>
        <time>2024-08-27T09:41:10.824Z</time>
      </trkpt>
      <trkpt lat="43.66743" lon="3.71731">
        <ele>113.58</ele>
        <time>2024-08-27T09:41:12.404Z</time>
      </trkpt>
      <trkpt lat="43.66745" lon="3.71724">
        <ele>113.89</ele>
        <time>2024-08-27T09:41:13.985Z</time>
      </trkpt>
      <trkpt lat="43.66747" lon="3.71716">
        <ele>114.35</ele>
        <time>2024-08-27T09:41:15.567Z</time>
      </trkpt>
      <trkpt lat="43.66755" lon="3.71699">
        <ele>115</ele>
        <time>2024-08-27T09:41:17.152Z</time>
      </trkpt>
      <trkpt lat="43.66775" lon="3.71679">
        <ele>115.69</ele>
        <time>2024-08-27T09:41:18.741Z</time>
      </trkpt>
      <trkpt lat="43.668" lon="3.71663">
        <ele>116.64</ele>
        <time>2024-08-27T09:41:20.334Z</time>
      </trkpt>
      <trkpt lat="43.66817" lon="3.71649">
        <ele>117.56</ele>
        <time>2024-08-27T09:41:21.930Z</time>
      </trkpt>
      <trkpt lat="43.66834" lon="3.71632">
        <ele>118.47</ele>
        <time>2024-08-27T09:41:23.529Z</time>
      </trkpt>
      <trkpt lat="43.66857" lon="3.71604">
        <ele>119.4</ele>
        <time>2024-08-27T09:41:25.133Z</time>
      </trkpt>
      <trkpt lat="43.66861" lon="3.716">
        <ele>120.31</ele>
        <time>2024-08-27T09:41:26.738Z</time>
      </trkpt>
      <trkpt lat="43.66871" lon="3.71586">
        <ele>121.28</ele>
        <time>2024-08-27T09:41:28.346Z</time>
      </trkpt>
      <trkpt lat="43.66889" lon="3.71566">
        <ele>122.35</ele>
        <time>2024-08-27T09:41:29.957Z</time>
      </trkpt>
      <trkpt lat="43.66895" lon="3.71566">
        <ele>123.11</ele>
        <time>2024-08-27T09:41:31.569Z</time>
      </trkpt>
      <trkpt lat="43.669" lon="3.71561">
        <ele>123.82</ele>
        <time>2024-08-27T09:41:33.182Z</time>
      </trkpt>
      <trkpt lat="43.66902" lon="3.71552">
        <ele>124.41</ele>
        <time>2024-08-27T09:41:34.796Z</time>
      </trkpt>
      <trkpt lat="43.66902" lon="3.71545">
        <ele>124.88</ele>
        <time>2024-08-27T09:41:36.411Z</time>
      </trkpt>
      <trkpt lat="43.669" lon="3.71541">
        <ele>125.19</ele>
        <time>2024-08-27T09:41:38.027Z</time>
      </trkpt>
      <trkpt lat="43.66895" lon="3.71535">
        <ele>125.38</ele>
        <time>2024-08-27T09:41:39.644Z</time>
      </trkpt>
      <trkpt lat="43.66892" lon="3.71535">
        <ele>125.45</ele>
        <time>2024-08-27T09:41:41.261Z</time>
      </trkpt>
      <trkpt lat="43.66887" lon="3.71535">
        <ele>125.42</ele>
        <time>2024-08-27T09:41:42.879Z</time>
      </trkpt>
      <trkpt lat="43.66881" lon="3.71537">
        <ele>125.3</ele>
        <time>2024-08-27T09:41:44.498Z</time>
      </trkpt>
      <trkpt lat="43.66861" lon="3.71531">
        <ele>125.09</ele>
        <time>2024-08-27T09:41:46.120Z</time>
      </trkpt>
      <trkpt lat="43.66778" lon="3.71474">
        <ele>124.79</ele>
        <time>2024-08-27T09:41:47.757Z</time>
      </trkpt>
      <trkpt lat="43.66754" lon="3.71461">
        <ele>124.8</ele>
        <time>2024-08-27T09:41:49.398Z</time>
      </trkpt>
      <trkpt lat="43.66699" lon="3.71439">
        <ele>125.05</ele>
        <time>2024-08-27T09:41:51.048Z</time>
      </trkpt>
      <trkpt lat="43.66653" lon="3.71405">
        <ele>125.27</ele>
        <time>2024-08-27T09:41:52.707Z</time>
      </trkpt>
      <trkpt lat="43.66648" lon="3.71401">
        <ele>125.47</ele>
        <time>2024-08-27T09:41:54.367Z</time>
      </trkpt>
      <trkpt lat="43.66644" lon="3.71398">
        <ele>125.72</ele>
        <time>2024-08-27T09:41:56.027Z</time>
      </trkpt>
      <trkpt lat="43.6651" lon="3.71284">
        <ele>126.1</ele>
        <time>2024-08-27T09:41:57.713Z</time>
      </trkpt>
      <trkpt lat="43.665" lon="3.71276">
        <ele>126.38</ele>
        <time>2024-08-27T09:41:59.400Z</time>
      </trkpt>
      <trkpt lat="43.66491" lon="3.71269">
        <ele>126.66</ele>
        <time>2024-08-27T09:42:01.089Z</time>
      </trkpt>
      <trkpt lat="43.66468" lon="3.7124">
        <ele>127.06</ele>
        <time>2024-08-27T09:42:02.783Z</time>
      </trkpt>
      <trkpt lat="43.66457" lon="3.71224">
        <ele>127.22</ele>
        <time>2024-08-27T09:42:04.480Z</time>
      </trkpt>
      <trkpt lat="43.66415" lon="3.71123">
        <ele>127.24</ele>
        <time>2024-08-27T09:42:06.190Z</time>
      </trkpt>
      <trkpt lat="43.66409" lon="3.71109">
        <ele>127.03</ele>
        <time>2024-08-27T09:42:07.902Z</time>
      </trkpt>
      <trkpt lat="43.66403" lon="3.711">
        <ele>126.77</ele>
        <time>2024-08-27T09:42:09.615Z</time>
      </trkpt>
      <trkpt lat="43.66364" lon="3.71026">
        <ele>126.35</ele>
        <time>2024-08-27T09:42:11.339Z</time>
      </trkpt>
      <trkpt lat="43.66351" lon="3.71005">
        <ele>126.1</ele>
        <time>2024-08-27T09:42:13.066Z</time>
      </trkpt>
      <trkpt lat="43.66333" lon="3.70984">
        <ele>125.69</ele>
        <time>2024-08-27T09:42:14.797Z</time>
      </trkpt>
      <trkpt lat="43.66309" lon="3.70963">
        <ele>125.09</ele>
        <time>2024-08-27T09:42:16.533Z</time>
      </trkpt>
      <trkpt lat="43.66287" lon="3.7095">
        <ele>124.68</ele>
        <time>2024-08-27T09:42:18.273Z</time>
      </trkpt>
      <trkpt lat="43.66128" lon="3.70868">
        <ele>124.49</ele>
        <time>2024-08-27T09:42:20.040Z</time>
      </trkpt>
      <trkpt lat="43.66108" lon="3.70858">
        <ele>124.69</ele>
        <time>2024-08-27T09:42:21.810Z</time>
      </trkpt>
      <trkpt lat="43.66108" lon="3.70858">
        <ele>124.99</ele>
        <time>2024-08-27T09:42:23.580Z</time>
      </trkpt>
      <trkpt lat="43.66055" lon="3.70828">
        <ele>125.74</ele>
        <time>2024-08-27T09:42:25.359Z</time>
      </trkpt>
      <trkpt lat="43.66033" lon="3.70814">
        <ele>125.99</ele>
        <time>2024-08-27T09:42:27.142Z</time>
      </trkpt>
      <trkpt lat="43.66015" lon="3.70801">
        <ele>125.85</ele>
        <time>2024-08-27T09:42:28.928Z</time>
      </trkpt>
      <trkpt lat="43.65982" lon="3.70775">
        <ele>124.81</ele>
        <time>2024-08-27T09:42:30.720Z</time>
      </trkpt>
      <trkpt lat="43.65972" lon="3.70762">
        <ele>123.76</ele>
        <time>2024-08-27T09:42:32.515Z</time>
      </trkpt>
      <trkpt lat="43.65961" lon="3.70744">
        <ele>122.51</ele>
        <time>2024-08-27T09:42:34.312Z</time>
      </trkpt>
      <trkpt lat="43.65944" lon="3.70696">
        <ele>121.06</ele>
        <time>2024-08-27T09:42:36.115Z</time>
      </trkpt>
      <trkpt lat="43.65936" lon="3.70685">
        <ele>119.8</ele>
        <time>2024-08-27T09:42:37.920Z</time>
      </trkpt>
      <trkpt lat="43.65871" lon="3.70633">
        <ele>118.59</ele>
        <time>2024-08-27T09:42:39.737Z</time>
      </trkpt>
      <trkpt lat="43.65839" lon="3.70609">
        <ele>117.12</ele>
        <time>2024-08-27T09:42:41.560Z</time>
      </trkpt>
      <trkpt lat="43.65819" lon="3.70588">
        <ele>115.5</ele>
        <time>2024-08-27T09:42:43.387Z</time>
      </trkpt>
      <trkpt lat="43.65777" lon="3.70518">
        <ele>113.31</ele>
        <time>2024-08-27T09:42:45.225Z</time>
      </trkpt>
      <trkpt lat="43.65757" lon="3.70495">
        <ele>111.65</ele>
        <time>2024-08-27T09:42:47.067Z</time>
      </trkpt>
      <trkpt lat="43.6568" lon="3.70429">
        <ele>109.74</ele>
        <time>2024-08-27T09:42:48.923Z</time>
      </trkpt>
      <trkpt lat="43.65659" lon="3.70409">
        <ele>108.42</ele>
        <time>2024-08-27T09:42:50.784Z</time>
      </trkpt>
      <trkpt lat="43.65652" lon="3.70402">
        <ele>107.4</ele>
        <time>2024-08-27T09:42:52.646Z</time>
      </trkpt>
      <trkpt lat="43.65642" lon="3.70387">
        <ele>106.65</ele>
        <time>2024-08-27T09:42:54.510Z</time>
      </trkpt>
      <trkpt lat="43.6563" lon="3.70366">
        <ele>106.06</ele>
        <time>2024-08-27T09:42:56.377Z</time>
      </trkpt>
      <trkpt lat="43.65608" lon="3.70309">
        <ele>105.71</ele>
        <time>2024-08-27T09:42:58.252Z</time>
      </trkpt>
      <trkpt lat="43.65595" lon="3.70281">
        <ele>105.54</ele>
        <time>2024-08-27T09:43:00.131Z</time>
      </trkpt>
      <trkpt lat="43.65578" lon="3.70256">
        <ele>105.63</ele>
        <time>2024-08-27T09:43:02.014Z</time>
      </trkpt>
      <trkpt lat="43.65546" lon="3.70221">
        <ele>105.87</ele>
        <time>2024-08-27T09:43:03.903Z</time>
      </trkpt>
      <trkpt lat="43.65524" lon="3.70207">
        <ele>106.49</ele>
        <time>2024-08-27T09:43:05.796Z</time>
      </trkpt>
      <trkpt lat="43.65524" lon="3.70207">
        <ele>107.3</ele>
        <time>2024-08-27T09:43:07.689Z</time>
      </trkpt>
      <trkpt lat="43.65463" lon="3.70124">
        <ele>109.15</ele>
        <time>2024-08-27T09:43:09.596Z</time>
      </trkpt>
      <trkpt lat="43.65451" lon="3.70103">
        <ele>110.48</ele>
        <time>2024-08-27T09:43:11.506Z</time>
      </trkpt>
      <trkpt lat="43.65439" lon="3.70078">
        <ele>111.85</ele>
        <time>2024-08-27T09:43:13.419Z</time>
      </trkpt>
      <trkpt lat="43.65433" lon="3.70055">
        <ele>113.3</ele>
        <time>2024-08-27T09:43:15.335Z</time>
      </trkpt>
      <trkpt lat="43.65421" lon="3.70031">
        <ele>114.63</ele>
        <time>2024-08-27T09:43:17.255Z</time>
      </trkpt>
      <trkpt lat="43.65383" lon="3.69967">
        <ele>115.82</ele>
        <time>2024-08-27T09:43:19.184Z</time>
      </trkpt>
      <trkpt lat="43.65379" lon="3.69953">
        <ele>117.14</ele>
        <time>2024-08-27T09:43:21.115Z</time>
      </trkpt>
      <trkpt lat="43.65376" lon="3.69922">
        <ele>118.44</ele>
        <time>2024-08-27T09:43:23.050Z</time>
      </trkpt>
      <trkpt lat="43.65382" lon="3.69864">
        <ele>119.75</ele>
        <time>2024-08-27T09:43:24.991Z</time>
      </trkpt>
      <trkpt lat="43.6536" lon="3.69849">
        <ele>120.93</ele>
        <time>2024-08-27T09:43:26.936Z</time>
      </trkpt>
      <trkpt lat="43.65313" lon="3.69819">
        <ele>122.14</ele>
        <time>2024-08-27T09:43:28.890Z</time>
      </trkpt>
      <trkpt lat="43.65169" lon="3.69726">
        <ele>123.44</ele>
        <time>2024-08-27T09:43:30.869Z</time>
      </trkpt>
      <trkpt lat="43.65132" lon="3.69717">
        <ele>124.19</ele>
        <time>2024-08-27T09:43:32.854Z</time>
      </trkpt>
      <trkpt lat="43.65124" lon="3.69717">
        <ele>124.69</ele>
        <time>2024-08-27T09:43:34.840Z</time>
      </trkpt>
      <trkpt lat="43.6511" lon="3.69721">
        <ele>125</ele>
        <time>2024-08-27T09:43:36.829Z</time>
      </trkpt>
      <trkpt lat="43.65097" lon="3.69729">
        <ele>125.16</ele>
        <time>2024-08-27T09:43:38.820Z</time>
      </trkpt>
      <trkpt lat="43.65036" lon="3.69775">
        <ele>124.99</ele>
        <time>2024-08-27T09:43:40.822Z</time>
      </trkpt>
      <trkpt lat="43.65029" lon="3.6978">
        <ele>125.03</ele>
        <time>2024-08-27T09:43:42.825Z</time>
      </trkpt>
      <trkpt lat="43.65016" lon="3.69791">
        <ele>125.03</ele>
        <time>2024-08-27T09:43:44.831Z</time>
      </trkpt>
      <trkpt lat="43.65002" lon="3.698">
        <ele>125.06</ele>
        <time>2024-08-27T09:43:46.839Z</time>
      </trkpt>
      <trkpt lat="43.64986" lon="3.69813">
        <ele>125.22</ele>
        <time>2024-08-27T09:43:48.850Z</time>
      </trkpt>
      <trkpt lat="43.64978" lon="3.69821">
        <ele>125.44</ele>
        <time>2024-08-27T09:43:50.863Z</time>
      </trkpt>
      <trkpt lat="43.64959" lon="3.69837">
        <ele>125.78</ele>
        <time>2024-08-27T09:43:52.879Z</time>
      </trkpt>
      <trkpt lat="43.64933" lon="3.69836">
        <ele>126.13</ele>
        <time>2024-08-27T09:43:54.900Z</time>
      </trkpt>
      <trkpt lat="43.64927" lon="3.69834">
        <ele>126.61</ele>
        <time>2024-08-27T09:43:56.922Z</time>
      </trkpt>
      <trkpt lat="43.64925" lon="3.69824">
        <ele>127.31</ele>
        <time>2024-08-27T09:43:58.945Z</time>
      </trkpt>
      <trkpt lat="43.64914" lon="3.69792">
        <ele>128.28</ele>
        <time>2024-08-27T09:44:00.972Z</time>
      </trkpt>
      <trkpt lat="43.64902" lon="3.69775">
        <ele>129.62</ele>
        <time>2024-08-27T09:44:03.002Z</time>
      </trkpt>
      <trkpt lat="43.64863" lon="3.69718">
        <ele>131.48</ele>
        <time>2024-08-27T09:44:05.041Z</time>
      </trkpt>
      <trkpt lat="43.64841" lon="3.69687">
        <ele>133.35</ele>
        <time>2024-08-27T09:44:07.085Z</time>
      </trkpt>
      <trkpt lat="43.64818" lon="3.69637">
        <ele>135.6</ele>
        <time>2024-08-27T09:44:09.136Z</time>
      </trkpt>
      <trkpt lat="43.64774" lon="3.69515">
        <ele>138.82</ele>
        <time>2024-08-27T09:44:11.202Z</time>
      </trkpt>
      <trkpt lat="43.64757" lon="3.69482">
        <ele>141.35</ele>
        <time>2024-08-27T09:44:13.273Z</time>
      </trkpt>
      <trkpt lat="43.64723" lon="3.69441">
        <ele>143.25</ele>
        <time>2024-08-27T09:44:15.351Z</time>
      </trkpt>
      <trkpt lat="43.64692" lon="3.69409">
        <ele>145.42</ele>
        <time>2024-08-27T09:44:17.436Z</time>
      </trkpt>
      <trkpt lat="43.64692" lon="3.69409">
        <ele>147.37</ele>
        <time>2024-08-27T09:44:19.521Z</time>
      </trkpt>
      <trkpt lat="43.64587" lon="3.69298">
        <ele>149.65</ele>
        <time>2024-08-27T09:44:21.627Z</time>
      </trkpt>
      <trkpt lat="43.64569" lon="3.69276">
        <ele>151.62</ele>
        <time>2024-08-27T09:44:23.737Z</time>
      </trkpt>
      <trkpt lat="43.64556" lon="3.69253">
        <ele>153.52</ele>
        <time>2024-08-27T09:44:25.850Z</time>
      </trkpt>
      <trkpt lat="43.6455" lon="3.69238">
        <ele>155</ele>
        <time>2024-08-27T09:44:27.965Z</time>
      </trkpt>
      <trkpt lat="43.64548" lon="3.69233">
        <ele>156.17</ele>
        <time>2024-08-27T09:44:30.081Z</time>
      </trkpt>
      <trkpt lat="43.64545" lon="3.69222">
        <ele>157.75</ele>
        <time>2024-08-27T09:44:32.198Z</time>
      </trkpt>
      <trkpt lat="43.64544" lon="3.6922">
        <ele>159.07</ele>
        <time>2024-08-27T09:44:34.315Z</time>
      </trkpt>
      <trkpt lat="43.64539" lon="3.69195">
        <ele>160.62</ele>
        <time>2024-08-27T09:44:36.435Z</time>
      </trkpt>
      <trkpt lat="43.64531" lon="3.69181">
        <ele>162.34</ele>
        <time>2024-08-27T09:44:38.557Z</time>
      </trkpt>
      <trkpt lat="43.64517" lon="3.69158">
        <ele>164.44</ele>
        <time>2024-08-27T09:44:40.683Z</time>
      </trkpt>
      <trkpt lat="43.64453" lon="3.69061">
        <ele>167.46</ele>
        <time>2024-08-27T09:44:42.824Z</time>
      </trkpt>
      <trkpt lat="43.64372" lon="3.68861">
        <ele>171.56</ele>
        <time>2024-08-27T09:44:44.992Z</time>
      </trkpt>
      <trkpt lat="43.64364" lon="3.68835">
        <ele>174.9</ele>
        <time>2024-08-27T09:44:47.163Z</time>
      </trkpt>
      <trkpt lat="43.64363" lon="3.68823">
        <ele>177.81</ele>
        <time>2024-08-27T09:44:49.335Z</time>
      </trkpt>
      <trkpt lat="43.64363" lon="3.68671">
        <ele>181.17</ele>
        <time>2024-08-27T09:44:51.525Z</time>
      </trkpt>
      <trkpt lat="43.64366" lon="3.68649">
        <ele>183.82</ele>
        <time>2024-08-27T09:44:53.718Z</time>
      </trkpt>
      <trkpt lat="43.64376" lon="3.68619">
        <ele>186.23</ele>
        <time>2024-08-27T09:44:55.914Z</time>
      </trkpt>
      <trkpt lat="43.64409" lon="3.68546">
        <ele>188.2</ele>
        <time>2024-08-27T09:44:58.120Z</time>
      </trkpt>
      <trkpt lat="43.6444" lon="3.6848">
        <ele>190.32</ele>
        <time>2024-08-27T09:45:00.336Z</time>
      </trkpt>
      <trkpt lat="43.64457" lon="3.68448">
        <ele>192.25</ele>
        <time>2024-08-27T09:45:02.556Z</time>
      </trkpt>
      <trkpt lat="43.64507" lon="3.68396">
        <ele>194.14</ele>
        <time>2024-08-27T09:45:04.786Z</time>
      </trkpt>
      <trkpt lat="43.64507" lon="3.68396">
        <ele>196.05</ele>
        <time>2024-08-27T09:45:07.016Z</time>
      </trkpt>
      <trkpt lat="43.64643" lon="3.68257">
        <ele>199.3</ele>
        <time>2024-08-27T09:45:09.273Z</time>
      </trkpt>
      <trkpt lat="43.64655" lon="3.68238">
        <ele>201.5</ele>
        <time>2024-08-27T09:45:11.533Z</time>
      </trkpt>
      <trkpt lat="43.6466" lon="3.68221">
        <ele>203.78</ele>
        <time>2024-08-27T09:45:13.795Z</time>
      </trkpt>
      <trkpt lat="43.64661" lon="3.682">
        <ele>206.22</ele>
        <time>2024-08-27T09:45:16.060Z</time>
      </trkpt>
      <trkpt lat="43.64661" lon="3.682">
        <ele>208.58</ele>
        <time>2024-08-27T09:45:18.325Z</time>
      </trkpt>
      <trkpt lat="43.64661" lon="3.6818">
        <ele>211.27</ele>
        <time>2024-08-27T09:45:20.592Z</time>
      </trkpt>
      <trkpt lat="43.64666" lon="3.68154">
        <ele>214.24</ele>
        <time>2024-08-27T09:45:22.862Z</time>
      </trkpt>
      <trkpt lat="43.64678" lon="3.68134">
        <ele>217.34</ele>
        <time>2024-08-27T09:45:25.135Z</time>
      </trkpt>
      <trkpt lat="43.64689" lon="3.68121">
        <ele>220.33</ele>
        <time>2024-08-27T09:45:27.411Z</time>
      </trkpt>
      <trkpt lat="43.6473" lon="3.68098">
        <ele>223.37</ele>
        <time>2024-08-27T09:45:29.694Z</time>
      </trkpt>
      <trkpt lat="43.64806" lon="3.68055">
        <ele>226.79</ele>
        <time>2024-08-27T09:45:31.990Z</time>
      </trkpt>
      <trkpt lat="43.64828" lon="3.6805">
        <ele>229.56</ele>
        <time>2024-08-27T09:45:34.289Z</time>
      </trkpt>
      <trkpt lat="43.64853" lon="3.68047">
        <ele>232.12</ele>
        <time>2024-08-27T09:45:36.592Z</time>
      </trkpt>
      <trkpt lat="43.64897" lon="3.68061">
        <ele>233.9</ele>
        <time>2024-08-27T09:45:38.903Z</time>
      </trkpt>
      <trkpt lat="43.64987" lon="3.68099">
        <ele>236.09</ele>
        <time>2024-08-27T09:45:41.229Z</time>
      </trkpt>
      <trkpt lat="43.65012" lon="3.68104">
        <ele>238.24</ele>
        <time>2024-08-27T09:45:43.559Z</time>
      </trkpt>
      <trkpt lat="43.65017" lon="3.68106">
        <ele>240.11</ele>
        <time>2024-08-27T09:45:45.890Z</time>
      </trkpt>
      <trkpt lat="43.65036" lon="3.68099">
        <ele>242.35</ele>
        <time>2024-08-27T09:45:48.224Z</time>
      </trkpt>
      <trkpt lat="43.65043" lon="3.68096">
        <ele>244.13</ele>
        <time>2024-08-27T09:45:50.559Z</time>
      </trkpt>
      <trkpt lat="43.65078" lon="3.68073">
        <ele>246.1</ele>
        <time>2024-08-27T09:45:52.900Z</time>
      </trkpt>
      <trkpt lat="43.65111" lon="3.6805">
        <ele>247.54</ele>
        <time>2024-08-27T09:45:55.247Z</time>
      </trkpt>
      <trkpt lat="43.65122" lon="3.68039">
        <ele>248.71</ele>
        <time>2024-08-27T09:45:57.596Z</time>
      </trkpt>
      <trkpt lat="43.65122" lon="3.68039">
        <ele>249.44</ele>
        <time>2024-08-27T09:45:59.945Z</time>
      </trkpt>
      <trkpt lat="43.65122" lon="3.68039">
        <ele>248.71</ele>
        <time>2024-08-27T09:46:02.294Z</time>
      </trkpt>
      <trkpt lat="43.65122" lon="3.68039">
        <ele>252.98</ele>
        <time>2024-08-27T09:46:04.643Z</time>
      </trkpt>
      <trkpt lat="43.65152" lon="3.68011">
        <ele>253.69</ele>
        <time>2024-08-27T09:46:06.998Z</time>
      </trkpt>
      <trkpt lat="43.65258" lon="3.6789">
        <ele>255.72</ele>
        <time>2024-08-27T09:46:09.375Z</time>
      </trkpt>
      <trkpt lat="43.65323" lon="3.67813">
        <ele>257.49</ele>
        <time>2024-08-27T09:46:11.766Z</time>
      </trkpt>
      <trkpt lat="43.65336" lon="3.67797">
        <ele>258.37</ele>
        <time>2024-08-27T09:46:14.159Z</time>
      </trkpt>
      <trkpt lat="43.65351" lon="3.67772">
        <ele>258.89</ele>
        <time>2024-08-27T09:46:16.556Z</time>
      </trkpt>
      <trkpt lat="43.65357" lon="3.67757">
        <ele>258.9</ele>
        <time>2024-08-27T09:46:18.955Z</time>
      </trkpt>
      <trkpt lat="43.65364" lon="3.67733">
        <ele>258.3</ele>
        <time>2024-08-27T09:46:21.357Z</time>
      </trkpt>
      <trkpt lat="43.65368" lon="3.67712">
        <ele>257.4</ele>
        <time>2024-08-27T09:46:23.762Z</time>
      </trkpt>
      <trkpt lat="43.65428" lon="3.6734">
        <ele>256.04</ele>
        <time>2024-08-27T09:46:26.211Z</time>
      </trkpt>
      <trkpt lat="43.65442" lon="3.67249">
        <ele>255.09</ele>
        <time>2024-08-27T09:46:28.671Z</time>
      </trkpt>
      <trkpt lat="43.65456" lon="3.67186">
        <ele>253.76</ele>
        <time>2024-08-27T09:46:31.138Z</time>
      </trkpt>
      <trkpt lat="43.65476" lon="3.67155">
        <ele>252.4</ele>
        <time>2024-08-27T09:46:33.610Z</time>
      </trkpt>
      <trkpt lat="43.65508" lon="3.67119">
        <ele>250.89</ele>
        <time>2024-08-27T09:46:36.089Z</time>
      </trkpt>
      <trkpt lat="43.65558" lon="3.67021">
        <ele>249.29</ele>
        <time>2024-08-27T09:46:38.582Z</time>
      </trkpt>
      <trkpt lat="43.65561" lon="3.67013">
        <ele>248.37</ele>
        <time>2024-08-27T09:46:41.076Z</time>
      </trkpt>
      <trkpt lat="43.65578" lon="3.66947">
        <ele>247.66</ele>
        <time>2024-08-27T09:46:43.578Z</time>
      </trkpt>
      <trkpt lat="43.65583" lon="3.66892">
        <ele>247.19</ele>
        <time>2024-08-27T09:46:46.086Z</time>
      </trkpt>
      <trkpt lat="43.65596" lon="3.66836">
        <ele>246.91</ele>
        <time>2024-08-27T09:46:48.601Z</time>
      </trkpt>
      <trkpt lat="43.65619" lon="3.66758">
        <ele>246.87</ele>
        <time>2024-08-27T09:46:51.126Z</time>
      </trkpt>
      <trkpt lat="43.65623" lon="3.66747">
        <ele>246.76</ele>
        <time>2024-08-27T09:46:53.653Z</time>
      </trkpt>
      <trkpt lat="43.6564" lon="3.66712">
        <ele>246.69</ele>
        <time>2024-08-27T09:46:56.184Z</time>
      </trkpt>
      <trkpt lat="43.65681" lon="3.66646">
        <ele>246.6</ele>
        <time>2024-08-27T09:46:58.725Z</time>
      </trkpt>
      <trkpt lat="43.65693" lon="3.66619">
        <ele>246.09</ele>
        <time>2024-08-27T09:47:01.270Z</time>
      </trkpt>
      <trkpt lat="43.65702" lon="3.66593">
        <ele>245.32</ele>
        <time>2024-08-27T09:47:03.819Z</time>
      </trkpt>
      <trkpt lat="43.65711" lon="3.66539">
        <ele>244.22</ele>
        <time>2024-08-27T09:47:06.374Z</time>
      </trkpt>
      <trkpt lat="43.65721" lon="3.66471">
        <ele>242.9</ele>
        <time>2024-08-27T09:47:08.937Z</time>
      </trkpt>
      <trkpt lat="43.6574" lon="3.66412">
        <ele>241.2</ele>
        <time>2024-08-27T09:47:11.507Z</time>
      </trkpt>
      <trkpt lat="43.6575" lon="3.66374">
        <ele>239.47</ele>
        <time>2024-08-27T09:47:14.082Z</time>
      </trkpt>
      <trkpt lat="43.65757" lon="3.66336">
        <ele>237.48</ele>
        <time>2024-08-27T09:47:16.662Z</time>
      </trkpt>
      <trkpt lat="43.65783" lon="3.66279">
        <ele>235.11</ele>
        <time>2024-08-27T09:47:19.250Z</time>
      </trkpt>
      <trkpt lat="43.65802" lon="3.66247">
        <ele>232.94</ele>
        <time>2024-08-27T09:47:21.842Z</time>
      </trkpt>
      <trkpt lat="43.65832" lon="3.66217">
        <ele>230.66</ele>
        <time>2024-08-27T09:47:24.440Z</time>
      </trkpt>
      <trkpt lat="43.6584" lon="3.66207">
        <ele>228.45</ele>
        <time>2024-08-27T09:47:27.040Z</time>
      </trkpt>
      <trkpt lat="43.65907" lon="3.66171">
        <ele>225.85</ele>
        <time>2024-08-27T09:47:29.652Z</time>
      </trkpt>
      <trkpt lat="43.65917" lon="3.66166">
        <ele>223.6</ele>
        <time>2024-08-27T09:47:32.265Z</time>
      </trkpt>
      <trkpt lat="43.65995" lon="3.66115">
        <ele>220.96</ele>
        <time>2024-08-27T09:47:34.892Z</time>
      </trkpt>
      <trkpt lat="43.66017" lon="3.66097">
        <ele>218.7</ele>
        <time>2024-08-27T09:47:37.523Z</time>
      </trkpt>
      <trkpt lat="43.66038" lon="3.66072">
        <ele>216.48</ele>
        <time>2024-08-27T09:47:40.159Z</time>
      </trkpt>
      <trkpt lat="43.66042" lon="3.66063">
        <ele>214.22</ele>
        <time>2024-08-27T09:47:42.796Z</time>
      </trkpt>
      <trkpt lat="43.66046" lon="3.66054">
        <ele>211.86</ele>
        <time>2024-08-27T09:47:45.434Z</time>
      </trkpt>
      <trkpt lat="43.66053" lon="3.66034">
        <ele>209.33</ele>
        <time>2024-08-27T09:47:48.075Z</time>
      </trkpt>
      <trkpt lat="43.66057" lon="3.66016">
        <ele>206.7</ele>
        <time>2024-08-27T09:47:50.718Z</time>
      </trkpt>
      <trkpt lat="43.66059" lon="3.6598">
        <ele>203.78</ele>
        <time>2024-08-27T09:47:53.365Z</time>
      </trkpt>
      <trkpt lat="43.66054" lon="3.65947">
        <ele>201.2</ele>
        <time>2024-08-27T09:47:56.016Z</time>
      </trkpt>
      <trkpt lat="43.66032" lon="3.6587">
        <ele>198.38</ele>
        <time>2024-08-27T09:47:58.676Z</time>
      </trkpt>
      <trkpt lat="43.66026" lon="3.65833">
        <ele>196.14</ele>
        <time>2024-08-27T09:48:01.341Z</time>
      </trkpt>
      <trkpt lat="43.66024" lon="3.65809">
        <ele>194.24</ele>
        <time>2024-08-27T09:48:04.009Z</time>
      </trkpt>
      <trkpt lat="43.66024" lon="3.65776">
        <ele>192.59</ele>
        <time>2024-08-27T09:48:06.681Z</time>
      </trkpt>
      <trkpt lat="43.66027" lon="3.65718">
        <ele>191.22</ele>
        <time>2024-08-27T09:48:09.359Z</time>
      </trkpt>
      <trkpt lat="43.66032" lon="3.65612">
        <ele>190.63</ele>
        <time>2024-08-27T09:48:12.050Z</time>
      </trkpt>
      <trkpt lat="43.66042" lon="3.65505">
        <ele>190.04</ele>
        <time>2024-08-27T09:48:14.753Z</time>
      </trkpt>
      <trkpt lat="43.6605" lon="3.65468">
        <ele>189.69</ele>
        <time>2024-08-27T09:48:17.461Z</time>
      </trkpt>
      <trkpt lat="43.66071" lon="3.65412">
        <ele>189.35</ele>
        <time>2024-08-27T09:48:20.176Z</time>
      </trkpt>
      <trkpt lat="43.66081" lon="3.65393">
        <ele>188.06</ele>
        <time>2024-08-27T09:48:22.894Z</time>
      </trkpt>
      <trkpt lat="43.66128" lon="3.65321">
        <ele>185.71</ele>
        <time>2024-08-27T09:48:25.623Z</time>
      </trkpt>
      <trkpt lat="43.66187" lon="3.65186">
        <ele>182.54</ele>
        <time>2024-08-27T09:48:28.370Z</time>
      </trkpt>
      <trkpt lat="43.66234" lon="3.65094">
        <ele>181.05</ele>
        <time>2024-08-27T09:48:31.130Z</time>
      </trkpt>
      <trkpt lat="43.6629" lon="3.64985">
        <ele>177.16</ele>
        <time>2024-08-27T09:48:33.906Z</time>
      </trkpt>
      <trkpt lat="43.66309" lon="3.64953">
        <ele>176.71</ele>
        <time>2024-08-27T09:48:36.687Z</time>
      </trkpt>
      <trkpt lat="43.66331" lon="3.64918">
        <ele>176.26</ele>
        <time>2024-08-27T09:48:39.473Z</time>
      </trkpt>
      <trkpt lat="43.66364" lon="3.6486">
        <ele>176.11</ele>
        <time>2024-08-27T09:48:42.268Z</time>
      </trkpt>
      <trkpt lat="43.66368" lon="3.64842">
        <ele>176.67</ele>
        <time>2024-08-27T09:48:45.065Z</time>
      </trkpt>
      <trkpt lat="43.66368" lon="3.64833">
        <ele>177.65</ele>
        <time>2024-08-27T09:48:47.863Z</time>
      </trkpt>
      <trkpt lat="43.66366" lon="3.64824">
        <ele>179.25</ele>
        <time>2024-08-27T09:48:50.662Z</time>
      </trkpt>
      <trkpt lat="43.66362" lon="3.64814">
        <ele>181.67</ele>
        <time>2024-08-27T09:48:53.462Z</time>
      </trkpt>
      <trkpt lat="43.66219" lon="3.6456">
        <ele>186.79</ele>
        <time>2024-08-27T09:48:56.300Z</time>
      </trkpt>
      <trkpt lat="43.66191" lon="3.6451">
        <ele>195.02</ele>
        <time>2024-08-27T09:48:59.145Z</time>
      </trkpt>
      <trkpt lat="43.66187" lon="3.645">
        <ele>196.11</ele>
        <time>2024-08-27T09:49:01.991Z</time>
      </trkpt>
      <trkpt lat="43.66176" lon="3.64484">
        <ele>197.13</ele>
        <time>2024-08-27T09:49:04.840Z</time>
      </trkpt>
      <trkpt lat="43.66165" lon="3.64471">
        <ele>198.03</ele>
        <time>2024-08-27T09:49:07.691Z</time>
      </trkpt>
      <trkpt lat="43.66156" lon="3.6445">
        <ele>198.96</ele>
        <time>2024-08-27T09:49:10.545Z</time>
      </trkpt>
      <trkpt lat="43.6616" lon="3.64448">
        <ele>199.74</ele>
        <time>2024-08-27T09:49:13.400Z</time>
      </trkpt>
      <trkpt lat="43.66163" lon="3.64442">
        <ele>200.55</ele>
        <time>2024-08-27T09:49:16.255Z</time>
      </trkpt>
      <trkpt lat="43.66165" lon="3.64436">
        <ele>201.31</ele>
        <time>2024-08-27T09:49:19.111Z</time>
      </trkpt>
      <trkpt lat="43.66165" lon="3.64429">
        <ele>202.09</ele>
        <time>2024-08-27T09:49:21.968Z</time>
      </trkpt>
      <trkpt lat="43.66188" lon="3.64424">
        <ele>202.95</ele>
        <time>2024-08-27T09:49:24.829Z</time>
      </trkpt>
      <trkpt lat="43.66208" lon="3.64424">
        <ele>203.91</ele>
        <time>2024-08-27T09:49:27.693Z</time>
      </trkpt>
      <trkpt lat="43.66219" lon="3.64427">
        <ele>204.85</ele>
        <time>2024-08-27T09:49:30.559Z</time>
      </trkpt>
      <trkpt lat="43.66261" lon="3.6445">
        <ele>205.96</ele>
        <time>2024-08-27T09:49:33.432Z</time>
      </trkpt>
      <trkpt lat="43.66271" lon="3.64453">
        <ele>206.89</ele>
        <time>2024-08-27T09:49:36.307Z</time>
      </trkpt>
      <trkpt lat="43.66327" lon="3.64432">
        <ele>207.98</ele>
        <time>2024-08-27T09:49:39.191Z</time>
      </trkpt>
      <trkpt lat="43.66328" lon="3.64431">
        <ele>208.52</ele>
        <time>2024-08-27T09:49:42.075Z</time>
      </trkpt>
      <trkpt lat="43.66376" lon="3.64413">
        <ele>208.85</ele>
        <time>2024-08-27T09:49:44.967Z</time>
      </trkpt>
      <trkpt lat="43.66381" lon="3.64411">
        <ele>208.7</ele>
        <time>2024-08-27T09:49:47.860Z</time>
      </trkpt>
      <trkpt lat="43.66398" lon="3.64405">
        <ele>207.96</ele>
        <time>2024-08-27T09:49:50.756Z</time>
      </trkpt>
      <trkpt lat="43.66445" lon="3.64388">
        <ele>206.6</ele>
        <time>2024-08-27T09:49:53.660Z</time>
      </trkpt>
      <trkpt lat="43.66464" lon="3.64354">
        <ele>204.03</ele>
        <time>2024-08-27T09:49:56.568Z</time>
      </trkpt>
      <trkpt lat="43.66544" lon="3.64168">
        <ele>199.9</ele>
        <time>2024-08-27T09:49:59.502Z</time>
      </trkpt>
      <trkpt lat="43.66737" lon="3.63717">
        <ele>195.06</ele>
        <time>2024-08-27T09:50:02.496Z</time>
      </trkpt>
      <trkpt lat="43.66757" lon="3.6367">
        <ele>192.76</ele>
        <time>2024-08-27T09:50:05.497Z</time>
      </trkpt>
      <trkpt lat="43.66757" lon="3.6367">
        <ele>185.23</ele>
        <time>2024-08-27T09:50:08.498Z</time>
      </trkpt>
      <trkpt lat="43.6679" lon="3.63595">
        <ele>184.62</ele>
        <time>2024-08-27T09:50:11.509Z</time>
      </trkpt>
      <trkpt lat="43.66888" lon="3.63406">
        <ele>182.93</ele>
        <time>2024-08-27T09:50:14.547Z</time>
      </trkpt>
      <trkpt lat="43.66994" lon="3.63196">
        <ele>181.62</ele>
        <time>2024-08-27T09:50:17.615Z</time>
      </trkpt>
      <trkpt lat="43.67078" lon="3.63016">
        <ele>181.46</ele>
        <time>2024-08-27T09:50:20.708Z</time>
      </trkpt>
      <trkpt lat="43.6713" lon="3.62918">
        <ele>181.23</ele>
        <time>2024-08-27T09:50:23.815Z</time>
      </trkpt>
      <trkpt lat="43.6713" lon="3.62918">
        <ele>180.73</ele>
        <time>2024-08-27T09:50:26.922Z</time>
      </trkpt>
      <trkpt lat="43.67175" lon="3.62834">
        <ele>179.47</ele>
        <time>2024-08-27T09:50:30.041Z</time>
      </trkpt>
      <trkpt lat="43.67189" lon="3.62813">
        <ele>178.39</ele>
        <time>2024-08-27T09:50:33.163Z</time>
      </trkpt>
      <trkpt lat="43.67189" lon="3.62813">
        <ele>177.29</ele>
        <time>2024-08-27T09:50:36.285Z</time>
      </trkpt>
      <trkpt lat="43.67368" lon="3.62448">
        <ele>175.79</ele>
        <time>2024-08-27T09:50:39.458Z</time>
      </trkpt>
      <trkpt lat="43.67471" lon="3.62275">
        <ele>173.88</ele>
        <time>2024-08-27T09:50:42.657Z</time>
      </trkpt>
      <trkpt lat="43.67551" lon="3.62093">
        <ele>171.73</ele>
        <time>2024-08-27T09:50:45.881Z</time>
      </trkpt>
      <trkpt lat="43.67559" lon="3.62064">
        <ele>170.2</ele>
        <time>2024-08-27T09:50:49.108Z</time>
      </trkpt>
      <trkpt lat="43.67554" lon="3.61789">
        <ele>168.81</ele>
        <time>2024-08-27T09:50:52.367Z</time>
      </trkpt>
      <trkpt lat="43.67549" lon="3.61751">
        <ele>167.48</ele>
        <time>2024-08-27T09:50:55.631Z</time>
      </trkpt>
      <trkpt lat="43.67539" lon="3.61721">
        <ele>165.97</ele>
        <time>2024-08-27T09:50:58.899Z</time>
      </trkpt>
      <trkpt lat="43.67471" lon="3.61618">
        <ele>164.29</ele>
        <time>2024-08-27T09:51:02.183Z</time>
      </trkpt>
      <trkpt lat="43.67465" lon="3.61598">
        <ele>162.39</ele>
        <time>2024-08-27T09:51:05.469Z</time>
      </trkpt>
      <trkpt lat="43.67436" lon="3.61419">
        <ele>159.04</ele>
        <time>2024-08-27T09:51:08.777Z</time>
      </trkpt>
      <trkpt lat="43.67431" lon="3.61342">
        <ele>156.99</ele>
        <time>2024-08-27T09:51:12.094Z</time>
      </trkpt>
      <trkpt lat="43.67431" lon="3.61342">
        <ele>155.07</ele>
        <time>2024-08-27T09:51:15.411Z</time>
      </trkpt>
      <trkpt lat="43.67456" lon="3.61258">
        <ele>152.96</ele>
        <time>2024-08-27T09:51:18.738Z</time>
      </trkpt>
      <trkpt lat="43.6748" lon="3.61215">
        <ele>150.58</ele>
        <time>2024-08-27T09:51:22.071Z</time>
      </trkpt>
      <trkpt lat="43.67556" lon="3.61152">
        <ele>148.45</ele>
        <time>2024-08-27T09:51:25.419Z</time>
      </trkpt>
      <trkpt lat="43.67598" lon="3.6111">
        <ele>145.49</ele>
        <time>2024-08-27T09:51:28.775Z</time>
      </trkpt>
      <trkpt lat="43.67617" lon="3.61073">
        <ele>143.34</ele>
        <time>2024-08-27T09:51:32.136Z</time>
      </trkpt>
      <trkpt lat="43.67621" lon="3.61045">
        <ele>141.79</ele>
        <time>2024-08-27T09:51:35.501Z</time>
      </trkpt>
      <trkpt lat="43.67618" lon="3.60981">
        <ele>140.36</ele>
        <time>2024-08-27T09:51:38.873Z</time>
      </trkpt>
      <trkpt lat="43.67606" lon="3.60914">
        <ele>138.88</ele>
        <time>2024-08-27T09:51:42.253Z</time>
      </trkpt>
      <trkpt lat="43.67592" lon="3.60861">
        <ele>137.23</ele>
        <time>2024-08-27T09:51:45.640Z</time>
      </trkpt>
      <trkpt lat="43.67568" lon="3.60811">
        <ele>135.83</ele>
        <time>2024-08-27T09:51:49.034Z</time>
      </trkpt>
      <trkpt lat="43.67536" lon="3.60769">
        <ele>134.19</ele>
        <time>2024-08-27T09:51:52.435Z</time>
      </trkpt>
      <trkpt lat="43.67431" lon="3.60683">
        <ele>131.9</ele>
        <time>2024-08-27T09:51:55.855Z</time>
      </trkpt>
      <trkpt lat="43.67413" lon="3.60666">
        <ele>130.62</ele>
        <time>2024-08-27T09:51:59.279Z</time>
      </trkpt>
      <trkpt lat="43.67395" lon="3.60637">
        <ele>128.95</ele>
        <time>2024-08-27T09:52:02.707Z</time>
      </trkpt>
      <trkpt lat="43.67345" lon="3.60509">
        <ele>126.32</ele>
        <time>2024-08-27T09:52:06.152Z</time>
      </trkpt>
      <trkpt lat="43.67335" lon="3.60487">
        <ele>124.21</ele>
        <time>2024-08-27T09:52:09.600Z</time>
      </trkpt>
      <trkpt lat="43.67323" lon="3.60466">
        <ele>122.33</ele>
        <time>2024-08-27T09:52:13.051Z</time>
      </trkpt>
      <trkpt lat="43.67312" lon="3.60457">
        <ele>121.02</ele>
        <time>2024-08-27T09:52:16.504Z</time>
      </trkpt>
      <trkpt lat="43.67289" lon="3.60443">
        <ele>119.95</ele>
        <time>2024-08-27T09:52:19.961Z</time>
      </trkpt>
      <trkpt lat="43.67285" lon="3.60459">
        <ele>119.68</ele>
        <time>2024-08-27T09:52:23.420Z</time>
      </trkpt>
      <trkpt lat="43.67285" lon="3.60471">
        <ele>119.82</ele>
        <time>2024-08-27T09:52:26.881Z</time>
      </trkpt>
      <trkpt lat="43.67285" lon="3.60459">
        <ele>119.13</ele>
        <time>2024-08-27T09:52:30.343Z</time>
      </trkpt>
      <trkpt lat="43.67289" lon="3.60443">
        <ele>119.22</ele>
        <time>2024-08-27T09:52:33.807Z</time>
      </trkpt>
      <trkpt lat="43.67286" lon="3.60441">
        <ele>119.5</ele>
        <time>2024-08-27T09:52:37.271Z</time>
      </trkpt>
      <trkpt lat="43.67271" lon="3.60431">
        <ele>119.7</ele>
        <time>2024-08-27T09:52:40.738Z</time>
      </trkpt>
      <trkpt lat="43.67251" lon="3.60405">
        <ele>119.88</ele>
        <time>2024-08-27T09:52:44.209Z</time>
      </trkpt>
      <trkpt lat="43.67245" lon="3.60392">
        <ele>120.38</ele>
        <time>2024-08-27T09:52:47.682Z</time>
      </trkpt>
      <trkpt lat="43.67219" lon="3.60307">
        <ele>121.75</ele>
        <time>2024-08-27T09:52:51.166Z</time>
      </trkpt>
      <trkpt lat="43.672" lon="3.60253">
        <ele>124.31</ele>
        <time>2024-08-27T09:52:54.657Z</time>
      </trkpt>
      <trkpt lat="43.67188" lon="3.60231">
        <ele>126.26</ele>
        <time>2024-08-27T09:52:58.151Z</time>
      </trkpt>
      <trkpt lat="43.67174" lon="3.60213">
        <ele>127.67</ele>
        <time>2024-08-27T09:53:01.648Z</time>
      </trkpt>
      <trkpt lat="43.67152" lon="3.60199">
        <ele>128.55</ele>
        <time>2024-08-27T09:53:05.149Z</time>
      </trkpt>
      <trkpt lat="43.67132" lon="3.60184">
        <ele>129.27</ele>
        <time>2024-08-27T09:53:08.654Z</time>
      </trkpt>
      <trkpt lat="43.6712" lon="3.6017">
        <ele>130.11</ele>
        <time>2024-08-27T09:53:12.161Z</time>
      </trkpt>
      <trkpt lat="43.67114" lon="3.6015">
        <ele>130.98</ele>
        <time>2024-08-27T09:53:15.671Z</time>
      </trkpt>
      <trkpt lat="43.67115" lon="3.60136">
        <ele>131.94</ele>
        <time>2024-08-27T09:53:19.182Z</time>
      </trkpt>
      <trkpt lat="43.67117" lon="3.60119">
        <ele>132.89</ele>
        <time>2024-08-27T09:53:22.695Z</time>
      </trkpt>
      <trkpt lat="43.67123" lon="3.60098">
        <ele>133.87</ele>
        <time>2024-08-27T09:53:26.211Z</time>
      </trkpt>
      <trkpt lat="43.67129" lon="3.60082">
        <ele>134.76</ele>
        <time>2024-08-27T09:53:29.729Z</time>
      </trkpt>
      <trkpt lat="43.67134" lon="3.6005">
        <ele>135.58</ele>
        <time>2024-08-27T09:53:33.251Z</time>
      </trkpt>
      <trkpt lat="43.67134" lon="3.60002">
        <ele>136.45</ele>
        <time>2024-08-27T09:53:36.779Z</time>
      </trkpt>
      <trkpt lat="43.67162" lon="3.5987">
        <ele>138.17</ele>
        <time>2024-08-27T09:53:40.322Z</time>
      </trkpt>
      <trkpt lat="43.67179" lon="3.59713">
        <ele>139.34</ele>
        <time>2024-08-27T09:53:43.884Z</time>
      </trkpt>
      <trkpt lat="43.67182" lon="3.5969">
        <ele>139.88</ele>
        <time>2024-08-27T09:53:47.449Z</time>
      </trkpt>
      <trkpt lat="43.67187" lon="3.59676">
        <ele>140.14</ele>
        <time>2024-08-27T09:53:51.015Z</time>
      </trkpt>
      <trkpt lat="43.67197" lon="3.59654">
        <ele>140.02</ele>
        <time>2024-08-27T09:53:54.584Z</time>
      </trkpt>
      <trkpt lat="43.67208" lon="3.59643">
        <ele>139.73</ele>
        <time>2024-08-27T09:53:58.156Z</time>
      </trkpt>
      <trkpt lat="43.67233" lon="3.59635">
        <ele>139.27</ele>
        <time>2024-08-27T09:54:01.732Z</time>
      </trkpt>
      <trkpt lat="43.67283" lon="3.59637">
        <ele>138.24</ele>
        <time>2024-08-27T09:54:05.316Z</time>
      </trkpt>
      <trkpt lat="43.67307" lon="3.5964">
        <ele>136.93</ele>
        <time>2024-08-27T09:54:08.904Z</time>
      </trkpt>
      <trkpt lat="43.67348" lon="3.59645">
        <ele>135.33</ele>
        <time>2024-08-27T09:54:12.498Z</time>
      </trkpt>
      <trkpt lat="43.67399" lon="3.59652">
        <ele>133.44</ele>
        <time>2024-08-27T09:54:16.100Z</time>
      </trkpt>
      <trkpt lat="43.67438" lon="3.59664">
        <ele>131.58</ele>
        <time>2024-08-27T09:54:19.709Z</time>
      </trkpt>
      <trkpt lat="43.67514" lon="3.59723">
        <ele>129.16</ele>
        <time>2024-08-27T09:54:23.332Z</time>
      </trkpt>
      <trkpt lat="43.67551" lon="3.59735">
        <ele>126.91</ele>
        <time>2024-08-27T09:54:26.961Z</time>
      </trkpt>
      <trkpt lat="43.67711" lon="3.59743">
        <ele>124.42</ele>
        <time>2024-08-27T09:54:30.615Z</time>
      </trkpt>
      <trkpt lat="43.6781" lon="3.59745">
        <ele>122.17</ele>
        <time>2024-08-27T09:54:34.285Z</time>
      </trkpt>
      <trkpt lat="43.67813" lon="3.59745">
        <ele>120.5</ele>
        <time>2024-08-27T09:54:37.956Z</time>
      </trkpt>
      <trkpt lat="43.67829" lon="3.59748">
        <ele>118.86</ele>
        <time>2024-08-27T09:54:41.629Z</time>
      </trkpt>
      <trkpt lat="43.67837" lon="3.59752">
        <ele>117.64</ele>
        <time>2024-08-27T09:54:45.304Z</time>
      </trkpt>
      <trkpt lat="43.67843" lon="3.59758">
        <ele>116.7</ele>
        <time>2024-08-27T09:54:48.980Z</time>
      </trkpt>
      <trkpt lat="43.67848" lon="3.59767">
        <ele>116.07</ele>
        <time>2024-08-27T09:54:52.657Z</time>
      </trkpt>
      <trkpt lat="43.6785" lon="3.5978">
        <ele>115.73</ele>
        <time>2024-08-27T09:54:56.336Z</time>
      </trkpt>
      <trkpt lat="43.67846" lon="3.5983">
        <ele>115.69</ele>
        <time>2024-08-27T09:55:00.020Z</time>
      </trkpt>
      <trkpt lat="43.67849" lon="3.59844">
        <ele>115.24</ele>
        <time>2024-08-27T09:55:03.706Z</time>
      </trkpt>
      <trkpt lat="43.67852" lon="3.59854">
        <ele>114.78</ele>
        <time>2024-08-27T09:55:07.393Z</time>
      </trkpt>
      <trkpt lat="43.67858" lon="3.59862">
        <ele>114.33</ele>
        <time>2024-08-27T09:55:11.082Z</time>
      </trkpt>
      <trkpt lat="43.67868" lon="3.59871">
        <ele>114</ele>
        <time>2024-08-27T09:55:14.773Z</time>
      </trkpt>
      <trkpt lat="43.67881" lon="3.59874">
        <ele>113.81</ele>
        <time>2024-08-27T09:55:18.466Z</time>
      </trkpt>
      <trkpt lat="43.67885" lon="3.59874">
        <ele>113.7</ele>
        <time>2024-08-27T09:55:22.159Z</time>
      </trkpt>
      <trkpt lat="43.67889" lon="3.59873">
        <ele>116.19</ele>
        <time>2024-08-27T09:55:25.853Z</time>
      </trkpt>
      <trkpt lat="43.67898" lon="3.59869">
        <ele>115.5</ele>
        <time>2024-08-27T09:55:29.549Z</time>
      </trkpt>
      <trkpt lat="43.67907" lon="3.59859">
        <ele>114.7</ele>
        <time>2024-08-27T09:55:33.246Z</time>
      </trkpt>
      <trkpt lat="43.67912" lon="3.59849">
        <ele>113.78</ele>
        <time>2024-08-27T09:55:36.945Z</time>
      </trkpt>
      <trkpt lat="43.67912" lon="3.59849">
        <ele>112.79</ele>
        <time>2024-08-27T09:55:40.644Z</time>
      </trkpt>
      <trkpt lat="43.67916" lon="3.59839">
        <ele>111.49</ele>
        <time>2024-08-27T09:55:44.344Z</time>
      </trkpt>
      <trkpt lat="43.67918" lon="3.59823">
        <ele>110.01</ele>
        <time>2024-08-27T09:55:48.046Z</time>
      </trkpt>
      <trkpt lat="43.67922" lon="3.59741">
        <ele>107.83</ele>
        <time>2024-08-27T09:55:51.758Z</time>
      </trkpt>
      <trkpt lat="43.67924" lon="3.5964">
        <ele>105.52</ele>
        <time>2024-08-27T09:55:55.481Z</time>
      </trkpt>
      <trkpt lat="43.67926" lon="3.59619">
        <ele>103.61</ele>
        <time>2024-08-27T09:55:59.207Z</time>
      </trkpt>
      <trkpt lat="43.67931" lon="3.59592">
        <ele>101.63</ele>
        <time>2024-08-27T09:56:02.936Z</time>
      </trkpt>
      <trkpt lat="43.67943" lon="3.59562">
        <ele>99.68</ele>
        <time>2024-08-27T09:56:06.669Z</time>
      </trkpt>
      <trkpt lat="43.67958" lon="3.59537">
        <ele>97.59</ele>
        <time>2024-08-27T09:56:10.406Z</time>
      </trkpt>
      <trkpt lat="43.681" lon="3.59389">
        <ele>94.43</ele>
        <time>2024-08-27T09:56:14.171Z</time>
      </trkpt>
      <trkpt lat="43.68111" lon="3.5938">
        <ele>92.39</ele>
        <time>2024-08-27T09:56:17.938Z</time>
      </trkpt>
      <trkpt lat="43.68121" lon="3.59375">
        <ele>90.56</ele>
        <time>2024-08-27T09:56:21.707Z</time>
      </trkpt>
      <trkpt lat="43.68138" lon="3.59367">
        <ele>88.73</ele>
        <time>2024-08-27T09:56:25.479Z</time>
      </trkpt>
      <trkpt lat="43.68155" lon="3.59361">
        <ele>87.05</ele>
        <time>2024-08-27T09:56:29.254Z</time>
      </trkpt>
      <trkpt lat="43.68171" lon="3.59359">
        <ele>85.54</ele>
        <time>2024-08-27T09:56:33.031Z</time>
      </trkpt>
      <trkpt lat="43.68191" lon="3.59359">
        <ele>84.04</ele>
        <time>2024-08-27T09:56:36.811Z</time>
      </trkpt>
      <trkpt lat="43.68208" lon="3.59365">
        <ele>82.28</ele>
        <time>2024-08-27T09:56:40.594Z</time>
      </trkpt>
      <trkpt lat="43.68287" lon="3.5939">
        <ele>79.54</ele>
        <time>2024-08-27T09:56:44.390Z</time>
      </trkpt>
      <trkpt lat="43.68389" lon="3.59424">
        <ele>76.03</ele>
        <time>2024-08-27T09:56:48.203Z</time>
      </trkpt>
      <trkpt lat="43.68426" lon="3.59422">
        <ele>75.46</ele>
        <time>2024-08-27T09:56:52.022Z</time>
      </trkpt>
      <trkpt lat="43.68453" lon="3.59416">
        <ele>74.91</ele>
        <time>2024-08-27T09:56:55.845Z</time>
      </trkpt>
      <trkpt lat="43.68466" lon="3.59406">
        <ele>74.54</ele>
        <time>2024-08-27T09:56:59.671Z</time>
      </trkpt>
      <trkpt lat="43.6847" lon="3.59402">
        <ele>74.34</ele>
        <time>2024-08-27T09:57:03.497Z</time>
      </trkpt>
      <trkpt lat="43.68478" lon="3.59388">
        <ele>74.24</ele>
        <time>2024-08-27T09:57:07.326Z</time>
      </trkpt>
      <trkpt lat="43.68487" lon="3.59369">
        <ele>74.32</ele>
        <time>2024-08-27T09:57:11.157Z</time>
      </trkpt>
      <trkpt lat="43.68495" lon="3.5936">
        <ele>74.5</ele>
        <time>2024-08-27T09:57:14.990Z</time>
      </trkpt>
      <trkpt lat="43.68498" lon="3.59359">
        <ele>74.7</ele>
        <time>2024-08-27T09:57:18.823Z</time>
      </trkpt>
      <trkpt lat="43.68501" lon="3.59355">
        <ele>74.97</ele>
        <time>2024-08-27T09:57:22.657Z</time>
      </trkpt>
      <trkpt lat="43.68502" lon="3.59352">
        <ele>75.24</ele>
        <time>2024-08-27T09:57:26.491Z</time>
      </trkpt>
      <trkpt lat="43.68501" lon="3.59345">
        <ele>75.52</ele>
        <time>2024-08-27T09:57:30.326Z</time>
      </trkpt>
      <trkpt lat="43.68498" lon="3.5934">
        <ele>75.76</ele>
        <time>2024-08-27T09:57:34.162Z</time>
      </trkpt>
      <trkpt lat="43.68492" lon="3.59339">
        <ele>75.94</ele>
        <time>2024-08-27T09:57:37.999Z</time>
      </trkpt>
      <trkpt lat="43.68481" lon="3.59326">
        <ele>76.15</ele>
        <time>2024-08-27T09:57:41.838Z</time>
      </trkpt>
      <trkpt lat="43.68466" lon="3.59274">
        <ele>76.44</ele>
        <time>2024-08-27T09:57:45.684Z</time>
      </trkpt>
      <trkpt lat="43.68462" lon="3.59258">
        <ele>76.79</ele>
        <time>2024-08-27T09:57:49.532Z</time>
      </trkpt>
      <trkpt lat="43.6846" lon="3.59231">
        <ele>77.17</ele>
        <time>2024-08-27T09:57:53.383Z</time>
      </trkpt>
      <trkpt lat="43.68458" lon="3.59198">
        <ele>77.5</ele>
        <time>2024-08-27T09:57:57.238Z</time>
      </trkpt>
      <trkpt lat="43.68454" lon="3.59136">
        <ele>77.39</ele>
        <time>2024-08-27T09:58:01.100Z</time>
      </trkpt>
      <trkpt lat="43.68452" lon="3.59119">
        <ele>77.14</ele>
        <time>2024-08-27T09:58:04.964Z</time>
      </trkpt>
      <trkpt lat="43.68451" lon="3.59062">
        <ele>76.79</ele>
        <time>2024-08-27T09:58:08.835Z</time>
      </trkpt>
      <trkpt lat="43.68451" lon="3.59051">
        <ele>76.69</ele>
        <time>2024-08-27T09:58:12.707Z</time>
      </trkpt>
      <trkpt lat="43.68451" lon="3.59017">
        <ele>77.09</ele>
        <time>2024-08-27T09:58:16.583Z</time>
      </trkpt>
      <trkpt lat="43.68454" lon="3.58995">
        <ele>77.21</ele>
        <time>2024-08-27T09:58:20.461Z</time>
      </trkpt>
      <trkpt lat="43.68466" lon="3.58971">
        <ele>77.29</ele>
        <time>2024-08-27T09:58:24.343Z</time>
      </trkpt>
      <trkpt lat="43.68503" lon="3.58898">
        <ele>77.03</ele>
        <time>2024-08-27T09:58:28.235Z</time>
      </trkpt>
      <trkpt lat="43.68516" lon="3.58859">
        <ele>76.44</ele>
        <time>2024-08-27T09:58:32.132Z</time>
      </trkpt>
      <trkpt lat="43.68516" lon="3.58859">
        <ele>75.89</ele>
        <time>2024-08-27T09:58:36.029Z</time>
      </trkpt>
      <trkpt lat="43.68536" lon="3.58789">
        <ele>74.7</ele>
        <time>2024-08-27T09:58:39.935Z</time>
      </trkpt>
      <trkpt lat="43.68536" lon="3.58789">
        <ele>73.9</ele>
        <time>2024-08-27T09:58:43.841Z</time>
      </trkpt>
      <trkpt lat="43.68549" lon="3.58743">
        <ele>73.1</ele>
        <time>2024-08-27T09:58:47.753Z</time>
      </trkpt>
      <trkpt lat="43.68558" lon="3.58704">
        <ele>72.47</ele>
        <time>2024-08-27T09:58:51.669Z</time>
      </trkpt>
      <trkpt lat="43.68562" lon="3.58671">
        <ele>71.73</ele>
        <time>2024-08-27T09:58:55.589Z</time>
      </trkpt>
      <trkpt lat="43.68567" lon="3.58612">
        <ele>71.09</ele>
        <time>2024-08-27T09:58:59.516Z</time>
      </trkpt>
      <trkpt lat="43.68663" lon="3.58561">
        <ele>70.21</ele>
        <time>2024-08-27T09:59:03.459Z</time>
      </trkpt>
      <trkpt lat="43.68701" lon="3.58541">
        <ele>69.55</ele>
        <time>2024-08-27T09:59:07.409Z</time>
      </trkpt>
      <trkpt lat="43.68784" lon="3.58495">
        <ele>68.94</ele>
        <time>2024-08-27T09:59:11.373Z</time>
      </trkpt>
      <trkpt lat="43.68804" lon="3.58485">
        <ele>68.51</ele>
        <time>2024-08-27T09:59:15.341Z</time>
      </trkpt>
      <trkpt lat="43.68821" lon="3.58476">
        <ele>68.17</ele>
        <time>2024-08-27T09:59:19.312Z</time>
      </trkpt>
      <trkpt lat="43.6883" lon="3.58471">
        <ele>67.91</ele>
        <time>2024-08-27T09:59:23.284Z</time>
      </trkpt>
      <trkpt lat="43.6887" lon="3.58449">
        <ele>67.6</ele>
        <time>2024-08-27T09:59:27.263Z</time>
      </trkpt>
      <trkpt lat="43.68868" lon="3.58443">
        <ele>67.28</ele>
        <time>2024-08-27T09:59:31.243Z</time>
      </trkpt>
      <trkpt lat="43.68905" lon="3.58424">
        <ele>66.88</ele>
        <time>2024-08-27T09:59:35.229Z</time>
      </trkpt>
      <trkpt lat="43.69009" lon="3.58366">
        <ele>66.32</ele>
        <time>2024-08-27T09:59:39.233Z</time>
      </trkpt>
      <trkpt lat="43.69028" lon="3.58351">
        <ele>65.77</ele>
        <time>2024-08-27T09:59:43.241Z</time>
      </trkpt>
      <trkpt lat="43.69041" lon="3.58343">
        <ele>65.16</ele>
        <time>2024-08-27T09:59:47.251Z</time>
      </trkpt>
      <trkpt lat="43.69086" lon="3.58301">
        <ele>64.3</ele>
        <time>2024-08-27T09:59:51.270Z</time>
      </trkpt>
      <trkpt lat="43.69105" lon="3.58284">
        <ele>63.44</ele>
        <time>2024-08-27T09:59:55.292Z</time>
      </trkpt>
      <trkpt lat="43.69164" lon="3.58245">
        <ele>62.15</ele>
        <time>2024-08-27T09:59:59.325Z</time>
      </trkpt>
      <trkpt lat="43.69187" lon="3.58225">
        <ele>61.19</ele>
        <time>2024-08-27T10:00:03.362Z</time>
      </trkpt>
      <trkpt lat="43.69191" lon="3.58213">
        <ele>60.28</ele>
        <time>2024-08-27T10:00:07.401Z</time>
      </trkpt>
      <trkpt lat="43.69197" lon="3.58189">
        <ele>59.46</ele>
        <time>2024-08-27T10:00:11.443Z</time>
      </trkpt>
      <trkpt lat="43.69205" lon="3.58183">
        <ele>58.64</ele>
        <time>2024-08-27T10:00:15.486Z</time>
      </trkpt>
      <trkpt lat="43.69211" lon="3.58179">
        <ele>57.88</ele>
        <time>2024-08-27T10:00:19.530Z</time>
      </trkpt>
      <trkpt lat="43.69229" lon="3.58166">
        <ele>57.04</ele>
        <time>2024-08-27T10:00:23.577Z</time>
      </trkpt>
      <trkpt lat="43.69244" lon="3.58153">
        <ele>56.54</ele>
        <time>2024-08-27T10:00:27.627Z</time>
      </trkpt>
      <trkpt lat="43.69282" lon="3.58122">
        <ele>56.23</ele>
        <time>2024-08-27T10:00:31.684Z</time>
      </trkpt>
      <trkpt lat="43.69301" lon="3.58099">
        <ele>55.86</ele>
        <time>2024-08-27T10:00:35.745Z</time>
      </trkpt>
      <trkpt lat="43.69359" lon="3.58003">
        <ele>55.55</ele>
        <time>2024-08-27T10:00:39.821Z</time>
      </trkpt>
      <trkpt lat="43.69375" lon="3.57984">
        <ele>55.31</ele>
        <time>2024-08-27T10:00:43.900Z</time>
      </trkpt>
      <trkpt lat="43.69394" lon="3.57965">
        <ele>55.27</ele>
        <time>2024-08-27T10:00:47.983Z</time>
      </trkpt>
      <trkpt lat="43.69409" lon="3.57955">
        <ele>55.46</ele>
        <time>2024-08-27T10:00:52.068Z</time>
      </trkpt>
      <trkpt lat="43.69421" lon="3.57947">
        <ele>55.77</ele>
        <time>2024-08-27T10:00:56.156Z</time>
      </trkpt>
      <trkpt lat="43.69438" lon="3.57937">
        <ele>56.44</ele>
        <time>2024-08-27T10:01:00.247Z</time>
      </trkpt>
      <trkpt lat="43.69488" lon="3.57894">
        <ele>57.25</ele>
        <time>2024-08-27T10:01:04.347Z</time>
      </trkpt>
      <trkpt lat="43.69491" lon="3.57901">
        <ele>58.26</ele>
        <time>2024-08-27T10:01:08.448Z</time>
      </trkpt>
      <trkpt lat="43.69669" lon="3.57754">
        <ele>60.18</ele>
        <time>2024-08-27T10:01:12.582Z</time>
      </trkpt>
      <trkpt lat="43.69669" lon="3.57754">
        <ele>60.76</ele>
        <time>2024-08-27T10:01:16.716Z</time>
      </trkpt>
      <trkpt lat="43.69685" lon="3.57738">
        <ele>61.18</ele>
        <time>2024-08-27T10:01:20.853Z</time>
      </trkpt>
      <trkpt lat="43.69755" lon="3.57663">
        <ele>61.96</ele>
        <time>2024-08-27T10:01:25.005Z</time>
      </trkpt>
      <trkpt lat="43.69763" lon="3.57654">
        <ele>62.83</ele>
        <time>2024-08-27T10:01:29.158Z</time>
      </trkpt>
      <trkpt lat="43.69787" lon="3.57626">
        <ele>62.64</ele>
        <time>2024-08-27T10:01:33.316Z</time>
      </trkpt>
      <trkpt lat="43.69847" lon="3.57542">
        <ele>62.73</ele>
        <time>2024-08-27T10:01:37.488Z</time>
      </trkpt>
      <trkpt lat="43.69868" lon="3.57511">
        <ele>62.6</ele>
        <time>2024-08-27T10:01:41.665Z</time>
      </trkpt>
      <trkpt lat="43.69885" lon="3.57478">
        <ele>62.42</ele>
        <time>2024-08-27T10:01:45.847Z</time>
      </trkpt>
      <trkpt lat="43.6991" lon="3.57425">
        <ele>62.42</ele>
        <time>2024-08-27T10:01:50.036Z</time>
      </trkpt>
      <trkpt lat="43.69932" lon="3.5737">
        <ele>62.68</ele>
        <time>2024-08-27T10:01:54.232Z</time>
      </trkpt>
      <trkpt lat="43.70058" lon="3.57015">
        <ele>62.48</ele>
        <time>2024-08-27T10:01:58.474Z</time>
      </trkpt>
      <trkpt lat="43.70064" lon="3.57">
        <ele>62.57</ele>
        <time>2024-08-27T10:02:02.718Z</time>
      </trkpt>
      <trkpt lat="43.70068" lon="3.56987">
        <ele>62.82</ele>
        <time>2024-08-27T10:02:06.964Z</time>
      </trkpt>
      <trkpt lat="43.70137" lon="3.5683">
        <ele>63.31</ele>
        <time>2024-08-27T10:02:11.231Z</time>
      </trkpt>
      <trkpt lat="43.70137" lon="3.5683">
        <ele>63.72</ele>
        <time>2024-08-27T10:02:15.498Z</time>
      </trkpt>
      <trkpt lat="43.70255" lon="3.56484">
        <ele>64.76</ele>
        <time>2024-08-27T10:02:19.809Z</time>
      </trkpt>
      <trkpt lat="43.70271" lon="3.56429">
        <ele>65.22</ele>
        <time>2024-08-27T10:02:24.127Z</time>
      </trkpt>
      <trkpt lat="43.70293" lon="3.56375">
        <ele>65.61</ele>
        <time>2024-08-27T10:02:28.452Z</time>
      </trkpt>
      <trkpt lat="43.70315" lon="3.56316">
        <ele>65.8</ele>
        <time>2024-08-27T10:02:32.785Z</time>
      </trkpt>
      <trkpt lat="43.70331" lon="3.56282">
        <ele>65.93</ele>
        <time>2024-08-27T10:02:37.123Z</time>
      </trkpt>
      <trkpt lat="43.7035" lon="3.56253">
        <ele>66.14</ele>
        <time>2024-08-27T10:02:41.465Z</time>
      </trkpt>
      <trkpt lat="43.70368" lon="3.5623">
        <ele>66.21</ele>
        <time>2024-08-27T10:02:45.811Z</time>
      </trkpt>
      <trkpt lat="43.70386" lon="3.56211">
        <ele>66.11</ele>
        <time>2024-08-27T10:02:50.161Z</time>
      </trkpt>
      <trkpt lat="43.70409" lon="3.56194">
        <ele>65.97</ele>
        <time>2024-08-27T10:02:54.515Z</time>
      </trkpt>
      <trkpt lat="43.70512" lon="3.56135">
        <ele>65.74</ele>
        <time>2024-08-27T10:02:58.887Z</time>
      </trkpt>
      <trkpt lat="43.70569" lon="3.56093">
        <ele>65.35</ele>
        <time>2024-08-27T10:03:03.269Z</time>
      </trkpt>
      <trkpt lat="43.70569" lon="3.56093">
        <ele>64.97</ele>
        <time>2024-08-27T10:03:07.651Z</time>
      </trkpt>
      <trkpt lat="43.70578" lon="3.56087">
        <ele>64.54</ele>
        <time>2024-08-27T10:03:12.035Z</time>
      </trkpt>
      <trkpt lat="43.70595" lon="3.56073">
        <ele>64.12</ele>
        <time>2024-08-27T10:03:16.422Z</time>
      </trkpt>
      <trkpt lat="43.70615" lon="3.56055">
        <ele>63.61</ele>
        <time>2024-08-27T10:03:20.813Z</time>
      </trkpt>
      <trkpt lat="43.70666" lon="3.55997">
        <ele>62.86</ele>
        <time>2024-08-27T10:03:25.215Z</time>
      </trkpt>
      <trkpt lat="43.70699" lon="3.55965">
        <ele>62.47</ele>
        <time>2024-08-27T10:03:29.623Z</time>
      </trkpt>
      <trkpt lat="43.70718" lon="3.55941">
        <ele>61.77</ele>
        <time>2024-08-27T10:03:34.035Z</time>
      </trkpt>
      <trkpt lat="43.70802" lon="3.55803">
        <ele>61.02</ele>
        <time>2024-08-27T10:03:38.468Z</time>
      </trkpt>
      <trkpt lat="43.70816" lon="3.55778">
        <ele>60.28</ele>
        <time>2024-08-27T10:03:42.905Z</time>
      </trkpt>
      <trkpt lat="43.70816" lon="3.55766">
        <ele>59.84</ele>
        <time>2024-08-27T10:03:47.343Z</time>
      </trkpt>
      <trkpt lat="43.70814" lon="3.55754">
        <ele>59.55</ele>
        <time>2024-08-27T10:03:51.782Z</time>
      </trkpt>
      <trkpt lat="43.70792" lon="3.55694">
        <ele>60.13</ele>
        <time>2024-08-27T10:03:56.229Z</time>
      </trkpt>
      <trkpt lat="43.70792" lon="3.55694">
        <ele>60.4</ele>
        <time>2024-08-27T10:04:00.676Z</time>
      </trkpt>
      <trkpt lat="43.70786" lon="3.55681">
        <ele>61.28</ele>
        <time>2024-08-27T10:04:05.125Z</time>
      </trkpt>
      <trkpt lat="43.70778" lon="3.55687">
        <ele>61.59</ele>
        <time>2024-08-27T10:04:09.576Z</time>
      </trkpt>
      <trkpt lat="43.70772" lon="3.55688">
        <ele>62.25</ele>
        <time>2024-08-27T10:04:14.027Z</time>
      </trkpt>
      <trkpt lat="43.70764" lon="3.55685">
        <ele>63.22</ele>
        <time>2024-08-27T10:04:18.480Z</time>
      </trkpt>
      <trkpt lat="43.70755" lon="3.55678">
        <ele>64.42</ele>
        <time>2024-08-27T10:04:22.934Z</time>
      </trkpt>
      <trkpt lat="43.70748" lon="3.55665">
        <ele>65.82</ele>
        <time>2024-08-27T10:04:27.390Z</time>
      </trkpt>
      <trkpt lat="43.7073" lon="3.55628">
        <ele>67.61</ele>
        <time>2024-08-27T10:04:31.851Z</time>
      </trkpt>
      <trkpt lat="43.70722" lon="3.55616">
        <ele>68.7</ele>
        <time>2024-08-27T10:04:36.314Z</time>
      </trkpt>
      <trkpt lat="43.70722" lon="3.55616">
        <ele>69.79</ele>
        <time>2024-08-27T10:04:40.777Z</time>
      </trkpt>
      <trkpt lat="43.70711" lon="3.55605">
        <ele>70.84</ele>
        <time>2024-08-27T10:04:45.243Z</time>
      </trkpt>
      <trkpt lat="43.70661" lon="3.55571">
        <ele>71.93</ele>
        <time>2024-08-27T10:04:49.718Z</time>
      </trkpt>
      <trkpt lat="43.70626" lon="3.55543">
        <ele>73.59</ele>
        <time>2024-08-27T10:04:54.199Z</time>
      </trkpt>
      <trkpt lat="43.70615" lon="3.55538">
        <ele>74.63</ele>
        <time>2024-08-27T10:04:58.682Z</time>
      </trkpt>
      <trkpt lat="43.70603" lon="3.55536">
        <ele>75.52</ele>
        <time>2024-08-27T10:05:03.167Z</time>
      </trkpt>
      <trkpt lat="43.70572" lon="3.55541">
        <ele>76.34</ele>
        <time>2024-08-27T10:05:07.657Z</time>
      </trkpt>
      <trkpt lat="43.70566" lon="3.55541">
        <ele>77.14</ele>
        <time>2024-08-27T10:05:12.148Z</time>
      </trkpt>
      <trkpt lat="43.70564" lon="3.55541">
        <ele>77.89</ele>
        <time>2024-08-27T10:05:16.639Z</time>
      </trkpt>
      <trkpt lat="43.70564" lon="3.55541">
        <ele>78.68</ele>
        <time>2024-08-27T10:05:21.130Z</time>
      </trkpt>
      <trkpt lat="43.70549" lon="3.55539">
        <ele>79.67</ele>
        <time>2024-08-27T10:05:25.623Z</time>
      </trkpt>
      <trkpt lat="43.70538" lon="3.55535">
        <ele>80.72</ele>
        <time>2024-08-27T10:05:30.118Z</time>
      </trkpt>
      <trkpt lat="43.70525" lon="3.55527">
        <ele>81.86</ele>
        <time>2024-08-27T10:05:34.615Z</time>
      </trkpt>
      <trkpt lat="43.70476" lon="3.5548">
        <ele>83.26</ele>
        <time>2024-08-27T10:05:39.122Z</time>
      </trkpt>
      <trkpt lat="43.70453" lon="3.55458">
        <ele>87.51</ele>
        <time>2024-08-27T10:05:43.634Z</time>
      </trkpt>
      <trkpt lat="43.70453" lon="3.55458">
        <ele>88.74</ele>
        <time>2024-08-27T10:05:48.146Z</time>
      </trkpt>
      <trkpt lat="43.70382" lon="3.5538">
        <ele>90.74</ele>
        <time>2024-08-27T10:05:52.672Z</time>
      </trkpt>
      <trkpt lat="43.70347" lon="3.55345">
        <ele>92.19</ele>
        <time>2024-08-27T10:05:57.205Z</time>
      </trkpt>
      <trkpt lat="43.70303" lon="3.55314">
        <ele>93.54</ele>
        <time>2024-08-27T10:06:01.746Z</time>
      </trkpt>
      <trkpt lat="43.7024" lon="3.55268">
        <ele>95.78</ele>
        <time>2024-08-27T10:06:06.298Z</time>
      </trkpt>
      <trkpt lat="43.70232" lon="3.5526">
        <ele>97.4</ele>
        <time>2024-08-27T10:06:10.852Z</time>
      </trkpt>
      <trkpt lat="43.7023" lon="3.55246">
        <ele>98.73</ele>
        <time>2024-08-27T10:06:15.408Z</time>
      </trkpt>
      <trkpt lat="43.70225" lon="3.55208">
        <ele>99.98</ele>
        <time>2024-08-27T10:06:19.968Z</time>
      </trkpt>
      <trkpt lat="43.70214" lon="3.55179">
        <ele>101.33</ele>
        <time>2024-08-27T10:06:24.532Z</time>
      </trkpt>
      <trkpt lat="43.70209" lon="3.55164">
        <ele>102.5</ele>
        <time>2024-08-27T10:06:29.098Z</time>
      </trkpt>
      <trkpt lat="43.70191" lon="3.55121">
        <ele>103.48</ele>
        <time>2024-08-27T10:06:33.670Z</time>
      </trkpt>
      <trkpt lat="43.70152" lon="3.55035">
        <ele>104.46</ele>
        <time>2024-08-27T10:06:38.253Z</time>
      </trkpt>
      <trkpt lat="43.70147" lon="3.55023">
        <ele>105.18</ele>
        <time>2024-08-27T10:06:42.838Z</time>
      </trkpt>
      <trkpt lat="43.70142" lon="3.54999">
        <ele>105.75</ele>
        <time>2024-08-27T10:06:47.426Z</time>
      </trkpt>
      <trkpt lat="43.70142" lon="3.54994">
        <ele>106.2</ele>
        <time>2024-08-27T10:06:52.014Z</time>
      </trkpt>
      <trkpt lat="43.70136" lon="3.54931">
        <ele>106.5</ele>
        <time>2024-08-27T10:06:56.610Z</time>
      </trkpt>
      <trkpt lat="43.70134" lon="3.5492">
        <ele>106.84</ele>
        <time>2024-08-27T10:07:01.207Z</time>
      </trkpt>
      <trkpt lat="43.70126" lon="3.54901">
        <ele>107.24</ele>
        <time>2024-08-27T10:07:05.807Z</time>
      </trkpt>
      <trkpt lat="43.7012" lon="3.54895">
        <ele>107.62</ele>
        <time>2024-08-27T10:07:10.408Z</time>
      </trkpt>
      <trkpt lat="43.70119" lon="3.54878">
        <ele>108.05</ele>
        <time>2024-08-27T10:07:15.011Z</time>
      </trkpt>
      <trkpt lat="43.70021" lon="3.54661">
        <ele>108.57</ele>
        <time>2024-08-27T10:07:19.643Z</time>
      </trkpt>
      <trkpt lat="43.70021" lon="3.54661">
        <ele>109</ele>
        <time>2024-08-27T10:07:24.275Z</time>
      </trkpt>
      <trkpt lat="43.70015" lon="3.54648">
        <ele>109.47</ele>
        <time>2024-08-27T10:07:28.909Z</time>
      </trkpt>
      <trkpt lat="43.69985" lon="3.54585">
        <ele>110.17</ele>
        <time>2024-08-27T10:07:33.552Z</time>
      </trkpt>
      <trkpt lat="43.69971" lon="3.54556">
        <ele>110.73</ele>
        <time>2024-08-27T10:07:38.199Z</time>
      </trkpt>
      <trkpt lat="43.69969" lon="3.5455">
        <ele>111.15</ele>
        <time>2024-08-27T10:07:42.847Z</time>
      </trkpt>
      <trkpt lat="43.6995" lon="3.54511">
        <ele>111.58</ele>
        <time>2024-08-27T10:07:47.500Z</time>
      </trkpt>
      <trkpt lat="43.69933" lon="3.54479">
        <ele>111.9</ele>
        <time>2024-08-27T10:07:52.158Z</time>
      </trkpt>
      <trkpt lat="43.699" lon="3.54425">
        <ele>112.25</ele>
        <time>2024-08-27T10:07:56.824Z</time>
      </trkpt>
      <trkpt lat="43.69875" lon="3.54381">
        <ele>112.41</ele>
        <time>2024-08-27T10:08:01.497Z</time>
      </trkpt>
      <trkpt lat="43.69872" lon="3.54372">
        <ele>112.57</ele>
        <time>2024-08-27T10:08:06.171Z</time>
      </trkpt>
      <trkpt lat="43.69868" lon="3.54363">
        <ele>112.71</ele>
        <time>2024-08-27T10:08:10.846Z</time>
      </trkpt>
      <trkpt lat="43.69861" lon="3.54347">
        <ele>112.82</ele>
        <time>2024-08-27T10:08:15.523Z</time>
      </trkpt>
      <trkpt lat="43.69857" lon="3.54336">
        <ele>112.99</ele>
        <time>2024-08-27T10:08:20.201Z</time>
      </trkpt>
      <trkpt lat="43.69844" lon="3.54303">
        <ele>113.15</ele>
        <time>2024-08-27T10:08:24.884Z</time>
      </trkpt>
      <trkpt lat="43.6983" lon="3.54264">
        <ele>113.53</ele>
        <time>2024-08-27T10:08:29.572Z</time>
      </trkpt>
      <trkpt lat="43.69829" lon="3.54261">
        <ele>113.97</ele>
        <time>2024-08-27T10:08:34.260Z</time>
      </trkpt>
      <trkpt lat="43.69812" lon="3.54224">
        <ele>114.57</ele>
        <time>2024-08-27T10:08:38.953Z</time>
      </trkpt>
      <trkpt lat="43.69756" lon="3.54115">
        <ele>115.56</ele>
        <time>2024-08-27T10:08:43.662Z</time>
      </trkpt>
      <trkpt lat="43.69698" lon="3.54001">
        <ele>116.22</ele>
        <time>2024-08-27T10:08:48.387Z</time>
      </trkpt>
      <trkpt lat="43.69681" lon="3.53952">
        <ele>116.66</ele>
        <time>2024-08-27T10:08:53.118Z</time>
      </trkpt>
      <trkpt lat="43.69668" lon="3.5391">
        <ele>117.1</ele>
        <time>2024-08-27T10:08:57.855Z</time>
      </trkpt>
      <trkpt lat="43.69666" lon="3.53906">
        <ele>117.51</ele>
        <time>2024-08-27T10:09:02.592Z</time>
      </trkpt>
      <trkpt lat="43.69619" lon="3.53752">
        <ele>117.98</ele>
        <time>2024-08-27T10:09:07.349Z</time>
      </trkpt>
      <trkpt lat="43.6961" lon="3.53707">
        <ele>118.29</ele>
        <time>2024-08-27T10:09:12.111Z</time>
      </trkpt>
      <trkpt lat="43.69583" lon="3.53518">
        <ele>118.36</ele>
        <time>2024-08-27T10:09:16.895Z</time>
      </trkpt>
      <trkpt lat="43.69575" lon="3.53492">
        <ele>119.07</ele>
        <time>2024-08-27T10:09:21.683Z</time>
      </trkpt>
      <trkpt lat="43.69532" lon="3.53391">
        <ele>120.31</ele>
        <time>2024-08-27T10:09:26.484Z</time>
      </trkpt>
      <trkpt lat="43.69513" lon="3.53315">
        <ele>121.15</ele>
        <time>2024-08-27T10:09:31.295Z</time>
      </trkpt>
      <trkpt lat="43.69491" lon="3.53223">
        <ele>121.85</ele>
        <time>2024-08-27T10:09:36.117Z</time>
      </trkpt>
      <trkpt lat="43.69485" lon="3.53183">
        <ele>122.32</ele>
        <time>2024-08-27T10:09:40.944Z</time>
      </trkpt>
      <trkpt lat="43.69485" lon="3.53149">
        <ele>122.63</ele>
        <time>2024-08-27T10:09:45.774Z</time>
      </trkpt>
      <trkpt lat="43.69484" lon="3.53115">
        <ele>122.64</ele>
        <time>2024-08-27T10:09:50.608Z</time>
      </trkpt>
      <trkpt lat="43.69484" lon="3.53115">
        <ele>122.32</ele>
        <time>2024-08-27T10:09:55.442Z</time>
      </trkpt>
      <trkpt lat="43.69484" lon="3.53048">
        <ele>121.48</ele>
        <time>2024-08-27T10:10:00.284Z</time>
      </trkpt>
      <trkpt lat="43.6948" lon="3.52942">
        <ele>120.44</ele>
        <time>2024-08-27T10:10:05.139Z</time>
      </trkpt>
      <trkpt lat="43.69478" lon="3.52899">
        <ele>119.11</ele>
        <time>2024-08-27T10:10:09.999Z</time>
      </trkpt>
      <trkpt lat="43.69448" lon="3.52682">
        <ele>116.88</ele>
        <time>2024-08-27T10:10:14.884Z</time>
      </trkpt>
      <trkpt lat="43.69443" lon="3.52644">
        <ele>116.28</ele>
        <time>2024-08-27T10:10:19.774Z</time>
      </trkpt>
      <trkpt lat="43.69428" lon="3.52527">
        <ele>107.98</ele>
        <time>2024-08-27T10:10:24.678Z</time>
      </trkpt>
      <trkpt lat="43.69427" lon="3.525">
        <ele>106.6</ele>
        <time>2024-08-27T10:10:29.585Z</time>
      </trkpt>
      <trkpt lat="43.69427" lon="3.525">
        <ele>105.76</ele>
        <time>2024-08-27T10:10:34.492Z</time>
      </trkpt>
      <trkpt lat="43.69432" lon="3.52471">
        <ele>104.98</ele>
        <time>2024-08-27T10:10:39.402Z</time>
      </trkpt>
      <trkpt lat="43.69438" lon="3.52449">
        <ele>104.51</ele>
        <time>2024-08-27T10:10:44.315Z</time>
      </trkpt>
      <trkpt lat="43.6944" lon="3.52427">
        <ele>104.15</ele>
        <time>2024-08-27T10:10:49.230Z</time>
      </trkpt>
      <trkpt lat="43.69438" lon="3.52407">
        <ele>103.99</ele>
        <time>2024-08-27T10:10:54.148Z</time>
      </trkpt>
      <trkpt lat="43.69427" lon="3.52369">
        <ele>104.03</ele>
        <time>2024-08-27T10:10:59.070Z</time>
      </trkpt>
      <trkpt lat="43.69394" lon="3.52259">
        <ele>105.29</ele>
        <time>2024-08-27T10:11:04.006Z</time>
      </trkpt>
      <trkpt lat="43.69394" lon="3.52259">
        <ele>106.52</ele>
        <time>2024-08-27T10:11:08.942Z</time>
      </trkpt>
      <trkpt lat="43.69302" lon="3.51954">
        <ele>108.83</ele>
        <time>2024-08-27T10:11:13.917Z</time>
      </trkpt>
      <trkpt lat="43.69287" lon="3.51878">
        <ele>110.75</ele>
        <time>2024-08-27T10:11:18.901Z</time>
      </trkpt>
      <trkpt lat="43.69287" lon="3.51878">
        <ele>112.79</ele>
        <time>2024-08-27T10:11:23.885Z</time>
      </trkpt>
      <trkpt lat="43.69261" lon="3.51742">
        <ele>115.64</ele>
        <time>2024-08-27T10:11:28.885Z</time>
      </trkpt>
      <trkpt lat="43.6924" lon="3.51566">
        <ele>118.55</ele>
        <time>2024-08-27T10:11:33.906Z</time>
      </trkpt>
      <trkpt lat="43.6924" lon="3.51566">
        <ele>120.69</ele>
        <time>2024-08-27T10:11:38.927Z</time>
      </trkpt>
      <trkpt lat="43.69236" lon="3.51466">
        <ele>123.36</ele>
        <time>2024-08-27T10:11:43.959Z</time>
      </trkpt>
      <trkpt lat="43.69238" lon="3.51414">
        <ele>125.23</ele>
        <time>2024-08-27T10:11:48.997Z</time>
      </trkpt>
      <trkpt lat="43.69247" lon="3.51368">
        <ele>126.95</ele>
        <time>2024-08-27T10:11:54.041Z</time>
      </trkpt>
      <trkpt lat="43.69259" lon="3.51323">
        <ele>128.68</ele>
        <time>2024-08-27T10:11:59.091Z</time>
      </trkpt>
      <trkpt lat="43.693" lon="3.51223">
        <ele>130.34</ele>
        <time>2024-08-27T10:12:04.154Z</time>
      </trkpt>
      <trkpt lat="43.69325" lon="3.51152">
        <ele>132.02</ele>
        <time>2024-08-27T10:12:09.226Z</time>
      </trkpt>
      <trkpt lat="43.69337" lon="3.51118">
        <ele>134.16</ele>
        <time>2024-08-27T10:12:14.302Z</time>
      </trkpt>
      <trkpt lat="43.69344" lon="3.51075">
        <ele>136.49</ele>
        <time>2024-08-27T10:12:19.384Z</time>
      </trkpt>
      <trkpt lat="43.69361" lon="3.50942">
        <ele>139.43</ele>
        <time>2024-08-27T10:12:24.481Z</time>
      </trkpt>
      <trkpt lat="43.69369" lon="3.50797">
        <ele>142.6</ele>
      </trkpt>
      <trkpt lat="43.69365" lon="3.50779">
        <ele>143.1</ele>
      </trkpt>
      <trkpt lat="43.69384" lon="3.50678">
        <ele>142.8</ele>
      </trkpt>
      <trkpt lat="43.69351" lon="3.50451">
        <ele>145</ele>
      </trkpt>
      <trkpt lat="43.69338" lon="3.50427">
        <ele>145.6</ele>
      </trkpt>
      <trkpt lat="43.69288" lon="3.50312">
        <ele>145</ele>
      </trkpt>
      <trkpt lat="43.69161" lon="3.50125">
        <ele>140.3</ele>
      </trkpt>
      <trkpt lat="43.69083" lon="3.49977">
        <ele>136</ele>
      </trkpt>
      <trkpt lat="43.69006" lon="3.49799">
        <ele>134.4</ele>
      </trkpt>
      <trkpt lat="43.68824" lon="3.49713">
        <ele>132.2</ele>
      </trkpt>
      <trkpt lat="43.68641" lon="3.49591">
        <ele>125.1</ele>
      </trkpt>
      <trkpt lat="43.68632" lon="3.49492">
        <ele>118.7</ele>
      </trkpt>
      <trkpt lat="43.68611" lon="3.49453">
        <ele>113.7</ele>
      </trkpt>
      <trkpt lat="43.68493" lon="3.49385">
        <ele>112.1</ele>
      </trkpt>
      <trkpt lat="43.68456" lon="3.49331">
        <ele>115.3</ele>
      </trkpt>
      <trkpt lat="43.68338" lon="3.49294">
        <ele>121</ele>
      </trkpt>
      <trkpt lat="43.68303" lon="3.49249">
        <ele>125</ele>
      </trkpt>
      <trkpt lat="43.68261" lon="3.49166">
        <ele>126</ele>
      </trkpt>
      <trkpt lat="43.68211" lon="3.4911">
        <ele>125.6</ele>
      </trkpt>
      <trkpt lat="43.67986" lon="3.48649">
        <ele>122.5</ele>
      </trkpt>
      <trkpt lat="43.6786" lon="3.48378">
        <ele>120</ele>
      </trkpt>
      <trkpt lat="43.67837" lon="3.48241">
        <ele>119.1</ele>
      </trkpt>
      <trkpt lat="43.67835" lon="3.48127">
        <ele>119</ele>
      </trkpt>
      <trkpt lat="43.67761" lon="3.47859">
        <ele>117.4</ele>
      </trkpt>
      <trkpt lat="43.67725" lon="3.47694">
        <ele>116.1</ele>
      </trkpt>
      <trkpt lat="43.67702" lon="3.47664">
        <ele>116.2</ele>
      </trkpt>
      <trkpt lat="43.677" lon="3.47651">
        <ele>116.1</ele>
      </trkpt>
      <trkpt lat="43.67618" lon="3.47554">
        <ele>114.5</ele>
      </trkpt>
      <trkpt lat="43.67564" lon="3.47525">
        <ele>113</ele>
      </trkpt>
      <trkpt lat="43.67571" lon="3.47478">
        <ele>113.5</ele>
      </trkpt>
      <trkpt lat="43.6755" lon="3.47444">
        <ele>113</ele>
      </trkpt>
      <trkpt lat="43.67547" lon="3.47435">
        <ele>112.9</ele>
      </trkpt>
      <trkpt lat="43.67636" lon="3.47258">
        <ele>114</ele>
      </trkpt>
      <trkpt lat="43.6765" lon="3.47222">
        <ele>115</ele>
      </trkpt>
      <trkpt lat="43.67687" lon="3.47071">
        <ele>114.4</ele>
      </trkpt>
      <trkpt lat="43.6771" lon="3.46985">
        <ele>114.3</ele>
      </trkpt>
      <trkpt lat="43.67704" lon="3.46883">
        <ele>113.3</ele>
      </trkpt>
      <trkpt lat="43.67682" lon="3.4682">
        <ele>112</ele>
      </trkpt>
      <trkpt lat="43.67606" lon="3.4671">
        <ele>108.6</ele>
      </trkpt>
      <trkpt lat="43.67522" lon="3.4658">
        <ele>104.7</ele>
      </trkpt>
      <trkpt lat="43.67391" lon="3.46325">
        <ele>101.4</ele>
      </trkpt>
      <trkpt lat="43.67244" lon="3.46029">
        <ele>113.2</ele>
      </trkpt>
      <trkpt lat="43.67189" lon="3.45903">
        <ele>118.2</ele>
      </trkpt>
      <trkpt lat="43.67141" lon="3.45679">
        <ele>125.4</ele>
      </trkpt>
      <trkpt lat="43.67124" lon="3.45538">
        <ele>129.3</ele>
      </trkpt>
      <trkpt lat="43.6711" lon="3.45529">
        <ele>128.9</ele>
      </trkpt>
      <trkpt lat="43.67098" lon="3.45492">
        <ele>127.8</ele>
      </trkpt>
      <trkpt lat="43.6711" lon="3.454">
        <ele>125.2</ele>
      </trkpt>
      <trkpt lat="43.67117" lon="3.45375">
        <ele>124.7</ele>
      </trkpt>
      <trkpt lat="43.67123" lon="3.45356">
        <ele>125.3</ele>
        <time>2024-08-27T10:34:25.235Z</time>
      </trkpt>
      <trkpt lat="43.67126" lon="3.45333">
        <ele>122.41</ele>
        <time>2024-08-27T10:34:31.577Z</time>
      </trkpt>
      <trkpt lat="43.67115" lon="3.45293">
        <ele>119.28</ele>
        <time>2024-08-27T10:34:37.924Z</time>
      </trkpt>
      <trkpt lat="43.67093" lon="3.45244">
        <ele>116.72</ele>
        <time>2024-08-27T10:34:44.277Z</time>
      </trkpt>
      <trkpt lat="43.67051" lon="3.4519">
        <ele>114.4</ele>
        <time>2024-08-27T10:34:50.639Z</time>
      </trkpt>
      <trkpt lat="43.67042" lon="3.4517">
        <ele>112.58</ele>
        <time>2024-08-27T10:34:57.004Z</time>
      </trkpt>
      <trkpt lat="43.67026" lon="3.45134">
        <ele>110.94</ele>
        <time>2024-08-27T10:35:03.374Z</time>
      </trkpt>
      <trkpt lat="43.67026" lon="3.45134">
        <ele>111.54</ele>
        <time>2024-08-27T10:35:09.744Z</time>
      </trkpt>
      <trkpt lat="43.66971" lon="3.45005">
        <ele>110.66</ele>
        <time>2024-08-27T10:35:16.131Z</time>
      </trkpt>
      <trkpt lat="43.66892" lon="3.44849">
        <ele>110.34</ele>
        <time>2024-08-27T10:35:22.541Z</time>
      </trkpt>
      <trkpt lat="43.66849" lon="3.44766">
        <ele>109.59</ele>
        <time>2024-08-27T10:35:28.962Z</time>
      </trkpt>
      <trkpt lat="43.66833" lon="3.4473">
        <ele>108.54</ele>
        <time>2024-08-27T10:35:35.388Z</time>
      </trkpt>
      <trkpt lat="43.66811" lon="3.44693">
        <ele>107.42</ele>
        <time>2024-08-27T10:35:41.820Z</time>
      </trkpt>
      <trkpt lat="43.66779" lon="3.4464">
        <ele>105.31</ele>
        <time>2024-08-27T10:35:48.260Z</time>
      </trkpt>
      <trkpt lat="43.66769" lon="3.44624">
        <ele>103.21</ele>
        <time>2024-08-27T10:35:54.702Z</time>
      </trkpt>
      <trkpt lat="43.66696" lon="3.44532">
        <ele>100.08</ele>
        <time>2024-08-27T10:36:01.160Z</time>
      </trkpt>
      <trkpt lat="43.66586" lon="3.4441">
        <ele>97.21</ele>
        <time>2024-08-27T10:36:07.641Z</time>
      </trkpt>
      <trkpt lat="43.66528" lon="3.44344">
        <ele>94.99</ele>
        <time>2024-08-27T10:36:14.134Z</time>
      </trkpt>
      <trkpt lat="43.66462" lon="3.44267">
        <ele>92.9</ele>
        <time>2024-08-27T10:36:20.641Z</time>
      </trkpt>
      <trkpt lat="43.66438" lon="3.4424">
        <ele>91.58</ele>
        <time>2024-08-27T10:36:27.153Z</time>
      </trkpt>
      <trkpt lat="43.66408" lon="3.44235">
        <ele>90.56</ele>
        <time>2024-08-27T10:36:33.669Z</time>
      </trkpt>
      <trkpt lat="43.66391" lon="3.44234">
        <ele>89.73</ele>
        <time>2024-08-27T10:36:40.188Z</time>
      </trkpt>
      <trkpt lat="43.66336" lon="3.44252">
        <ele>89.1</ele>
        <time>2024-08-27T10:36:46.716Z</time>
      </trkpt>
      <trkpt lat="43.66297" lon="3.4426">
        <ele>88.7</ele>
        <time>2024-08-27T10:36:53.250Z</time>
      </trkpt>
      <trkpt lat="43.66272" lon="3.44264">
        <ele>88.33</ele>
        <time>2024-08-27T10:36:59.789Z</time>
      </trkpt>
      <trkpt lat="43.66269" lon="3.44047">
        <ele>88.88</ele>
        <time>2024-08-27T10:37:06.353Z</time>
      </trkpt>
      <trkpt lat="43.6627" lon="3.44027">
        <ele>89.08</ele>
        <time>2024-08-27T10:37:12.919Z</time>
      </trkpt>
      <trkpt lat="43.66268" lon="3.43873">
        <ele>88.88</ele>
        <time>2024-08-27T10:37:19.503Z</time>
      </trkpt>
      <trkpt lat="43.6627" lon="3.43858">
        <ele>89.15</ele>
        <time>2024-08-27T10:37:26.089Z</time>
      </trkpt>
      <trkpt lat="43.66274" lon="3.43846">
        <ele>89.34</ele>
        <time>2024-08-27T10:37:32.676Z</time>
      </trkpt>
      <trkpt lat="43.66282" lon="3.43826">
        <ele>89.59</ele>
        <time>2024-08-27T10:37:39.266Z</time>
      </trkpt>
      <trkpt lat="43.66308" lon="3.43781">
        <ele>89.66</ele>
        <time>2024-08-27T10:37:45.863Z</time>
      </trkpt>
      <trkpt lat="43.66318" lon="3.43767">
        <ele>89.49</ele>
        <time>2024-08-27T10:37:52.462Z</time>
      </trkpt>
      <trkpt lat="43.66326" lon="3.43758">
        <ele>89.23</ele>
        <time>2024-08-27T10:37:59.063Z</time>
      </trkpt>
      <trkpt lat="43.66348" lon="3.43751">
        <ele>88.82</ele>
        <time>2024-08-27T10:38:05.667Z</time>
      </trkpt>
      <trkpt lat="43.66361" lon="3.43751">
        <ele>88.37</ele>
        <time>2024-08-27T10:38:12.273Z</time>
      </trkpt>
      <trkpt lat="43.6638" lon="3.43754">
        <ele>87.93</ele>
        <time>2024-08-27T10:38:18.882Z</time>
      </trkpt>
      <trkpt lat="43.66407" lon="3.43762">
        <ele>87.49</ele>
        <time>2024-08-27T10:38:25.496Z</time>
      </trkpt>
      <trkpt lat="43.665" lon="3.43796">
        <ele>87.15</ele>
        <time>2024-08-27T10:38:32.125Z</time>
      </trkpt>
      <trkpt lat="43.66518" lon="3.43801">
        <ele>87.12</ele>
        <time>2024-08-27T10:38:38.757Z</time>
      </trkpt>
      <trkpt lat="43.66545" lon="3.43812">
        <ele>87.09</ele>
        <time>2024-08-27T10:38:45.394Z</time>
      </trkpt>
      <trkpt lat="43.66588" lon="3.43823">
        <ele>85.93</ele>
        <time>2024-08-27T10:38:52.038Z</time>
      </trkpt>
      <trkpt lat="43.66603" lon="3.43827">
        <ele>83.03</ele>
        <time>2024-08-27T10:38:58.684Z</time>
      </trkpt>
      <trkpt lat="43.66608" lon="3.43827">
        <ele>81.89</ele>
        <time>2024-08-27T10:39:05.331Z</time>
      </trkpt>
      <trkpt lat="43.6662" lon="3.43823">
        <ele>80.43</ele>
        <time>2024-08-27T10:39:11.980Z</time>
      </trkpt>
      <trkpt lat="43.66643" lon="3.43796">
        <ele>78.57</ele>
        <time>2024-08-27T10:39:18.634Z</time>
      </trkpt>
      <trkpt lat="43.66655" lon="3.43779">
        <ele>77.03</ele>
        <time>2024-08-27T10:39:25.290Z</time>
      </trkpt>
      <trkpt lat="43.66668" lon="3.43754">
        <ele>75.57</ele>
        <time>2024-08-27T10:39:31.950Z</time>
      </trkpt>
      <trkpt lat="43.66674" lon="3.43733">
        <ele>73.97</ele>
        <time>2024-08-27T10:39:38.613Z</time>
      </trkpt>
      <trkpt lat="43.66689" lon="3.43674">
        <ele>72.33</ele>
        <time>2024-08-27T10:39:45.283Z</time>
      </trkpt>
      <trkpt lat="43.66755" lon="3.43438">
        <ele>69.6</ele>
        <time>2024-08-27T10:39:51.982Z</time>
      </trkpt>
      <trkpt lat="43.66755" lon="3.43414">
        <ele>68.09</ele>
        <time>2024-08-27T10:39:58.684Z</time>
      </trkpt>
      <trkpt lat="43.66739" lon="3.43346">
        <ele>67.52</ele>
        <time>2024-08-27T10:40:05.394Z</time>
      </trkpt>
      <trkpt lat="43.66733" lon="3.4332">
        <ele>66.96</ele>
        <time>2024-08-27T10:40:12.108Z</time>
      </trkpt>
      <trkpt lat="43.66724" lon="3.43238">
        <ele>66.61</ele>
        <time>2024-08-27T10:40:18.831Z</time>
      </trkpt>
      <trkpt lat="43.66718" lon="3.43213">
        <ele>66.35</ele>
        <time>2024-08-27T10:40:25.557Z</time>
      </trkpt>
      <trkpt lat="43.66702" lon="3.43189">
        <ele>66.18</ele>
        <time>2024-08-27T10:40:32.287Z</time>
      </trkpt>
      <trkpt lat="43.66692" lon="3.43167">
        <ele>66.36</ele>
        <time>2024-08-27T10:40:39.020Z</time>
      </trkpt>
      <trkpt lat="43.66689" lon="3.43144">
        <ele>66.75</ele>
        <time>2024-08-27T10:40:45.756Z</time>
      </trkpt>
      <trkpt lat="43.66687" lon="3.43119">
        <ele>67.29</ele>
        <time>2024-08-27T10:40:52.495Z</time>
      </trkpt>
      <trkpt lat="43.66691" lon="3.43096">
        <ele>68.1</ele>
        <time>2024-08-27T10:40:59.236Z</time>
      </trkpt>
      <trkpt lat="43.66701" lon="3.43076">
        <ele>69.2</ele>
        <time>2024-08-27T10:41:05.980Z</time>
      </trkpt>
      <trkpt lat="43.6672" lon="3.43056">
        <ele>70.75</ele>
        <time>2024-08-27T10:41:12.728Z</time>
      </trkpt>
      <trkpt lat="43.6674" lon="3.4304">
        <ele>72.24</ele>
        <time>2024-08-27T10:41:19.480Z</time>
      </trkpt>
      <trkpt lat="43.66755" lon="3.43023">
        <ele>73.72</ele>
        <time>2024-08-27T10:41:26.235Z</time>
      </trkpt>
      <trkpt lat="43.668" lon="3.42967">
        <ele>75.13</ele>
        <time>2024-08-27T10:41:33.000Z</time>
      </trkpt>
      <trkpt lat="43.66858" lon="3.42899">
        <ele>76.44</ele>
        <time>2024-08-27T10:41:39.777Z</time>
      </trkpt>
      <trkpt lat="43.66918" lon="3.42837">
        <ele>77.19</ele>
        <time>2024-08-27T10:41:46.566Z</time>
      </trkpt>
      <trkpt lat="43.67101" lon="3.42666">
        <ele>77.73</ele>
        <time>2024-08-27T10:41:53.390Z</time>
      </trkpt>
      <trkpt lat="43.67124" lon="3.4264">
        <ele>78.46</ele>
        <time>2024-08-27T10:42:00.219Z</time>
      </trkpt>
      <trkpt lat="43.67145" lon="3.42613">
        <ele>78.85</ele>
        <time>2024-08-27T10:42:07.052Z</time>
      </trkpt>
      <trkpt lat="43.67166" lon="3.42575">
        <ele>78.99</ele>
        <time>2024-08-27T10:42:13.891Z</time>
      </trkpt>
      <trkpt lat="43.67192" lon="3.42525">
        <ele>78.84</ele>
        <time>2024-08-27T10:42:20.737Z</time>
      </trkpt>
      <trkpt lat="43.67192" lon="3.42525">
        <ele>78.61</ele>
        <time>2024-08-27T10:42:27.583Z</time>
      </trkpt>
      <trkpt lat="43.67252" lon="3.42393">
        <ele>77.99</ele>
        <time>2024-08-27T10:42:34.447Z</time>
      </trkpt>
      <trkpt lat="43.67255" lon="3.42371">
        <ele>77.55</ele>
        <time>2024-08-27T10:42:41.314Z</time>
      </trkpt>
      <trkpt lat="43.67257" lon="3.42352">
        <ele>77.13</ele>
        <time>2024-08-27T10:42:48.183Z</time>
      </trkpt>
      <trkpt lat="43.67258" lon="3.42348">
        <ele>76.79</ele>
        <time>2024-08-27T10:42:55.052Z</time>
      </trkpt>
      <trkpt lat="43.67259" lon="3.42329">
        <ele>74.83</ele>
        <time>2024-08-27T10:43:01.924Z</time>
      </trkpt>
      <trkpt lat="43.67257" lon="3.42243">
        <ele>76.01</ele>
        <time>2024-08-27T10:43:08.806Z</time>
      </trkpt>
      <trkpt lat="43.6726" lon="3.42233">
        <ele>77.18</ele>
        <time>2024-08-27T10:43:15.689Z</time>
      </trkpt>
      <trkpt lat="43.67267" lon="3.42221">
        <ele>78.4</ele>
        <time>2024-08-27T10:43:22.574Z</time>
      </trkpt>
      <trkpt lat="43.67279" lon="3.42208">
        <ele>79.68</ele>
        <time>2024-08-27T10:43:29.461Z</time>
      </trkpt>
      <trkpt lat="43.67337" lon="3.4217">
        <ele>81.74</ele>
        <time>2024-08-27T10:43:36.358Z</time>
      </trkpt>
      <trkpt lat="43.67444" lon="3.42099">
        <ele>84.11</ele>
        <time>2024-08-27T10:43:43.275Z</time>
      </trkpt>
      <trkpt lat="43.67471" lon="3.4207">
        <ele>85.61</ele>
        <time>2024-08-27T10:43:50.197Z</time>
      </trkpt>
      <trkpt lat="43.67509" lon="3.42018">
        <ele>86.98</ele>
        <time>2024-08-27T10:43:57.127Z</time>
      </trkpt>
      <trkpt lat="43.67509" lon="3.42018">
        <ele>87.76</ele>
        <time>2024-08-27T10:44:04.057Z</time>
      </trkpt>
      <trkpt lat="43.67509" lon="3.42018">
        <ele>89.48</ele>
        <time>2024-08-27T10:44:10.987Z</time>
      </trkpt>
      <trkpt lat="43.67514" lon="3.4201">
        <ele>89.85</ele>
        <time>2024-08-27T10:44:17.919Z</time>
      </trkpt>
      <trkpt lat="43.67575" lon="3.41908">
        <ele>90.75</ele>
        <time>2024-08-27T10:44:24.866Z</time>
      </trkpt>
      <trkpt lat="43.67598" lon="3.41865">
        <ele>91.75</ele>
        <time>2024-08-27T10:44:31.819Z</time>
      </trkpt>
      <trkpt lat="43.67613" lon="3.41817">
        <ele>92.52</ele>
        <time>2024-08-27T10:44:38.778Z</time>
      </trkpt>
      <trkpt lat="43.67632" lon="3.41731">
        <ele>93.29</ele>
        <time>2024-08-27T10:44:45.748Z</time>
      </trkpt>
      <trkpt lat="43.67652" lon="3.41612">
        <ele>92.3</ele>
        <time>2024-08-27T10:44:52.732Z</time>
      </trkpt>
      <trkpt lat="43.67668" lon="3.41474">
        <ele>92.03</ele>
        <time>2024-08-27T10:44:59.732Z</time>
      </trkpt>
      <trkpt lat="43.67708" lon="3.41232">
        <ele>92.19</ele>
        <time>2024-08-27T10:45:06.761Z</time>
      </trkpt>
      <trkpt lat="43.67708" lon="3.41232">
        <ele>92.24</ele>
        <time>2024-08-27T10:45:13.790Z</time>
      </trkpt>
      <trkpt lat="43.6775" lon="3.40952">
        <ele>92.69</ele>
        <time>2024-08-27T10:45:20.852Z</time>
      </trkpt>
      <trkpt lat="43.6775" lon="3.40925">
        <ele>92.89</ele>
        <time>2024-08-27T10:45:27.917Z</time>
      </trkpt>
      <trkpt lat="43.67747" lon="3.40898">
        <ele>93.21</ele>
        <time>2024-08-27T10:45:34.986Z</time>
      </trkpt>
      <trkpt lat="43.67742" lon="3.40876">
        <ele>93.53</ele>
        <time>2024-08-27T10:45:42.057Z</time>
      </trkpt>
      <trkpt lat="43.67733" lon="3.40858">
        <ele>93.68</ele>
        <time>2024-08-27T10:45:49.131Z</time>
      </trkpt>
      <trkpt lat="43.67713" lon="3.40841">
        <ele>93.6</ele>
        <time>2024-08-27T10:45:56.208Z</time>
      </trkpt>
      <trkpt lat="43.67679" lon="3.40822">
        <ele>93.14</ele>
        <time>2024-08-27T10:46:03.291Z</time>
      </trkpt>
      <trkpt lat="43.67679" lon="3.40822">
        <ele>92.94</ele>
        <time>2024-08-27T10:46:10.374Z</time>
      </trkpt>
      <trkpt lat="43.67673" lon="3.40815">
        <ele>92.6</ele>
        <time>2024-08-27T10:46:17.459Z</time>
      </trkpt>
      <trkpt lat="43.67669" lon="3.40811">
        <ele>92.32</ele>
        <time>2024-08-27T10:46:24.544Z</time>
      </trkpt>
      <trkpt lat="43.67666" lon="3.40798">
        <ele>92.05</ele>
        <time>2024-08-27T10:46:31.631Z</time>
      </trkpt>
      <trkpt lat="43.67667" lon="3.40789">
        <ele>91.81</ele>
        <time>2024-08-27T10:46:38.719Z</time>
      </trkpt>
      <trkpt lat="43.67675" lon="3.40774">
        <ele>91.6</ele>
        <time>2024-08-27T10:46:45.809Z</time>
      </trkpt>
      <trkpt lat="43.67681" lon="3.40769">
        <ele>91.39</ele>
        <time>2024-08-27T10:46:52.900Z</time>
      </trkpt>
      <trkpt lat="43.67686" lon="3.40763">
        <ele>91.18</ele>
        <time>2024-08-27T10:46:59.992Z</time>
      </trkpt>
      <trkpt lat="43.6769" lon="3.40748">
        <ele>91</ele>
        <time>2024-08-27T10:47:07.086Z</time>
      </trkpt>
      <trkpt lat="43.6769" lon="3.40738">
        <ele>90.78</ele>
        <time>2024-08-27T10:47:14.181Z</time>
      </trkpt>
      <trkpt lat="43.67688" lon="3.40731">
        <ele>90.53</ele>
        <time>2024-08-27T10:47:21.277Z</time>
      </trkpt>
      <trkpt lat="43.67683" lon="3.40723">
        <ele>90.27</ele>
        <time>2024-08-27T10:47:28.374Z</time>
      </trkpt>
      <trkpt lat="43.67675" lon="3.40717">
        <ele>90.04</ele>
        <time>2024-08-27T10:47:35.473Z</time>
      </trkpt>
      <trkpt lat="43.67668" lon="3.40715">
        <ele>89.87</ele>
        <time>2024-08-27T10:47:42.573Z</time>
      </trkpt>
      <trkpt lat="43.67657" lon="3.4072">
        <ele>89.72</ele>
        <time>2024-08-27T10:47:49.675Z</time>
      </trkpt>
      <trkpt lat="43.67651" lon="3.40727">
        <ele>89.68</ele>
        <time>2024-08-27T10:47:56.778Z</time>
      </trkpt>
      <trkpt lat="43.67634" lon="3.40745">
        <ele>89.79</ele>
        <time>2024-08-27T10:48:03.885Z</time>
      </trkpt>
      <trkpt lat="43.67628" lon="3.40746">
        <ele>89.83</ele>
        <time>2024-08-27T10:48:10.993Z</time>
      </trkpt>
      <trkpt lat="43.67622" lon="3.40747">
        <ele>89.91</ele>
        <time>2024-08-27T10:48:18.102Z</time>
      </trkpt>
      <trkpt lat="43.67599" lon="3.40744">
        <ele>90.11</ele>
        <time>2024-08-27T10:48:25.214Z</time>
      </trkpt>
      <trkpt lat="43.67595" lon="3.40743">
        <ele>90.2</ele>
        <time>2024-08-27T10:48:32.327Z</time>
      </trkpt>
      <trkpt lat="43.67471" lon="3.40721">
        <ele>83.62</ele>
        <time>2024-08-27T10:48:39.460Z</time>
      </trkpt>
      <trkpt lat="43.67462" lon="3.4072">
        <ele>82.99</ele>
        <time>2024-08-27T10:48:46.594Z</time>
      </trkpt>
      <trkpt lat="43.67384" lon="3.40706">
        <ele>84.09</ele>
        <time>2024-08-27T10:48:53.741Z</time>
      </trkpt>
      <trkpt lat="43.67384" lon="3.40706">
        <ele>85.2</ele>
        <time>2024-08-27T10:49:00.888Z</time>
      </trkpt>
      <trkpt lat="43.67357" lon="3.40704">
        <ele>87.35</ele>
        <time>2024-08-27T10:49:08.039Z</time>
      </trkpt>
      <trkpt lat="43.67347" lon="3.40678">
        <ele>89.74</ele>
        <time>2024-08-27T10:49:15.194Z</time>
      </trkpt>
      <trkpt lat="43.6733" lon="3.40616">
        <ele>92.58</ele>
        <time>2024-08-27T10:49:22.356Z</time>
      </trkpt>
      <trkpt lat="43.67315" lon="3.40616">
        <ele>95.29</ele>
        <time>2024-08-27T10:49:29.521Z</time>
      </trkpt>
      <trkpt lat="43.67282" lon="3.40633">
        <ele>98.34</ele>
        <time>2024-08-27T10:49:36.691Z</time>
      </trkpt>
      <trkpt lat="43.67274" lon="3.40634">
        <ele>101.2</ele>
        <time>2024-08-27T10:49:43.863Z</time>
      </trkpt>
      <trkpt lat="43.67212" lon="3.40582">
        <ele>105.26</ele>
        <time>2024-08-27T10:49:51.046Z</time>
      </trkpt>
      <trkpt lat="43.67205" lon="3.4058">
        <ele>108.4</ele>
        <time>2024-08-27T10:49:58.231Z</time>
      </trkpt>
      <trkpt lat="43.67194" lon="3.40583">
        <ele>111.64</ele>
        <time>2024-08-27T10:50:05.417Z</time>
      </trkpt>
      <trkpt lat="43.67187" lon="3.40591">
        <ele>114.77</ele>
        <time>2024-08-27T10:50:12.605Z</time>
      </trkpt>
      <trkpt lat="43.67169" lon="3.40639">
        <ele>117.74</ele>
        <time>2024-08-27T10:50:19.799Z</time>
      </trkpt>
      <trkpt lat="43.67156" lon="3.40661">
        <ele>121.25</ele>
        <time>2024-08-27T10:50:26.996Z</time>
      </trkpt>
      <trkpt lat="43.67128" lon="3.40691">
        <ele>125.32</ele>
        <time>2024-08-27T10:50:34.199Z</time>
      </trkpt>
      <trkpt lat="43.67064" lon="3.40805">
        <ele>129.09</ele>
        <time>2024-08-27T10:50:41.419Z</time>
      </trkpt>
      <trkpt lat="43.6705" lon="3.40822">
        <ele>131.8</ele>
        <time>2024-08-27T10:50:48.642Z</time>
      </trkpt>
      <trkpt lat="43.6703" lon="3.40843">
        <ele>134.49</ele>
        <time>2024-08-27T10:50:55.869Z</time>
      </trkpt>
      <trkpt lat="43.67003" lon="3.40881">
        <ele>137.45</ele>
        <time>2024-08-27T10:51:03.102Z</time>
      </trkpt>
      <trkpt lat="43.66987" lon="3.40898">
        <ele>140.14</ele>
        <time>2024-08-27T10:51:10.338Z</time>
      </trkpt>
      <trkpt lat="43.6697" lon="3.40913">
        <ele>142.14</ele>
        <time>2024-08-27T10:51:17.577Z</time>
      </trkpt>
      <trkpt lat="43.66963" lon="3.40916">
        <ele>143.57</ele>
        <time>2024-08-27T10:51:24.818Z</time>
      </trkpt>
      <trkpt lat="43.66948" lon="3.40923">
        <ele>148.46</ele>
        <time>2024-08-27T10:51:32.061Z</time>
      </trkpt>
      <trkpt lat="43.66916" lon="3.40933">
        <ele>151.59</ele>
        <time>2024-08-27T10:51:39.309Z</time>
      </trkpt>
      <trkpt lat="43.66901" lon="3.40929">
        <ele>154.59</ele>
        <time>2024-08-27T10:51:46.560Z</time>
      </trkpt>
      <trkpt lat="43.66844" lon="3.409">
        <ele>158.89</ele>
        <time>2024-08-27T10:51:53.821Z</time>
      </trkpt>
      <trkpt lat="43.66791" lon="3.40877">
        <ele>163.15</ele>
        <time>2024-08-27T10:52:01.091Z</time>
      </trkpt>
      <trkpt lat="43.66751" lon="3.40848">
        <ele>167.36</ele>
        <time>2024-08-27T10:52:08.368Z</time>
      </trkpt>
      <trkpt lat="43.66744" lon="3.4084">
        <ele>171.17</ele>
        <time>2024-08-27T10:52:15.646Z</time>
      </trkpt>
      <trkpt lat="43.66733" lon="3.40823">
        <ele>175.16</ele>
        <time>2024-08-27T10:52:22.927Z</time>
      </trkpt>
      <trkpt lat="43.66721" lon="3.408">
        <ele>179.19</ele>
        <time>2024-08-27T10:52:30.211Z</time>
      </trkpt>
      <trkpt lat="43.6671" lon="3.40762">
        <ele>184.28</ele>
        <time>2024-08-27T10:52:37.500Z</time>
      </trkpt>
      <trkpt lat="43.66704" lon="3.40751">
        <ele>188.36</ele>
        <time>2024-08-27T10:52:44.790Z</time>
      </trkpt>
      <trkpt lat="43.66692" lon="3.40742">
        <ele>191.91</ele>
        <time>2024-08-27T10:52:52.083Z</time>
      </trkpt>
      <trkpt lat="43.6668" lon="3.40737">
        <ele>194.98</ele>
        <time>2024-08-27T10:52:59.378Z</time>
      </trkpt>
      <trkpt lat="43.66671" lon="3.40735">
        <ele>197.54</ele>
        <time>2024-08-27T10:53:06.674Z</time>
      </trkpt>
      <trkpt lat="43.66649" lon="3.40737">
        <ele>199.5</ele>
        <time>2024-08-27T10:53:13.974Z</time>
      </trkpt>
      <trkpt lat="43.66567" lon="3.40705">
        <ele>201.84</ele>
        <time>2024-08-27T10:53:21.287Z</time>
      </trkpt>
      <trkpt lat="43.66502" lon="3.40674">
        <ele>204.55</ele>
        <time>2024-08-27T10:53:28.611Z</time>
      </trkpt>
      <trkpt lat="43.66489" lon="3.40664">
        <ele>206.49</ele>
        <time>2024-08-27T10:53:35.938Z</time>
      </trkpt>
      <trkpt lat="43.66476" lon="3.40647">
        <ele>208.57</ele>
        <time>2024-08-27T10:53:43.267Z</time>
      </trkpt>
      <trkpt lat="43.66445" lon="3.4062">
        <ele>210.64</ele>
        <time>2024-08-27T10:53:50.602Z</time>
      </trkpt>
      <trkpt lat="43.66425" lon="3.40611">
        <ele>212.37</ele>
        <time>2024-08-27T10:53:57.941Z</time>
      </trkpt>
      <trkpt lat="43.66405" lon="3.40605">
        <ele>213.79</ele>
        <time>2024-08-27T10:54:05.283Z</time>
      </trkpt>
      <trkpt lat="43.66367" lon="3.40585">
        <ele>215.27</ele>
        <time>2024-08-27T10:54:12.632Z</time>
      </trkpt>
      <trkpt lat="43.66367" lon="3.40585">
        <ele>216.06</ele>
        <time>2024-08-27T10:54:19.981Z</time>
      </trkpt>
      <trkpt lat="43.66335" lon="3.40567">
        <ele>216.39</ele>
        <time>2024-08-27T10:54:27.335Z</time>
      </trkpt>
      <trkpt lat="43.66325" lon="3.4056">
        <ele>216.58</ele>
        <time>2024-08-27T10:54:34.691Z</time>
      </trkpt>
      <trkpt lat="43.66318" lon="3.40546">
        <ele>216.73</ele>
        <time>2024-08-27T10:54:42.049Z</time>
      </trkpt>
      <trkpt lat="43.66307" lon="3.40534">
        <ele>216.6</ele>
        <time>2024-08-27T10:54:49.409Z</time>
      </trkpt>
      <trkpt lat="43.66285" lon="3.4052">
        <ele>216.27</ele>
        <time>2024-08-27T10:54:56.773Z</time>
      </trkpt>
      <trkpt lat="43.66237" lon="3.40481">
        <ele>215.75</ele>
        <time>2024-08-27T10:55:04.146Z</time>
      </trkpt>
      <trkpt lat="43.66219" lon="3.4046">
        <ele>215.35</ele>
        <time>2024-08-27T10:55:11.523Z</time>
      </trkpt>
      <trkpt lat="43.66204" lon="3.4044">
        <ele>214.89</ele>
        <time>2024-08-27T10:55:18.903Z</time>
      </trkpt>
      <trkpt lat="43.66189" lon="3.40412">
        <ele>214.51</ele>
        <time>2024-08-27T10:55:26.287Z</time>
      </trkpt>
      <trkpt lat="43.66185" lon="3.40407">
        <ele>214.11</ele>
        <time>2024-08-27T10:55:33.672Z</time>
      </trkpt>
      <trkpt lat="43.66177" lon="3.40403">
        <ele>213.65</ele>
        <time>2024-08-27T10:55:41.058Z</time>
      </trkpt>
      <trkpt lat="43.66172" lon="3.40405">
        <ele>213.15</ele>
        <time>2024-08-27T10:55:48.445Z</time>
      </trkpt>
      <trkpt lat="43.66128" lon="3.40446">
        <ele>212.79</ele>
        <time>2024-08-27T10:55:55.841Z</time>
      </trkpt>
      <trkpt lat="43.66112" lon="3.40459">
        <ele>212.4</ele>
        <time>2024-08-27T10:56:03.240Z</time>
      </trkpt>
      <trkpt lat="43.66089" lon="3.40473">
        <ele>211.93</ele>
        <time>2024-08-27T10:56:10.643Z</time>
      </trkpt>
      <trkpt lat="43.66083" lon="3.40475">
        <ele>211.41</ele>
        <time>2024-08-27T10:56:18.047Z</time>
      </trkpt>
      <trkpt lat="43.66069" lon="3.40474">
        <ele>210.88</ele>
        <time>2024-08-27T10:56:25.453Z</time>
      </trkpt>
      <trkpt lat="43.66057" lon="3.40467">
        <ele>210.44</ele>
        <time>2024-08-27T10:56:32.861Z</time>
      </trkpt>
      <trkpt lat="43.66046" lon="3.40453">
        <ele>210.05</ele>
        <time>2024-08-27T10:56:40.271Z</time>
      </trkpt>
      <trkpt lat="43.66038" lon="3.40432">
        <ele>209.93</ele>
        <time>2024-08-27T10:56:47.684Z</time>
      </trkpt>
      <trkpt lat="43.66026" lon="3.40389">
        <ele>210.1</ele>
        <time>2024-08-27T10:56:55.102Z</time>
      </trkpt>
      <trkpt lat="43.66023" lon="3.40362">
        <ele>210.61</ele>
        <time>2024-08-27T10:57:02.524Z</time>
      </trkpt>
      <trkpt lat="43.66024" lon="3.40319">
        <ele>211.35</ele>
        <time>2024-08-27T10:57:09.951Z</time>
      </trkpt>
      <trkpt lat="43.66018" lon="3.40284">
        <ele>211.97</ele>
        <time>2024-08-27T10:57:17.382Z</time>
      </trkpt>
      <trkpt lat="43.66003" lon="3.40237">
        <ele>212.94</ele>
        <time>2024-08-27T10:57:24.819Z</time>
      </trkpt>
      <trkpt lat="43.65995" lon="3.40199">
        <ele>213.98</ele>
        <time>2024-08-27T10:57:32.260Z</time>
      </trkpt>
      <trkpt lat="43.65991" lon="3.40179">
        <ele>214.69</ele>
        <time>2024-08-27T10:57:39.704Z</time>
      </trkpt>
      <trkpt lat="43.65986" lon="3.40162">
        <ele>215.19</ele>
        <time>2024-08-27T10:57:47.150Z</time>
      </trkpt>
      <trkpt lat="43.65983" lon="3.40156">
        <ele>215.67</ele>
        <time>2024-08-27T10:57:54.597Z</time>
      </trkpt>
      <trkpt lat="43.6598" lon="3.40151">
        <ele>219.37</ele>
        <time>2024-08-27T10:58:02.044Z</time>
      </trkpt>
      <trkpt lat="43.65973" lon="3.40141">
        <ele>219.21</ele>
        <time>2024-08-27T10:58:09.493Z</time>
      </trkpt>
      <trkpt lat="43.65934" lon="3.40093">
        <ele>218.74</ele>
        <time>2024-08-27T10:58:16.950Z</time>
      </trkpt>
      <trkpt lat="43.65916" lon="3.40068">
        <ele>217.99</ele>
        <time>2024-08-27T10:58:24.412Z</time>
      </trkpt>
      <trkpt lat="43.65903" lon="3.40039">
        <ele>217.27</ele>
        <time>2024-08-27T10:58:31.877Z</time>
      </trkpt>
      <trkpt lat="43.65896" lon="3.39998">
        <ele>216.47</ele>
        <time>2024-08-27T10:58:39.347Z</time>
      </trkpt>
      <trkpt lat="43.65891" lon="3.39975">
        <ele>214.81</ele>
        <time>2024-08-27T10:58:46.820Z</time>
      </trkpt>
      <trkpt lat="43.65891" lon="3.39957">
        <ele>213.1</ele>
        <time>2024-08-27T10:58:54.295Z</time>
      </trkpt>
      <trkpt lat="43.65895" lon="3.39949">
        <ele>211.52</ele>
        <time>2024-08-27T10:59:01.771Z</time>
      </trkpt>
      <trkpt lat="43.65868" lon="3.39929">
        <ele>208.74</ele>
        <time>2024-08-27T10:59:09.252Z</time>
      </trkpt>
      <trkpt lat="43.65856" lon="3.39954">
        <ele>206.82</ele>
        <time>2024-08-27T10:59:16.737Z</time>
      </trkpt>
      <trkpt lat="43.65851" lon="3.39967">
        <ele>204.96</ele>
        <time>2024-08-27T10:59:24.223Z</time>
      </trkpt>
      <trkpt lat="43.6585" lon="3.40012">
        <ele>203.53</ele>
        <time>2024-08-27T10:59:31.715Z</time>
      </trkpt>
      <trkpt lat="43.65848" lon="3.40018">
        <ele>202.01</ele>
        <time>2024-08-27T10:59:39.208Z</time>
      </trkpt>
      <trkpt lat="43.65847" lon="3.40011">
        <ele>200.61</ele>
        <time>2024-08-27T10:59:46.701Z</time>
      </trkpt>
      <trkpt lat="43.65841" lon="3.40009">
        <ele>199.11</ele>
        <time>2024-08-27T10:59:54.195Z</time>
      </trkpt>
      <trkpt lat="43.65834" lon="3.4001">
        <ele>197.66</ele>
        <time>2024-08-27T11:00:01.691Z</time>
      </trkpt>
      <trkpt lat="43.65828" lon="3.40008">
        <ele>196.56</ele>
        <time>2024-08-27T11:00:09.187Z</time>
      </trkpt>
      <trkpt lat="43.65825" lon="3.39994">
        <ele>195.8</ele>
        <time>2024-08-27T11:00:16.685Z</time>
      </trkpt>
      <trkpt lat="43.65827" lon="3.3997">
        <ele>195.41</ele>
        <time>2024-08-27T11:00:24.186Z</time>
      </trkpt>
      <trkpt lat="43.65835" lon="3.39946">
        <ele>195.5</ele>
        <time>2024-08-27T11:00:31.690Z</time>
      </trkpt>
      <trkpt lat="43.65835" lon="3.39929">
        <ele>195.07</ele>
        <time>2024-08-27T11:00:39.196Z</time>
      </trkpt>
      <trkpt lat="43.65832" lon="3.39907">
        <ele>194.5</ele>
        <time>2024-08-27T11:00:46.705Z</time>
      </trkpt>
      <trkpt lat="43.65837" lon="3.39892">
        <ele>194.38</ele>
        <time>2024-08-27T11:00:54.215Z</time>
      </trkpt>
      <trkpt lat="43.65838" lon="3.3989">
        <ele>194.34</ele>
        <time>2024-08-27T11:01:01.726Z</time>
      </trkpt>
      <trkpt lat="43.65856" lon="3.39863">
        <ele>196.27</ele>
        <time>2024-08-27T11:01:09.241Z</time>
      </trkpt>
      <trkpt lat="43.6588" lon="3.3984">
        <ele>195.57</ele>
        <time>2024-08-27T11:01:16.761Z</time>
      </trkpt>
      <trkpt lat="43.65896" lon="3.39831">
        <ele>194.68</ele>
        <time>2024-08-27T11:01:24.283Z</time>
      </trkpt>
      <trkpt lat="43.65899" lon="3.39824">
        <ele>193.22</ele>
        <time>2024-08-27T11:01:31.806Z</time>
      </trkpt>
      <trkpt lat="43.65897" lon="3.39817">
        <ele>191.24</ele>
        <time>2024-08-27T11:01:39.330Z</time>
      </trkpt>
      <trkpt lat="43.65888" lon="3.39815">
        <ele>189.05</ele>
        <time>2024-08-27T11:01:46.856Z</time>
      </trkpt>
      <trkpt lat="43.65857" lon="3.39828">
        <ele>186.59</ele>
        <time>2024-08-27T11:01:54.387Z</time>
      </trkpt>
      <trkpt lat="43.65841" lon="3.39832">
        <ele>183.85</ele>
        <time>2024-08-27T11:02:01.920Z</time>
      </trkpt>
      <trkpt lat="43.65808" lon="3.39848">
        <ele>180.59</ele>
        <time>2024-08-27T11:02:09.459Z</time>
      </trkpt>
      <trkpt lat="43.65777" lon="3.39883">
        <ele>177.36</ele>
        <time>2024-08-27T11:02:17.005Z</time>
      </trkpt>
      <trkpt lat="43.65773" lon="3.3988">
        <ele>174.61</ele>
        <time>2024-08-27T11:02:24.551Z</time>
      </trkpt>
      <trkpt lat="43.65769" lon="3.39869">
        <ele>171.97</ele>
        <time>2024-08-27T11:02:32.099Z</time>
      </trkpt>
      <trkpt lat="43.65774" lon="3.39822">
        <ele>169.11</ele>
        <time>2024-08-27T11:02:39.652Z</time>
      </trkpt>
      <trkpt lat="43.6578" lon="3.39805">
        <ele>166.7</ele>
        <time>2024-08-27T11:02:47.207Z</time>
      </trkpt>
      <trkpt lat="43.658" lon="3.39775">
        <ele>164.07</ele>
        <time>2024-08-27T11:02:54.767Z</time>
      </trkpt>
      <trkpt lat="43.65803" lon="3.39766">
        <ele>161.91</ele>
        <time>2024-08-27T11:03:02.328Z</time>
      </trkpt>
      <trkpt lat="43.658" lon="3.39762">
        <ele>159.97</ele>
        <time>2024-08-27T11:03:09.890Z</time>
      </trkpt>
      <trkpt lat="43.65794" lon="3.39763">
        <ele>158.17</ele>
        <time>2024-08-27T11:03:17.453Z</time>
      </trkpt>
      <trkpt lat="43.65784" lon="3.39767">
        <ele>156.31</ele>
        <time>2024-08-27T11:03:25.018Z</time>
      </trkpt>
      <trkpt lat="43.65738" lon="3.39779">
        <ele>153.72</ele>
        <time>2024-08-27T11:03:32.590Z</time>
      </trkpt>
      <trkpt lat="43.65699" lon="3.39794">
        <ele>151.28</ele>
        <time>2024-08-27T11:03:40.169Z</time>
      </trkpt>
      <trkpt lat="43.65695" lon="3.39795">
        <ele>147.16</ele>
        <time>2024-08-27T11:03:47.748Z</time>
      </trkpt>
      <trkpt lat="43.65673" lon="3.3981">
        <ele>146.27</ele>
        <time>2024-08-27T11:03:55.331Z</time>
      </trkpt>
      <trkpt lat="43.65657" lon="3.39813">
        <ele>145.58</ele>
        <time>2024-08-27T11:04:02.917Z</time>
      </trkpt>
      <trkpt lat="43.65648" lon="3.39818">
        <ele>145.25</ele>
        <time>2024-08-27T11:04:10.504Z</time>
      </trkpt>
      <trkpt lat="43.65648" lon="3.39824">
        <ele>145.57</ele>
        <time>2024-08-27T11:04:18.092Z</time>
      </trkpt>
      <trkpt lat="43.65663" lon="3.39851">
        <ele>146.69</ele>
        <time>2024-08-27T11:04:25.684Z</time>
      </trkpt>
      <trkpt lat="43.65682" lon="3.39876">
        <ele>148.13</ele>
        <time>2024-08-27T11:04:33.280Z</time>
      </trkpt>
      <trkpt lat="43.65694" lon="3.39886">
        <ele>149.56</ele>
        <time>2024-08-27T11:04:40.878Z</time>
      </trkpt>
      <trkpt lat="43.65719" lon="3.39946">
        <ele>151.45</ele>
        <time>2024-08-27T11:04:48.484Z</time>
      </trkpt>
      <trkpt lat="43.65729" lon="3.39987">
        <ele>152.6</ele>
        <time>2024-08-27T11:04:56.095Z</time>
      </trkpt>
      <trkpt lat="43.65738" lon="3.40019">
        <ele>153.45</ele>
        <time>2024-08-27T11:05:03.710Z</time>
      </trkpt>
      <trkpt lat="43.65758" lon="3.40061">
        <ele>154.04</ele>
        <time>2024-08-27T11:05:11.331Z</time>
      </trkpt>
      <trkpt lat="43.65766" lon="3.40103">
        <ele>153.74</ele>
        <time>2024-08-27T11:05:18.957Z</time>
      </trkpt>
      <trkpt lat="43.65767" lon="3.40105">
        <ele>153.91</ele>
        <time>2024-08-27T11:05:26.584Z</time>
      </trkpt>
      <trkpt lat="43.65772" lon="3.4012">
        <ele>152.39</ele>
        <time>2024-08-27T11:05:34.212Z</time>
      </trkpt>
      <trkpt lat="43.65789" lon="3.40162">
        <ele>151.67</ele>
        <time>2024-08-27T11:05:41.846Z</time>
      </trkpt>
      <trkpt lat="43.658" lon="3.40187">
        <ele>150.78</ele>
        <time>2024-08-27T11:05:49.483Z</time>
      </trkpt>
      <trkpt lat="43.65822" lon="3.40261">
        <ele>148.17</ele>
        <time>2024-08-27T11:05:57.130Z</time>
      </trkpt>
      <trkpt lat="43.65834" lon="3.40309">
        <ele>145.74</ele>
        <time>2024-08-27T11:06:04.783Z</time>
      </trkpt>
      <trkpt lat="43.65839" lon="3.40338">
        <ele>143.8</ele>
        <time>2024-08-27T11:06:12.439Z</time>
      </trkpt>
      <trkpt lat="43.65854" lon="3.40387">
        <ele>142.39</ele>
        <time>2024-08-27T11:06:20.101Z</time>
      </trkpt>
      <trkpt lat="43.65858" lon="3.40439">
        <ele>140.41</ele>
        <time>2024-08-27T11:06:27.769Z</time>
      </trkpt>
      <trkpt lat="43.6586" lon="3.40492">
        <ele>138.42</ele>
        <time>2024-08-27T11:06:35.444Z</time>
      </trkpt>
      <trkpt lat="43.65866" lon="3.40561">
        <ele>136.82</ele>
        <time>2024-08-27T11:06:43.127Z</time>
      </trkpt>
      <trkpt lat="43.65866" lon="3.40613">
        <ele>134.92</ele>
        <time>2024-08-27T11:06:50.816Z</time>
      </trkpt>
      <trkpt lat="43.65868" lon="3.40622">
        <ele>133.31</ele>
        <time>2024-08-27T11:06:58.506Z</time>
      </trkpt>
      <trkpt lat="43.65886" lon="3.40639">
        <ele>131.72</ele>
        <time>2024-08-27T11:07:06.199Z</time>
      </trkpt>
      <trkpt lat="43.6591" lon="3.40674">
        <ele>129.79</ele>
        <time>2024-08-27T11:07:13.898Z</time>
      </trkpt>
      <trkpt lat="43.65916" lon="3.40688">
        <ele>128.16</ele>
        <time>2024-08-27T11:07:21.599Z</time>
      </trkpt>
      <trkpt lat="43.65919" lon="3.40718">
        <ele>126.19</ele>
        <time>2024-08-27T11:07:29.303Z</time>
      </trkpt>
      <trkpt lat="43.65926" lon="3.40745">
        <ele>124.55</ele>
        <time>2024-08-27T11:07:37.011Z</time>
      </trkpt>
      <trkpt lat="43.65936" lon="3.40759">
        <ele>123.19</ele>
        <time>2024-08-27T11:07:44.721Z</time>
      </trkpt>
      <trkpt lat="43.65944" lon="3.40774">
        <ele>121.9</ele>
        <time>2024-08-27T11:07:52.433Z</time>
      </trkpt>
      <trkpt lat="43.65957" lon="3.40818">
        <ele>120.48</ele>
        <time>2024-08-27T11:08:00.151Z</time>
      </trkpt>
      <trkpt lat="43.65965" lon="3.40825">
        <ele>119.47</ele>
        <time>2024-08-27T11:08:07.870Z</time>
      </trkpt>
      <trkpt lat="43.65984" lon="3.40833">
        <ele>118.6</ele>
        <time>2024-08-27T11:08:15.592Z</time>
      </trkpt>
      <trkpt lat="43.65989" lon="3.40838">
        <ele>117.5</ele>
        <time>2024-08-27T11:08:23.315Z</time>
      </trkpt>
      <trkpt lat="43.65991" lon="3.40845">
        <ele>116.14</ele>
        <time>2024-08-27T11:08:31.039Z</time>
      </trkpt>
      <trkpt lat="43.65988" lon="3.40872">
        <ele>114.09</ele>
        <time>2024-08-27T11:08:38.766Z</time>
      </trkpt>
      <trkpt lat="43.65988" lon="3.40896">
        <ele>112.64</ele>
        <time>2024-08-27T11:08:46.496Z</time>
      </trkpt>
      <trkpt lat="43.65989" lon="3.40898">
        <ele>111.92</ele>
        <time>2024-08-27T11:08:54.226Z</time>
      </trkpt>
      <trkpt lat="43.65993" lon="3.40924">
        <ele>108.43</ele>
        <time>2024-08-27T11:09:01.959Z</time>
      </trkpt>
      <trkpt lat="43.65997" lon="3.40938">
        <ele>107.22</ele>
        <time>2024-08-27T11:09:09.694Z</time>
      </trkpt>
      <trkpt lat="43.66011" lon="3.40958">
        <ele>105.93</ele>
        <time>2024-08-27T11:09:17.432Z</time>
      </trkpt>
      <trkpt lat="43.66019" lon="3.40967">
        <ele>104.9</ele>
        <time>2024-08-27T11:09:25.172Z</time>
      </trkpt>
      <trkpt lat="43.66029" lon="3.40973">
        <ele>104.05</ele>
        <time>2024-08-27T11:09:32.914Z</time>
      </trkpt>
      <trkpt lat="43.66035" lon="3.40976">
        <ele>103.24</ele>
        <time>2024-08-27T11:09:40.657Z</time>
      </trkpt>
      <trkpt lat="43.66042" lon="3.40986">
        <ele>102.15</ele>
        <time>2024-08-27T11:09:48.401Z</time>
      </trkpt>
      <trkpt lat="43.66024" lon="3.40986">
        <ele>100.93</ele>
        <time>2024-08-27T11:09:56.148Z</time>
      </trkpt>
      <trkpt lat="43.66008" lon="3.4098">
        <ele>99.93</ele>
        <time>2024-08-27T11:10:03.898Z</time>
      </trkpt>
      <trkpt lat="43.65965" lon="3.40948">
        <ele>99.09</ele>
        <time>2024-08-27T11:10:11.656Z</time>
      </trkpt>
      <trkpt lat="43.65937" lon="3.40932">
        <ele>98.47</ele>
        <time>2024-08-27T11:10:19.419Z</time>
      </trkpt>
      <trkpt lat="43.6591" lon="3.40921">
        <ele>98.09</ele>
        <time>2024-08-27T11:10:27.186Z</time>
      </trkpt>
      <trkpt lat="43.65844" lon="3.40907">
        <ele>96.2</ele>
        <time>2024-08-27T11:10:34.964Z</time>
      </trkpt>
      <trkpt lat="43.65826" lon="3.40894">
        <ele>95.71</ele>
        <time>2024-08-27T11:10:42.745Z</time>
      </trkpt>
      <trkpt lat="43.65817" lon="3.40883">
        <ele>95.45</ele>
        <time>2024-08-27T11:10:50.528Z</time>
      </trkpt>
      <trkpt lat="43.65816" lon="3.40882">
        <ele>95.16</ele>
        <time>2024-08-27T11:10:58.311Z</time>
      </trkpt>
      <trkpt lat="43.65806" lon="3.40869">
        <ele>92.49</ele>
        <time>2024-08-27T11:11:06.096Z</time>
      </trkpt>
      <trkpt lat="43.65789" lon="3.40837">
        <ele>91.51</ele>
        <time>2024-08-27T11:11:13.886Z</time>
      </trkpt>
      <trkpt lat="43.65781" lon="3.40818">
        <ele>90.69</ele>
        <time>2024-08-27T11:11:21.679Z</time>
      </trkpt>
      <trkpt lat="43.65765" lon="3.40762">
        <ele>89.87</ele>
        <time>2024-08-27T11:11:29.479Z</time>
      </trkpt>
      <trkpt lat="43.65762" lon="3.4071">
        <ele>89.61</ele>
        <time>2024-08-27T11:11:37.285Z</time>
      </trkpt>
      <trkpt lat="43.65759" lon="3.40701">
        <ele>89.31</ele>
        <time>2024-08-27T11:11:45.092Z</time>
      </trkpt>
      <trkpt lat="43.65754" lon="3.40696">
        <ele>89.07</ele>
        <time>2024-08-27T11:11:52.900Z</time>
      </trkpt>
      <trkpt lat="43.6574" lon="3.40689">
        <ele>89.11</ele>
        <time>2024-08-27T11:12:00.710Z</time>
      </trkpt>
      <trkpt lat="43.65733" lon="3.40679">
        <ele>89.35</ele>
        <time>2024-08-27T11:12:08.522Z</time>
      </trkpt>
      <trkpt lat="43.65729" lon="3.40667">
        <ele>89.76</ele>
        <time>2024-08-27T11:12:16.335Z</time>
      </trkpt>
      <trkpt lat="43.65726" lon="3.40623">
        <ele>90.47</ele>
        <time>2024-08-27T11:12:24.153Z</time>
      </trkpt>
      <trkpt lat="43.65726" lon="3.40564">
        <ele>91.11</ele>
        <time>2024-08-27T11:12:31.978Z</time>
      </trkpt>
      <trkpt lat="43.65724" lon="3.40521">
        <ele>91.95</ele>
        <time>2024-08-27T11:12:39.808Z</time>
      </trkpt>
      <trkpt lat="43.6572" lon="3.40496">
        <ele>92.67</ele>
        <time>2024-08-27T11:12:47.641Z</time>
      </trkpt>
      <trkpt lat="43.65713" lon="3.40458">
        <ele>93.54</ele>
        <time>2024-08-27T11:12:55.479Z</time>
      </trkpt>
      <trkpt lat="43.65702" lon="3.40396">
        <ele>94.66</ele>
        <time>2024-08-27T11:13:03.324Z</time>
      </trkpt>
      <trkpt lat="43.65696" lon="3.40381">
        <ele>95.9</ele>
        <time>2024-08-27T11:13:11.171Z</time>
      </trkpt>
      <trkpt lat="43.65691" lon="3.40379">
        <ele>97.56</ele>
        <time>2024-08-27T11:13:19.019Z</time>
      </trkpt>
      <trkpt lat="43.65687" lon="3.4038">
        <ele>99.52</ele>
        <time>2024-08-27T11:13:26.868Z</time>
      </trkpt>
      <trkpt lat="43.65686" lon="3.40389">
        <ele>101.82</ele>
        <time>2024-08-27T11:13:34.718Z</time>
      </trkpt>
      <trkpt lat="43.65686" lon="3.40458">
        <ele>104.35</ele>
        <time>2024-08-27T11:13:42.576Z</time>
      </trkpt>
      <trkpt lat="43.65669" lon="3.40595">
        <ele>108.28</ele>
        <time>2024-08-27T11:13:50.450Z</time>
      </trkpt>
      <trkpt lat="43.65662" lon="3.40633">
        <ele>111.08</ele>
        <time>2024-08-27T11:13:58.329Z</time>
      </trkpt>
      <trkpt lat="43.65655" lon="3.40648">
        <ele>114.03</ele>
        <time>2024-08-27T11:14:06.210Z</time>
      </trkpt>
      <trkpt lat="43.65647" lon="3.40658">
        <ele>117.15</ele>
        <time>2024-08-27T11:14:14.092Z</time>
      </trkpt>
      <trkpt lat="43.65638" lon="3.4066">
        <ele>120.33</ele>
        <time>2024-08-27T11:14:21.976Z</time>
      </trkpt>
      <trkpt lat="43.6563" lon="3.40658">
        <ele>123.52</ele>
        <time>2024-08-27T11:14:29.861Z</time>
      </trkpt>
      <trkpt lat="43.65625" lon="3.40649">
        <ele>126.9</ele>
        <time>2024-08-27T11:14:37.747Z</time>
      </trkpt>
      <trkpt lat="43.65602" lon="3.40523">
        <ele>131.29</ele>
        <time>2024-08-27T11:14:45.649Z</time>
      </trkpt>
      <trkpt lat="43.65592" lon="3.40487">
        <ele>134.29</ele>
        <time>2024-08-27T11:14:53.555Z</time>
      </trkpt>
      <trkpt lat="43.6557" lon="3.40425">
        <ele>136.91</ele>
        <time>2024-08-27T11:15:01.469Z</time>
      </trkpt>
      <trkpt lat="43.65557" lon="3.40405">
        <ele>139.64</ele>
        <time>2024-08-27T11:15:09.386Z</time>
      </trkpt>
      <trkpt lat="43.65548" lon="3.40395">
        <ele>141.92</ele>
        <time>2024-08-27T11:15:17.305Z</time>
      </trkpt>
      <trkpt lat="43.65519" lon="3.4037">
        <ele>144.11</ele>
        <time>2024-08-27T11:15:25.229Z</time>
      </trkpt>
      <trkpt lat="43.65496" lon="3.40349">
        <ele>148.93</ele>
        <time>2024-08-27T11:15:33.158Z</time>
      </trkpt>
      <trkpt lat="43.65449" lon="3.40285">
        <ele>151.16</ele>
        <time>2024-08-27T11:15:41.097Z</time>
      </trkpt>
      <trkpt lat="43.65419" lon="3.40255">
        <ele>153.11</ele>
        <time>2024-08-27T11:15:49.042Z</time>
      </trkpt>
      <trkpt lat="43.65381" lon="3.40229">
        <ele>155.32</ele>
        <time>2024-08-27T11:15:56.994Z</time>
      </trkpt>
      <trkpt lat="43.65351" lon="3.40214">
        <ele>157.3</ele>
        <time>2024-08-27T11:16:04.951Z</time>
      </trkpt>
      <trkpt lat="43.65301" lon="3.40199">
        <ele>159.83</ele>
        <time>2024-08-27T11:16:12.917Z</time>
      </trkpt>
      <trkpt lat="43.65291" lon="3.40192">
        <ele>161.39</ele>
        <time>2024-08-27T11:16:20.884Z</time>
      </trkpt>
      <trkpt lat="43.65287" lon="3.40186">
        <ele>162.61</ele>
        <time>2024-08-27T11:16:28.852Z</time>
      </trkpt>
      <trkpt lat="43.6528" lon="3.40173">
        <ele>163.7</ele>
        <time>2024-08-27T11:16:36.822Z</time>
      </trkpt>
      <trkpt lat="43.65277" lon="3.40153">
        <ele>164.43</ele>
        <time>2024-08-27T11:16:44.794Z</time>
      </trkpt>
      <trkpt lat="43.65275" lon="3.40105">
        <ele>164.9</ele>
        <time>2024-08-27T11:16:52.772Z</time>
      </trkpt>
      <trkpt lat="43.65269" lon="3.40077">
        <ele>165.48</ele>
        <time>2024-08-27T11:17:00.753Z</time>
      </trkpt>
      <trkpt lat="43.65265" lon="3.40068">
        <ele>166.02</ele>
        <time>2024-08-27T11:17:08.736Z</time>
      </trkpt>
      <trkpt lat="43.65254" lon="3.40047">
        <ele>166.91</ele>
        <time>2024-08-27T11:17:16.722Z</time>
      </trkpt>
      <trkpt lat="43.6524" lon="3.40029">
        <ele>167.8</ele>
        <time>2024-08-27T11:17:24.711Z</time>
      </trkpt>
      <trkpt lat="43.65222" lon="3.40009">
        <ele>168.23</ele>
        <time>2024-08-27T11:17:32.703Z</time>
      </trkpt>
      <trkpt lat="43.65203" lon="3.39995">
        <ele>168.51</ele>
        <time>2024-08-27T11:17:40.699Z</time>
      </trkpt>
      <trkpt lat="43.65177" lon="3.39989">
        <ele>169.43</ele>
        <time>2024-08-27T11:17:48.699Z</time>
      </trkpt>
      <trkpt lat="43.65157" lon="3.39984">
        <ele>172.72</ele>
        <time>2024-08-27T11:17:56.702Z</time>
      </trkpt>
      <trkpt lat="43.6514" lon="3.39973">
        <ele>173.41</ele>
        <time>2024-08-27T11:18:04.708Z</time>
      </trkpt>
      <trkpt lat="43.65129" lon="3.39957">
        <ele>174.77</ele>
        <time>2024-08-27T11:18:12.717Z</time>
      </trkpt>
      <trkpt lat="43.65122" lon="3.39932">
        <ele>176.17</ele>
        <time>2024-08-27T11:18:20.729Z</time>
      </trkpt>
      <trkpt lat="43.65124" lon="3.39915">
        <ele>177.4</ele>
        <time>2024-08-27T11:18:28.743Z</time>
      </trkpt>
      <trkpt lat="43.65128" lon="3.39898">
        <ele>178.26</ele>
        <time>2024-08-27T11:18:36.759Z</time>
      </trkpt>
      <trkpt lat="43.65142" lon="3.39867">
        <ele>178.38</ele>
        <time>2024-08-27T11:18:44.779Z</time>
      </trkpt>
      <trkpt lat="43.65154" lon="3.39827">
        <ele>178.15</ele>
        <time>2024-08-27T11:18:52.804Z</time>
      </trkpt>
      <trkpt lat="43.65155" lon="3.39795">
        <ele>178.12</ele>
        <time>2024-08-27T11:19:00.833Z</time>
      </trkpt>
      <trkpt lat="43.65142" lon="3.39611">
        <ele>178.78</ele>
        <time>2024-08-27T11:19:08.884Z</time>
      </trkpt>
      <trkpt lat="43.65142" lon="3.39573">
        <ele>179.04</ele>
        <time>2024-08-27T11:19:16.939Z</time>
      </trkpt>
      <trkpt lat="43.65145" lon="3.39544">
        <ele>179.26</ele>
        <time>2024-08-27T11:19:24.997Z</time>
      </trkpt>
      <trkpt lat="43.65157" lon="3.39484">
        <ele>179.7</ele>
        <time>2024-08-27T11:19:33.063Z</time>
      </trkpt>
      <trkpt lat="43.6516" lon="3.39454">
        <ele>179.89</ele>
        <time>2024-08-27T11:19:41.132Z</time>
      </trkpt>
      <trkpt lat="43.65159" lon="3.39425">
        <ele>180.06</ele>
        <time>2024-08-27T11:19:49.204Z</time>
      </trkpt>
      <trkpt lat="43.65148" lon="3.39318">
        <ele>180.16</ele>
        <time>2024-08-27T11:19:57.289Z</time>
      </trkpt>
      <trkpt lat="43.65144" lon="3.3928">
        <ele>180.08</ele>
        <time>2024-08-27T11:20:05.378Z</time>
      </trkpt>
      <trkpt lat="43.65134" lon="3.39235">
        <ele>180.43</ele>
        <time>2024-08-27T11:20:13.473Z</time>
      </trkpt>
      <trkpt lat="43.65122" lon="3.39198">
        <ele>181.08</ele>
        <time>2024-08-27T11:20:21.573Z</time>
      </trkpt>
      <trkpt lat="43.65107" lon="3.3916">
        <ele>181.66</ele>
        <time>2024-08-27T11:20:29.678Z</time>
      </trkpt>
      <trkpt lat="43.65097" lon="3.39139">
        <ele>181.81</ele>
        <time>2024-08-27T11:20:37.786Z</time>
      </trkpt>
      <trkpt lat="43.65075" lon="3.39108">
        <ele>181.42</ele>
        <time>2024-08-27T11:20:45.899Z</time>
      </trkpt>
      <trkpt lat="43.65055" lon="3.39089">
        <ele>180.29</ele>
        <time>2024-08-27T11:20:54.016Z</time>
      </trkpt>
      <trkpt lat="43.65038" lon="3.39077">
        <ele>178.85</ele>
        <time>2024-08-27T11:21:02.136Z</time>
      </trkpt>
      <trkpt lat="43.65008" lon="3.39064">
        <ele>176.94</ele>
        <time>2024-08-27T11:21:10.261Z</time>
      </trkpt>
      <trkpt lat="43.64992" lon="3.39062">
        <ele>175.37</ele>
        <time>2024-08-27T11:21:18.388Z</time>
      </trkpt>
      <trkpt lat="43.6497" lon="3.39062">
        <ele>173.74</ele>
        <time>2024-08-27T11:21:26.519Z</time>
      </trkpt>
      <trkpt lat="43.64949" lon="3.39067">
        <ele>172.32</ele>
        <time>2024-08-27T11:21:34.653Z</time>
      </trkpt>
      <trkpt lat="43.64931" lon="3.39072">
        <ele>171.03</ele>
        <time>2024-08-27T11:21:42.790Z</time>
      </trkpt>
      <trkpt lat="43.64911" lon="3.39078">
        <ele>169.9</ele>
        <time>2024-08-27T11:21:50.930Z</time>
      </trkpt>
      <trkpt lat="43.64907" lon="3.39079">
        <ele>165.25</ele>
        <time>2024-08-27T11:21:59.071Z</time>
      </trkpt>
      <trkpt lat="43.64875" lon="3.39093">
        <ele>163.97</ele>
        <time>2024-08-27T11:22:07.217Z</time>
      </trkpt>
      <trkpt lat="43.64852" lon="3.39111">
        <ele>162.49</ele>
        <time>2024-08-27T11:22:15.368Z</time>
      </trkpt>
      <trkpt lat="43.6483" lon="3.39133">
        <ele>160.97</ele>
        <time>2024-08-27T11:22:23.523Z</time>
      </trkpt>
      <trkpt lat="43.64774" lon="3.39193">
        <ele>159.55</ele>
        <time>2024-08-27T11:22:31.689Z</time>
      </trkpt>
      <trkpt lat="43.64758" lon="3.39213">
        <ele>158.2</ele>
        <time>2024-08-27T11:22:39.859Z</time>
      </trkpt>
      <trkpt lat="43.64666" lon="3.39352">
        <ele>155.7</ele>
        <time>2024-08-27T11:22:48.051Z</time>
      </trkpt>
      <trkpt lat="43.6461" lon="3.39441">
        <ele>154.8</ele>
        <time>2024-08-27T11:22:56.256Z</time>
      </trkpt>
      <trkpt lat="43.6459" lon="3.39471">
        <ele>154.14</ele>
        <time>2024-08-27T11:23:04.466Z</time>
      </trkpt>
      <trkpt lat="43.6456" lon="3.39518">
        <ele>153.86</ele>
        <time>2024-08-27T11:23:12.683Z</time>
      </trkpt>
      <trkpt lat="43.64538" lon="3.39548">
        <ele>154.03</ele>
        <time>2024-08-27T11:23:20.905Z</time>
      </trkpt>
      <trkpt lat="43.64542" lon="3.39559">
        <ele>154.21</ele>
        <time>2024-08-27T11:23:29.129Z</time>
      </trkpt>
      <trkpt lat="43.64542" lon="3.39563">
        <ele>154.44</ele>
        <time>2024-08-27T11:23:37.353Z</time>
      </trkpt>
      <trkpt lat="43.64509" lon="3.39613">
        <ele>154.61</ele>
        <time>2024-08-27T11:23:45.585Z</time>
      </trkpt>
      <trkpt lat="43.64496" lon="3.39642">
        <ele>154.93</ele>
        <time>2024-08-27T11:23:53.821Z</time>
      </trkpt>
      <trkpt lat="43.64486" lon="3.39659">
        <ele>155.23</ele>
        <time>2024-08-27T11:24:02.060Z</time>
      </trkpt>
      <trkpt lat="43.64486" lon="3.39659">
        <ele>155.8</ele>
        <time>2024-08-27T11:24:10.299Z</time>
      </trkpt>
      <trkpt lat="43.64459" lon="3.39701">
        <ele>156.53</ele>
        <time>2024-08-27T11:24:18.544Z</time>
      </trkpt>
      <trkpt lat="43.64441" lon="3.39725">
        <ele>157.57</ele>
        <time>2024-08-27T11:24:26.793Z</time>
      </trkpt>
      <trkpt lat="43.64405" lon="3.39788">
        <ele>158.96</ele>
        <time>2024-08-27T11:24:35.051Z</time>
      </trkpt>
      <trkpt lat="43.64386" lon="3.39833">
        <ele>160.08</ele>
        <time>2024-08-27T11:24:43.315Z</time>
      </trkpt>
      <trkpt lat="43.64361" lon="3.39925">
        <ele>160.44</ele>
        <time>2024-08-27T11:24:51.591Z</time>
      </trkpt>
      <trkpt lat="43.64347" lon="3.39988">
        <ele>160.98</ele>
        <time>2024-08-27T11:24:59.875Z</time>
      </trkpt>
      <trkpt lat="43.6434" lon="3.40032">
        <ele>162.64</ele>
        <time>2024-08-27T11:25:08.164Z</time>
      </trkpt>
      <trkpt lat="43.64328" lon="3.40097">
        <ele>164.52</ele>
        <time>2024-08-27T11:25:16.461Z</time>
      </trkpt>
      <trkpt lat="43.64328" lon="3.40097">
        <ele>164.68</ele>
        <time>2024-08-27T11:25:24.758Z</time>
      </trkpt>
      <trkpt lat="43.64326" lon="3.40103">
        <ele>165.38</ele>
        <time>2024-08-27T11:25:33.055Z</time>
      </trkpt>
      <trkpt lat="43.64309" lon="3.40149">
        <ele>165.91</ele>
        <time>2024-08-27T11:25:41.358Z</time>
      </trkpt>
      <trkpt lat="43.64291" lon="3.40208">
        <ele>167.36</ele>
        <time>2024-08-27T11:25:49.669Z</time>
      </trkpt>
      <trkpt lat="43.64266" lon="3.40292">
        <ele>170.44</ele>
        <time>2024-08-27T11:25:57.990Z</time>
      </trkpt>
      <trkpt lat="43.64265" lon="3.40305">
        <ele>173.22</ele>
        <time>2024-08-27T11:26:06.313Z</time>
      </trkpt>
      <trkpt lat="43.64267" lon="3.40379">
        <ele>176.7</ele>
        <time>2024-08-27T11:26:14.644Z</time>
      </trkpt>
      <trkpt lat="43.64267" lon="3.40403">
        <ele>179.8</ele>
        <time>2024-08-27T11:26:22.978Z</time>
      </trkpt>
      <trkpt lat="43.64265" lon="3.40443">
        <ele>183.33</ele>
        <time>2024-08-27T11:26:31.317Z</time>
      </trkpt>
      <trkpt lat="43.64264" lon="3.40584">
        <ele>188.07</ele>
        <time>2024-08-27T11:26:39.672Z</time>
      </trkpt>
      <trkpt lat="43.64263" lon="3.40614">
        <ele>191.33</ele>
        <time>2024-08-27T11:26:48.031Z</time>
      </trkpt>
      <trkpt lat="43.64257" lon="3.40656">
        <ele>194.47</ele>
        <time>2024-08-27T11:26:56.395Z</time>
      </trkpt>
      <trkpt lat="43.64252" lon="3.40685">
        <ele>197.11</ele>
        <time>2024-08-27T11:27:04.762Z</time>
      </trkpt>
      <trkpt lat="43.64247" lon="3.40689">
        <ele>199.13</ele>
        <time>2024-08-27T11:27:13.130Z</time>
      </trkpt>
      <trkpt lat="43.64243" lon="3.40693">
        <ele>200.69</ele>
        <time>2024-08-27T11:27:21.499Z</time>
      </trkpt>
      <trkpt lat="43.64224" lon="3.40774">
        <ele>201.99</ele>
        <time>2024-08-27T11:27:29.878Z</time>
      </trkpt>
      <trkpt lat="43.64223" lon="3.40778">
        <ele>202.81</ele>
        <time>2024-08-27T11:27:38.257Z</time>
      </trkpt>
      <trkpt lat="43.64224" lon="3.40774">
        <ele>201.79</ele>
        <time>2024-08-27T11:27:46.637Z</time>
      </trkpt>
      <trkpt lat="43.64243" lon="3.40693">
        <ele>201.4</ele>
        <time>2024-08-27T11:27:55.027Z</time>
      </trkpt>
      <trkpt lat="43.64247" lon="3.40689">
        <ele>201.04</ele>
        <time>2024-08-27T11:28:03.417Z</time>
      </trkpt>
      <trkpt lat="43.64246" lon="3.40695">
        <ele>200.72</ele>
        <time>2024-08-27T11:28:11.808Z</time>
      </trkpt>
      <trkpt lat="43.64201" lon="3.40886">
        <ele>200.55</ele>
        <time>2024-08-27T11:28:20.223Z</time>
      </trkpt>
      <trkpt lat="43.64201" lon="3.40886">
        <ele>200.09</ele>
        <time>2024-08-27T11:28:28.638Z</time>
      </trkpt>
      <trkpt lat="43.64183" lon="3.4096">
        <ele>199.38</ele>
        <time>2024-08-27T11:28:37.062Z</time>
      </trkpt>
      <trkpt lat="43.64176" lon="3.40974">
        <ele>198.37</ele>
        <time>2024-08-27T11:28:45.488Z</time>
      </trkpt>
      <trkpt lat="43.64135" lon="3.41034">
        <ele>197.2</ele>
        <time>2024-08-27T11:28:53.923Z</time>
      </trkpt>
      <trkpt lat="43.64126" lon="3.41051">
        <ele>195.83</ele>
        <time>2024-08-27T11:29:02.361Z</time>
      </trkpt>
      <trkpt lat="43.64109" lon="3.41093">
        <ele>193.99</ele>
        <time>2024-08-27T11:29:10.804Z</time>
      </trkpt>
      <trkpt lat="43.64055" lon="3.41274">
        <ele>191.75</ele>
        <time>2024-08-27T11:29:19.270Z</time>
      </trkpt>
      <trkpt lat="43.64055" lon="3.41274">
        <ele>190.86</ele>
        <time>2024-08-27T11:29:27.736Z</time>
      </trkpt>
      <trkpt lat="43.64044" lon="3.41309">
        <ele>190.46</ele>
        <time>2024-08-27T11:29:36.206Z</time>
      </trkpt>
      <trkpt lat="43.64039" lon="3.41319">
        <ele>190.08</ele>
        <time>2024-08-27T11:29:44.678Z</time>
      </trkpt>
      <trkpt lat="43.64002" lon="3.41351">
        <ele>190.32</ele>
        <time>2024-08-27T11:29:53.157Z</time>
      </trkpt>
      <trkpt lat="43.63998" lon="3.4137">
        <ele>189.73</ele>
        <time>2024-08-27T11:30:01.638Z</time>
      </trkpt>
      <trkpt lat="43.64014" lon="3.41474">
        <ele>188.73</ele>
        <time>2024-08-27T11:30:10.131Z</time>
      </trkpt>
      <trkpt lat="43.64014" lon="3.41491">
        <ele>188.69</ele>
        <time>2024-08-27T11:30:18.626Z</time>
      </trkpt>
      <trkpt lat="43.64014" lon="3.41491">
        <ele>189.6</ele>
        <time>2024-08-27T11:30:27.121Z</time>
      </trkpt>
      <trkpt lat="43.64015" lon="3.41541">
        <ele>189.75</ele>
        <time>2024-08-27T11:30:35.622Z</time>
      </trkpt>
      <trkpt lat="43.64018" lon="3.41562">
        <ele>190.05</ele>
        <time>2024-08-27T11:30:44.126Z</time>
      </trkpt>
      <trkpt lat="43.64035" lon="3.41623">
        <ele>190.08</ele>
        <time>2024-08-27T11:30:52.637Z</time>
      </trkpt>
      <trkpt lat="43.64052" lon="3.41665">
        <ele>190.04</ele>
        <time>2024-08-27T11:31:01.154Z</time>
      </trkpt>
      <trkpt lat="43.64056" lon="3.4168">
        <ele>190.21</ele>
        <time>2024-08-27T11:31:09.673Z</time>
      </trkpt>
      <trkpt lat="43.64062" lon="3.41709">
        <ele>190.45</ele>
        <time>2024-08-27T11:31:18.195Z</time>
      </trkpt>
      <trkpt lat="43.64065" lon="3.41724">
        <ele>190.57</ele>
        <time>2024-08-27T11:31:26.719Z</time>
      </trkpt>
      <trkpt lat="43.64065" lon="3.41751">
        <ele>190.49</ele>
        <time>2024-08-27T11:31:35.246Z</time>
      </trkpt>
      <trkpt lat="43.64061" lon="3.41766">
        <ele>190.29</ele>
        <time>2024-08-27T11:31:43.775Z</time>
      </trkpt>
      <trkpt lat="43.64058" lon="3.41774">
        <ele>189.66</ele>
        <time>2024-08-27T11:31:52.305Z</time>
      </trkpt>
      <trkpt lat="43.64056" lon="3.41778">
        <ele>188.47</ele>
        <time>2024-08-27T11:32:00.836Z</time>
      </trkpt>
      <trkpt lat="43.63982" lon="3.41858">
        <ele>185.63</ele>
        <time>2024-08-27T11:32:09.382Z</time>
      </trkpt>
      <trkpt lat="43.63978" lon="3.41862">
        <ele>184.45</ele>
        <time>2024-08-27T11:32:17.928Z</time>
      </trkpt>
      <trkpt lat="43.63974" lon="3.41865">
        <ele>174.6</ele>
        <time>2024-08-27T11:32:26.475Z</time>
      </trkpt>
      <trkpt lat="43.63963" lon="3.41869">
        <ele>172.99</ele>
        <time>2024-08-27T11:32:35.024Z</time>
      </trkpt>
      <trkpt lat="43.63911" lon="3.41865">
        <ele>170.97</ele>
        <time>2024-08-27T11:32:43.581Z</time>
      </trkpt>
      <trkpt lat="43.63636" lon="3.41844">
        <ele>166.22</ele>
        <time>2024-08-27T11:32:52.182Z</time>
      </trkpt>
      <trkpt lat="43.6363" lon="3.41842">
        <ele>163.35</ele>
        <time>2024-08-27T11:33:00.784Z</time>
      </trkpt>
      <trkpt lat="43.63617" lon="3.41842">
        <ele>161.08</ele>
        <time>2024-08-27T11:33:09.388Z</time>
      </trkpt>
      <trkpt lat="43.63614" lon="3.41843">
        <ele>159.41</ele>
        <time>2024-08-27T11:33:17.993Z</time>
      </trkpt>
      <trkpt lat="43.63611" lon="3.41844">
        <ele>158.22</ele>
        <time>2024-08-27T11:33:26.598Z</time>
      </trkpt>
      <trkpt lat="43.63608" lon="3.41849">
        <ele>157.38</ele>
        <time>2024-08-27T11:33:35.204Z</time>
      </trkpt>
      <trkpt lat="43.63603" lon="3.41849">
        <ele>156.85</ele>
        <time>2024-08-27T11:33:43.811Z</time>
      </trkpt>
      <trkpt lat="43.63598" lon="3.41852">
        <ele>156.51</ele>
        <time>2024-08-27T11:33:52.419Z</time>
      </trkpt>
      <trkpt lat="43.63594" lon="3.41861">
        <ele>156.25</ele>
        <time>2024-08-27T11:34:01.028Z</time>
      </trkpt>
      <trkpt lat="43.63586" lon="3.41869">
        <ele>156.16</ele>
        <time>2024-08-27T11:34:09.639Z</time>
      </trkpt>
      <trkpt lat="43.63583" lon="3.41878">
        <ele>156.15</ele>
        <time>2024-08-27T11:34:18.251Z</time>
      </trkpt>
      <trkpt lat="43.63577" lon="3.41878">
        <ele>156.23</ele>
        <time>2024-08-27T11:34:26.864Z</time>
      </trkpt>
      <trkpt lat="43.63573" lon="3.41878">
        <ele>156.36</ele>
        <time>2024-08-27T11:34:35.477Z</time>
      </trkpt>
      <trkpt lat="43.63573" lon="3.41872">
        <ele>156.49</ele>
        <time>2024-08-27T11:34:44.091Z</time>
      </trkpt>
      <trkpt lat="43.63564" lon="3.4185">
        <ele>156.73</ele>
        <time>2024-08-27T11:34:52.708Z</time>
      </trkpt>
      <trkpt lat="43.63558" lon="3.41844">
        <ele>156.9</ele>
        <time>2024-08-27T11:35:01.326Z</time>
      </trkpt>
      <trkpt lat="43.63511" lon="3.41841">
        <ele>157.03</ele>
        <time>2024-08-27T11:35:09.952Z</time>
      </trkpt>
      <trkpt lat="43.63512" lon="3.41828">
        <ele>157.16</ele>
        <time>2024-08-27T11:35:18.579Z</time>
      </trkpt>
      <trkpt lat="43.63465" lon="3.41824">
        <ele>156.93</ele>
        <time>2024-08-27T11:35:27.214Z</time>
      </trkpt>
      <trkpt lat="43.63455" lon="3.41824">
        <ele>156.73</ele>
        <time>2024-08-27T11:35:35.850Z</time>
      </trkpt>
      <trkpt lat="43.63448" lon="3.41823">
        <ele>156.49</ele>
        <time>2024-08-27T11:35:44.487Z</time>
      </trkpt>
      <trkpt lat="43.63435" lon="3.4181">
        <ele>156.23</ele>
        <time>2024-08-27T11:35:53.127Z</time>
      </trkpt>
      <trkpt lat="43.63422" lon="3.41801">
        <ele>155.9</ele>
        <time>2024-08-27T11:36:01.769Z</time>
      </trkpt>
      <trkpt lat="43.63371" lon="3.41798">
        <ele>155.39</ele>
        <time>2024-08-27T11:36:10.419Z</time>
      </trkpt>
      <trkpt lat="43.6335" lon="3.41796">
        <ele>154.98</ele>
        <time>2024-08-27T11:36:19.073Z</time>
      </trkpt>
      <trkpt lat="43.63334" lon="3.41792">
        <ele>154.57</ele>
        <time>2024-08-27T11:36:27.729Z</time>
      </trkpt>
      <trkpt lat="43.63299" lon="3.41761">
        <ele>153.99</ele>
        <time>2024-08-27T11:36:36.392Z</time>
      </trkpt>
      <trkpt lat="43.63288" lon="3.41755">
        <ele>153.52</ele>
        <time>2024-08-27T11:36:45.057Z</time>
      </trkpt>
      <trkpt lat="43.63277" lon="3.41755">
        <ele>153.06</ele>
        <time>2024-08-27T11:36:53.724Z</time>
      </trkpt>
      <trkpt lat="43.6327" lon="3.41758">
        <ele>152.63</ele>
        <time>2024-08-27T11:37:02.392Z</time>
      </trkpt>
      <trkpt lat="43.6326" lon="3.41761">
        <ele>152.17</ele>
        <time>2024-08-27T11:37:11.061Z</time>
      </trkpt>
      <trkpt lat="43.63257" lon="3.4176">
        <ele>151.74</ele>
        <time>2024-08-27T11:37:19.731Z</time>
      </trkpt>
      <trkpt lat="43.6325" lon="3.41763">
        <ele>151.3</ele>
        <time>2024-08-27T11:37:28.402Z</time>
      </trkpt>
      <trkpt lat="43.63249" lon="3.41767">
        <ele>150.86</ele>
        <time>2024-08-27T11:37:37.074Z</time>
      </trkpt>
      <trkpt lat="43.63248" lon="3.41771">
        <ele>150.4</ele>
        <time>2024-08-27T11:37:45.746Z</time>
      </trkpt>
      <trkpt lat="43.63235" lon="3.41787">
        <ele>149.96</ele>
        <time>2024-08-27T11:37:54.421Z</time>
      </trkpt>
      <trkpt lat="43.63223" lon="3.41801">
        <ele>149.38</ele>
        <time>2024-08-27T11:38:03.098Z</time>
      </trkpt>
      <trkpt lat="43.63214" lon="3.41806">
        <ele>148.75</ele>
        <time>2024-08-27T11:38:11.777Z</time>
      </trkpt>
      <trkpt lat="43.63209" lon="3.41807">
        <ele>148.04</ele>
        <time>2024-08-27T11:38:20.457Z</time>
      </trkpt>
      <trkpt lat="43.63094" lon="3.41868">
        <ele>146.9</ele>
        <time>2024-08-27T11:38:29.157Z</time>
      </trkpt>
      <trkpt lat="43.63094" lon="3.41868">
        <ele>146.12</ele>
        <time>2024-08-27T11:38:37.857Z</time>
      </trkpt>
      <trkpt lat="43.63081" lon="3.41874">
        <ele>145.25</ele>
        <time>2024-08-27T11:38:46.559Z</time>
      </trkpt>
      <trkpt lat="43.62997" lon="3.41918">
        <ele>144.07</ele>
        <time>2024-08-27T11:38:55.275Z</time>
      </trkpt>
      <trkpt lat="43.62982" lon="3.41926">
        <ele>143.25</ele>
        <time>2024-08-27T11:39:03.994Z</time>
      </trkpt>
      <trkpt lat="43.62977" lon="3.41926">
        <ele>142.44</ele>
        <time>2024-08-27T11:39:12.713Z</time>
      </trkpt>
      <trkpt lat="43.62964" lon="3.4192">
        <ele>141.6</ele>
        <time>2024-08-27T11:39:21.435Z</time>
      </trkpt>
      <trkpt lat="43.62961" lon="3.41916">
        <ele>140.84</ele>
        <time>2024-08-27T11:39:30.157Z</time>
      </trkpt>
      <trkpt lat="43.62956" lon="3.41915">
        <ele>140.14</ele>
        <time>2024-08-27T11:39:38.880Z</time>
      </trkpt>
      <trkpt lat="43.62951" lon="3.41917">
        <ele>139.47</ele>
        <time>2024-08-27T11:39:47.604Z</time>
      </trkpt>
      <trkpt lat="43.62949" lon="3.4192">
        <ele>138.76</ele>
        <time>2024-08-27T11:39:56.328Z</time>
      </trkpt>
      <trkpt lat="43.62949" lon="3.41929">
        <ele>138.06</ele>
        <time>2024-08-27T11:40:05.053Z</time>
      </trkpt>
      <trkpt lat="43.62938" lon="3.41948">
        <ele>137.26</ele>
        <time>2024-08-27T11:40:13.781Z</time>
      </trkpt>
      <trkpt lat="43.62909" lon="3.4197">
        <ele>136.21</ele>
        <time>2024-08-27T11:40:22.515Z</time>
      </trkpt>
      <trkpt lat="43.62894" lon="3.41991">
        <ele>135.32</ele>
        <time>2024-08-27T11:40:31.252Z</time>
      </trkpt>
      <trkpt lat="43.62864" lon="3.42037">
        <ele>134.35</ele>
        <time>2024-08-27T11:40:39.996Z</time>
      </trkpt>
      <trkpt lat="43.62845" lon="3.42064">
        <ele>133.33</ele>
        <time>2024-08-27T11:40:48.745Z</time>
      </trkpt>
      <trkpt lat="43.62837" lon="3.42074">
        <ele>132.37</ele>
        <time>2024-08-27T11:40:57.495Z</time>
      </trkpt>
      <trkpt lat="43.62823" lon="3.42093">
        <ele>131.35</ele>
        <time>2024-08-27T11:41:06.248Z</time>
      </trkpt>
      <trkpt lat="43.62803" lon="3.42125">
        <ele>130.3</ele>
        <time>2024-08-27T11:41:15.006Z</time>
      </trkpt>
      <trkpt lat="43.62771" lon="3.42183">
        <ele>129.01</ele>
        <time>2024-08-27T11:41:23.773Z</time>
      </trkpt>
      <trkpt lat="43.62758" lon="3.42205">
        <ele>127.98</ele>
        <time>2024-08-27T11:41:32.543Z</time>
      </trkpt>
      <trkpt lat="43.62749" lon="3.42221">
        <ele>127.13</ele>
        <time>2024-08-27T11:41:41.315Z</time>
      </trkpt>
      <trkpt lat="43.62712" lon="3.42295">
        <ele>126.37</ele>
        <time>2024-08-27T11:41:50.098Z</time>
      </trkpt>
      <trkpt lat="43.62705" lon="3.42311">
        <ele>125.91</ele>
        <time>2024-08-27T11:41:58.883Z</time>
      </trkpt>
      <trkpt lat="43.62705" lon="3.42311">
        <ele>125.47</ele>
        <time>2024-08-27T11:42:07.668Z</time>
      </trkpt>
      <trkpt lat="43.62705" lon="3.42311">
        <ele>122.72</ele>
        <time>2024-08-27T11:42:16.453Z</time>
      </trkpt>
      <trkpt lat="43.62679" lon="3.42368">
        <ele>121.37</ele>
        <time>2024-08-27T11:42:25.246Z</time>
      </trkpt>
      <trkpt lat="43.62645" lon="3.42448">
        <ele>120.31</ele>
        <time>2024-08-27T11:42:34.050Z</time>
      </trkpt>
      <trkpt lat="43.62622" lon="3.42528">
        <ele>119.56</ele>
        <time>2024-08-27T11:42:42.864Z</time>
      </trkpt>
      <trkpt lat="43.62614" lon="3.42542">
        <ele>119.04</ele>
        <time>2024-08-27T11:42:51.680Z</time>
      </trkpt>
      <trkpt lat="43.62593" lon="3.42558">
        <ele>119.31</ele>
        <time>2024-08-27T11:43:00.500Z</time>
      </trkpt>
      <trkpt lat="43.62582" lon="3.4256">
        <ele>119.95</ele>
        <time>2024-08-27T11:43:09.321Z</time>
      </trkpt>
      <trkpt lat="43.6258" lon="3.42559">
        <ele>120.78</ele>
        <time>2024-08-27T11:43:18.143Z</time>
      </trkpt>
      <trkpt lat="43.62571" lon="3.4264">
        <ele>117.1</ele>
      </trkpt>
      <trkpt lat="43.62585" lon="3.42792">
        <ele>111.2</ele>
      </trkpt>
      <trkpt lat="43.62596" lon="3.42935">
        <ele>107.5</ele>
      </trkpt>
      <trkpt lat="43.62599" lon="3.43044">
        <ele>104.7</ele>
      </trkpt>
      <trkpt lat="43.62591" lon="3.43093">
        <ele>104.7</ele>
      </trkpt>
      <trkpt lat="43.62648" lon="3.43115">
        <ele>102.1</ele>
      </trkpt>
      <trkpt lat="43.62669" lon="3.43128">
        <ele>102.1</ele>
      </trkpt>
      <trkpt lat="43.6268" lon="3.4313">
        <ele>102.6</ele>
      </trkpt>
      <trkpt lat="43.62718" lon="3.43111">
        <ele>105.7</ele>
      </trkpt>
      <trkpt lat="43.62735" lon="3.43087">
        <ele>106.4</ele>
      </trkpt>
      <trkpt lat="43.62721" lon="3.43028">
        <ele>107.9</ele>
      </trkpt>
    </trkseg>
  </trk>
</gpx>